Provisional Data: Snake Creek near Lawsville Center, PA


Please select a monitoring station.
Please select start date.
Please select start date.

Toggle Unit: C/F Toggle Unit: C/F
Sample Time Temperature (C) Temperature (F) Specific Conductivity (mS/cm) pH   Turbidity (NTU+) DO (mg/L)
12/11/2021 12:00:00 AM 2.39 36.302 0.097 7.13 1.69 12.95
12/11/2021 12:15:00 AM 2.41 36.338 0.098 7.12 1.74 12.94
12/11/2021 12:30:00 AM 2.41 36.338 0.098 7.11 1.65 12.95
12/11/2021 12:45:00 AM 2.41 36.338 0.098 7.13 1.74 12.95
12/11/2021 1:00:00 AM 2.4 36.32 0.098 7.12 1.65 12.94
12/11/2021 1:15:00 AM 2.4 36.32 0.098 7.12 1.68 12.94
12/11/2021 1:30:00 AM 2.41 36.338 0.098 7.12 1.8 12.93
12/11/2021 1:45:00 AM 2.42 36.356 0.098 7.12 1.74 12.93
12/11/2021 2:00:00 AM 2.43 36.374 0.098 7.1 1.77 12.92
12/11/2021 2:15:00 AM 2.45 36.41 0.098 7.12 1.66 12.92
12/11/2021 2:30:00 AM 2.46 36.428 0.098 7.11 1.69 12.9
12/11/2021 2:45:00 AM 2.48 36.464 0.098 7.11 1.68 12.9
12/11/2021 3:00:00 AM 2.5 36.5 0.098 7.12 1.7 12.88
12/11/2021 3:15:00 AM 2.52 36.536 0.098 7.11 1.64 12.87
12/11/2021 3:30:00 AM 2.55 36.59 0.098 7.12 1.71 12.86
12/11/2021 3:45:00 AM 2.58 36.644 0.098 7.12 1.66 12.84
12/11/2021 4:00:00 AM 2.61 36.698 0.098 7.11 1.65 12.83
12/11/2021 4:15:00 AM 2.63 36.734 0.098 7.12 1.68 12.82
12/11/2021 4:30:00 AM 2.67 36.806 0.098 7.11 1.59 12.8
12/11/2021 4:45:00 AM 2.69 36.842 0.098 7.12 1.62 12.79
12/11/2021 5:00:00 AM 2.73 36.914 0.098 7.12 1.6 12.78
12/11/2021 5:15:00 AM 2.76 36.968 0.098 7.12 1.61 12.76
12/11/2021 5:30:00 AM 2.79 37.022 0.098 7.11 1.61 12.75
12/11/2021 5:45:00 AM 2.82 37.076 0.098 7.11 1.7 12.73
12/11/2021 6:00:00 AM 2.85 37.13 0.098 7.13 1.64 12.71
12/11/2021 6:15:00 AM 2.89 37.202 0.098 7.13 1.68 12.7
12/11/2021 6:30:00 AM 2.92 37.256 0.098 7.13 1.72 12.68
12/11/2021 6:45:00 AM 2.95 37.31 0.097 7.12 1.75 12.67
12/11/2021 7:00:00 AM 2.99 37.382 0.097 7.13 2.31 12.65
12/11/2021 7:15:00 AM 3.05 37.49 0.097 7.12 3.23 12.64
12/11/2021 7:30:00 AM 3.1 37.58 0.097 7.13 3.57 12.63
12/11/2021 7:45:00 AM 3.17 37.706 0.098 7.14 3.34 12.62
12/11/2021 8:00:00 AM 3.22 37.796 0.098 7.14 3.77 12.61
12/11/2021 8:15:00 AM 3.26 37.868 0.097 7.14 5.74 12.62
12/11/2021 8:30:00 AM 3.32 37.976 0.096 7.16 90.82 12.6
12/11/2021 8:45:00 AM 3.38 38.084 0.097 7.16 108.59 12.6
12/11/2021 9:00:00 AM 3.44 38.192 0.096 7.16 92.29 12.59
12/11/2021 9:15:00 AM 3.5 38.3 0.097 7.18 143.67 12.58
12/11/2021 9:30:00 AM 3.56 38.408 0.096 7.19 116.17 12.59
12/11/2021 9:45:00 AM 3.62 38.516 0.096 7.2 107.16 12.59
12/11/2021 10:00:00 AM 3.69 38.642 0.099 7.25 128.77 12.57
12/11/2021 10:15:00 AM 3.75 38.75 0.099 7.21 114.9 12.55
12/11/2021 10:30:00 AM 3.81 38.858 0.095 7.18 93.19 12.56
12/11/2021 10:45:00 AM 3.86 38.948 0.09 7.22 81.24 12.59
12/11/2021 11:00:00 AM 3.91 39.038 0.091 7.18 83.03 12.57
12/11/2021 11:15:00 AM 3.97 39.146 0.097 7.13 79.9 12.55
12/11/2021 11:30:00 AM 4.03 39.254 0.099 7.19 76.95 12.53
12/11/2021 11:45:00 AM 4.09 39.362 0.098 7.16 74.18 12.5
12/11/2021 12:00:00 PM 4.14 39.452 0.098 7.16 69.44 12.48
12/11/2021 12:15:00 PM 4.2 39.56 0.097 7.15 64.39 12.46
12/11/2021 12:30:00 PM 4.27 39.686 0.095 7.17 55.26 12.43
12/11/2021 12:45:00 PM 4.32 39.776 0.092 7.18 48.61 12.41
12/11/2021 1:00:00 PM 4.38 39.884 0.091 7.17 55.1 12.38
12/11/2021 1:15:00 PM 4.43 39.974 0.09 7.16 52.22 12.36
12/11/2021 1:30:00 PM 4.48 40.064 0.089 7.16 47.86 12.34
12/11/2021 1:45:00 PM 4.53 40.154 0.088 7.16 41.22 12.31
12/11/2021 2:00:00 PM 4.58 40.244 0.088 7.17 37.41 12.3
12/11/2021 2:15:00 PM 4.62 40.316 0.087 7.17 36.33 12.27
12/11/2021 2:30:00 PM 4.68 40.424 0.086 7.16 33.17 12.26
12/11/2021 2:45:00 PM 4.74 40.532 0.086 7.16 31.77 12.24
12/11/2021 3:00:00 PM 4.82 40.676 0.085 7.16 29.79 12.23
12/11/2021 3:15:00 PM 4.88 40.784 0.085 7.17 27.98 12.2
12/11/2021 3:30:00 PM 4.93 40.874 0.085 7.16 26.19 12.17
12/11/2021 3:45:00 PM 4.98 40.964 0.085 7.16 25.68 12.15
12/11/2021 4:00:00 PM 5.02 41.036 0.084 7.17 24.54 12.14
12/11/2021 4:15:00 PM 5.07 41.126 0.085 7.17 23.32 12.1
12/11/2021 4:30:00 PM 5.11 41.198 0.085 7.17 22.45 12.07
12/11/2021 4:45:00 PM 5.15 41.27 0.085 7.16 20.22 12.04
12/11/2021 5:00:00 PM 5.19 41.342 0.085 7.17 19.93 12.01
12/11/2021 5:15:00 PM 5.22 41.396 0.085 7.16 20.44 11.99
12/11/2021 5:30:00 PM 5.25 41.45 0.086 7.15 21.63 11.96
12/11/2021 5:45:00 PM 5.3 41.54 0.086 7.16 16.55 11.94
12/11/2021 6:00:00 PM 5.35 41.63 0.086 7.16 16.11 11.91
12/11/2021 6:15:00 PM 5.41 41.738 0.086 7.13 15.46 11.9
12/11/2021 6:30:00 PM 5.46 41.828 0.086 7.15 14.84 11.88
12/11/2021 6:45:00 PM 5.5 41.9 0.087 7.14 14.83 11.87
12/11/2021 7:00:00 PM 5.54 41.972 0.087 7.16 14.16 11.85
12/11/2021 7:15:00 PM 5.58 42.044 0.087 7.16 12.85 11.84
12/11/2021 7:30:00 PM 5.68 42.224 0.088 7.14 12.76 11.82
12/11/2021 7:45:00 PM 5.74 42.332 0.088 7.16 12.49 11.8
12/11/2021 8:00:00 PM 5.76 42.368 0.088 7.16 12.5 11.79
12/11/2021 8:15:00 PM 5.77 42.386 0.088 7.16 20.21 11.78
12/11/2021 8:30:00 PM 5.79 42.422 0.089 7.16 14.05 11.78
12/11/2021 8:45:00 PM 5.8 42.44 0.089 7.15 13.47 11.77
12/11/2021 9:00:00 PM 5.8 42.44 0.089 7.16 12.92 11.77
12/11/2021 9:15:00 PM 5.78 42.404 0.089 7.16 12.62 11.77
12/11/2021 9:30:00 PM 5.76 42.368 0.089 7.17 11.68 11.79
12/11/2021 9:45:00 PM 5.73 42.314 0.089 7.16 11.74 11.79
12/11/2021 10:00:00 PM 5.69 42.242 0.09 7.15 11.68 11.81
12/11/2021 10:15:00 PM 5.63 42.134 0.09 7.16 10.52 11.83
12/11/2021 10:30:00 PM 5.58 42.044 0.09 7.17 11.2 11.85
12/11/2021 10:45:00 PM 5.53 41.954 0.09 7.16 10.48 11.87
12/11/2021 11:00:00 PM 5.47 41.846 0.091 7.17 9.69 11.9
12/11/2021 11:15:00 PM 5.4 41.72 0.091 7.17 9.72 11.92
12/11/2021 11:30:00 PM 5.34 41.612 0.091 7.15 10.15 11.94
12/11/2021 11:45:00 PM 5.28 41.504 0.092 7.17 9.66 11.97
12/12/2021 12:00:00 AM 5.22 41.396 0.092 7.17 8.87 11.99
12/12/2021 12:15:00 AM 5.16 41.288 0.092 7.17 9.45 12.02
12/12/2021 12:30:00 AM 5.1 41.18 0.093 7.17 9.59 12.04
12/12/2021 12:45:00 AM 5.04 41.072 0.093 7.17 9.05 12.06
12/12/2021 1:00:00 AM 4.98 40.964 0.093 7.17 9.86 12.08
12/12/2021 1:15:00 AM 4.92 40.856 0.093 7.17 9.9 12.11
12/12/2021 1:30:00 AM 4.86 40.748 0.093 7.17 10.81 12.13
12/12/2021 1:45:00 AM 4.81 40.658 0.093 7.17 10.47 12.15
12/12/2021 2:00:00 AM 4.76 40.568 0.094 7.14 9.62 12.17
12/12/2021 2:15:00 AM 4.71 40.478 0.094 7.16 10.26 12.2
12/12/2021 2:30:00 AM 4.65 40.37 0.094 7.16 10.14 12.21
12/12/2021 2:45:00 AM 4.59 40.262 0.094 7.16 10.3 12.24
12/12/2021 3:00:00 AM 4.54 40.172 0.094 7.16 9.93 12.25
12/12/2021 3:15:00 AM 4.5 40.1 0.094 7.16 9.82 12.26
12/12/2021 3:30:00 AM 4.45 40.01 0.094 7.14 9.33 12.29
12/12/2021 3:45:00 AM 4.41 39.938 0.094 7.16 8.22 12.3
12/12/2021 4:00:00 AM 4.37 39.866 0.094 7.15 9 12.31
12/12/2021 4:15:00 AM 4.31 39.758 0.094 7.14 8.57 12.34
12/12/2021 4:30:00 AM 4.26 39.668 0.094 7.15 8.22 12.36
12/12/2021 4:45:00 AM 4.22 39.596 0.093 7.13 8.22 12.37
12/12/2021 5:00:00 AM 4.19 39.542 0.093 7.15 8.3 12.38
12/12/2021 5:15:00 AM 4.15 39.47 0.093 7.14 7.61 12.4
12/12/2021 5:30:00 AM 4.09 39.362 0.093 7.13 7.35 12.41
12/12/2021 5:45:00 AM 4.03 39.254 0.093 7.15 7.48 12.44
12/12/2021 6:00:00 AM 3.96 39.128 0.093 7.14 7.71 12.46
12/12/2021 6:15:00 AM 3.89 39.002 0.093 7.14 7.5 12.48
12/12/2021 6:30:00 AM 3.83 38.894 0.093 7.13 7.34 12.49
12/12/2021 6:45:00 AM 3.77 38.786 0.093 7.14 7.35 12.51
12/12/2021 7:00:00 AM 3.71 38.678 0.093 7.12 6.93 12.54
12/12/2021 7:15:00 AM 3.65 38.57 0.093 7.14 7.51 12.56
12/12/2021 7:30:00 AM 3.6 38.48 0.093 7.14 6.53 12.59
12/12/2021 7:45:00 AM 3.56 38.408 0.093 7.12 6.74 12.62
12/12/2021 8:00:00 AM 3.51 38.318 0.093 7.14 6.31 12.69
12/12/2021 8:15:00 AM 3.47 38.246 0.093 7.15 6.33 12.73
12/12/2021 8:30:00 AM 3.42 38.156 0.093 7.16 5.64 12.8
12/12/2021 8:45:00 AM 3.38 38.084 0.093 7.17 5.92 12.87
12/12/2021 9:00:00 AM 3.34 38.012 0.093 7.19 5.97 12.93
12/12/2021 9:15:00 AM 3.32 37.976 0.093 7.2 5.45 13.02
12/12/2021 9:30:00 AM 3.31 37.958 0.093 7.22 5.23 13.12
12/12/2021 9:45:00 AM 3.31 37.958 0.093 7.23 4.97 13.21
12/12/2021 10:00:00 AM 3.32 37.976 0.093 7.26 5.13 13.29
12/12/2021 10:15:00 AM 3.33 37.994 0.093 7.3 4.94 13.37
12/12/2021 10:30:00 AM 3.36 38.048 0.093 7.31 4.79 13.44
12/12/2021 10:45:00 AM 3.4 38.12 0.093 7.34 4.85 13.49
12/12/2021 11:00:00 AM 3.45 38.21 0.093 7.35 4.68 13.54
12/12/2021 11:15:00 AM 3.5 38.3 0.093 7.39 4.61 13.6
12/12/2021 11:30:00 AM 3.57 38.426 0.093 7.41 4.77 13.63
12/12/2021 11:45:00 AM 3.65 38.57 0.092 7.44 4.6 13.68
12/12/2021 12:00:00 PM 3.71 38.678 0.092 7.46 4.48 13.7
12/12/2021 12:15:00 PM 3.79 38.822 0.092 7.49 4.41 13.72
12/12/2021 12:30:00 PM 3.87 38.966 0.092 7.5 4.45 13.74
12/12/2021 12:45:00 PM 3.96 39.128 0.092 7.54 4.51 13.75
12/12/2021 1:00:00 PM 4.05 39.29 0.092 7.57 4.25 13.76
12/12/2021 1:15:00 PM 4.11 39.398 0.092 7.57 4.23 13.76
12/12/2021 1:30:00 PM 4.16 39.488 0.092 7.6 4.12 13.74
12/12/2021 1:45:00 PM 4.19 39.542 0.092 7.61 4.2 13.73
12/12/2021 2:00:00 PM 4.22 39.596 0.092 7.62 4.05 13.7
12/12/2021 2:15:00 PM 4.23 39.614 0.092 7.62 4.13 13.68
12/12/2021 2:30:00 PM 4.23 39.614 0.092 7.62 4.05 13.65
12/12/2021 2:45:00 PM 4.21 39.578 0.092 7.6 4.07 13.61
12/12/2021 3:00:00 PM 4.18 39.524 0.092 7.58 4.03 13.57
12/12/2021 3:15:00 PM 4.14 39.452 0.092 7.56 3.9 13.52
12/12/2021 3:30:00 PM 4.08 39.344 0.092 7.53 3.88 13.44
12/12/2021 3:45:00 PM 4.01 39.218 0.092 7.49 3.78 13.35
12/12/2021 4:00:00 PM 3.94 39.092 0.092 7.44 4.04 13.26
12/12/2021 4:15:00 PM 3.88 38.984 0.092 7.39 3.79 13.15
12/12/2021 4:30:00 PM 3.82 38.876 0.092 7.35 3.94 13.04
12/12/2021 4:45:00 PM 3.77 38.786 0.092 7.29 3.85 12.94
12/12/2021 5:00:00 PM 3.72 38.696 0.093 7.26 3.76 12.86
12/12/2021 5:15:00 PM 3.68 38.624 0.093 7.23 3.89 12.8
12/12/2021 5:30:00 PM 3.63 38.534 0.093 7.21 3.95 12.75
12/12/2021 5:45:00 PM 3.57 38.426 0.093 7.19 3.9 12.73
12/12/2021 6:00:00 PM 3.52 38.336 0.093 7.16 3.82 12.71
12/12/2021 6:15:00 PM 3.47 38.246 0.093 7.16 3.88 12.7
12/12/2021 6:30:00 PM 3.41 38.138 0.093 7.15 3.87 12.71
12/12/2021 6:45:00 PM 3.36 38.048 0.093 7.14 3.99 12.72
12/12/2021 7:00:00 PM 3.3 37.94 0.093 7.14 3.87 12.73
12/12/2021 7:15:00 PM 3.24 37.832 0.093 7.11 3.74 12.75
12/12/2021 7:30:00 PM 3.18 37.724 0.093 7.12 4 12.77
12/12/2021 7:45:00 PM 3.12 37.616 0.093 7.13 3.98 12.79
12/12/2021 8:00:00 PM 3.06 37.508 0.093 7.11 4.04 12.81
12/12/2021 8:15:00 PM 3.01 37.418 0.093 7.12 3.96 12.82
12/12/2021 8:30:00 PM 2.96 37.328 0.093 7.12 3.78 12.84
12/12/2021 8:45:00 PM 2.89 37.202 0.093 7.12 3.99 12.87
12/12/2021 9:00:00 PM 2.84 37.112 0.093 7.11 3.9 12.89
12/12/2021 9:15:00 PM 2.79 37.022 0.093 7.1 4.15 12.9
12/12/2021 9:30:00 PM 2.74 36.932 0.093 7.11 3.8 12.92
12/12/2021 9:45:00 PM 2.69 36.842 0.093 7.11 3.7 12.94
12/12/2021 10:00:00 PM 2.64 36.752 0.093 7.09 3.69 12.96
12/12/2021 10:15:00 PM 2.6 36.68 0.093 7.1 3.64 12.97
12/12/2021 10:30:00 PM 2.55 36.59 0.093 7.1 3.82 12.99
12/12/2021 10:45:00 PM 2.51 36.518 0.093 7.1 3.58 13
12/12/2021 11:00:00 PM 2.47 36.446 0.093 7.1 3.79 13.02
12/12/2021 11:15:00 PM 2.42 36.356 0.093 7.09 3.77 13.04
12/12/2021 11:30:00 PM 2.38 36.284 0.093 7.09 3.76 13.06
12/12/2021 11:45:00 PM 2.33 36.194 0.093 7.1 4 13.07
12/13/2021 12:00:00 AM 2.29 36.122 0.093 7.1 3.47 13.07
12/13/2021 12:15:00 AM 2.26 36.068 0.093 7.1 3.57 13.09
12/13/2021 12:30:00 AM 2.23 36.014 0.093 7.11 3.68 13.1
12/13/2021 12:45:00 AM 2.21 35.978 0.093 7.09 3.52 13.11
12/13/2021 1:00:00 AM 2.18 35.924 0.093 7.11 3.6 13.14
12/13/2021 1:15:00 AM 2.15 35.87 0.093 7.11 3.61 13.13
12/13/2021 1:30:00 AM 2.13 35.834 0.093 7.08 3.33 13.15
12/13/2021 1:45:00 AM 2.11 35.798 0.093 7.1 3.66 13.16
12/13/2021 2:00:00 AM 2.1 35.78 0.093 7.09 3.47 13.18
12/13/2021 2:15:00 AM 2.1 35.78 0.093 7.11 3.65 13.19
12/13/2021 2:30:00 AM 2.1 35.78 0.093 7.1 3.42 13.2
12/13/2021 2:45:00 AM 2.1 35.78 0.092 7.09 3.53 13.2
12/13/2021 3:00:00 AM 2.1 35.78 0.092 7.11 3.59 13.2
12/13/2021 3:15:00 AM 2.1 35.78 0.092 7.1 3.53 13.2
12/13/2021 3:30:00 AM 2.1 35.78 0.092 7.1 3.64 13.19
12/13/2021 3:45:00 AM 2.11 35.798 0.092 7.1 3.38 13.19
12/13/2021 4:00:00 AM 2.11 35.798 0.092 7.1 3.6 13.2
12/13/2021 4:15:00 AM 2.12 35.816 0.092 7.1 3.56 13.19
12/13/2021 4:30:00 AM 2.12 35.816 0.092 7.1 3.45 13.19
12/13/2021 4:45:00 AM 2.13 35.834 0.092 7.1 3.37 13.19
12/13/2021 5:00:00 AM 2.14 35.852 0.092 7.08 3.46 13.18
12/13/2021 5:15:00 AM 2.15 35.87 0.092 7.09 3.52 13.19
12/13/2021 5:30:00 AM 2.16 35.888 0.092 7.1 3.49 13.19
12/13/2021 5:45:00 AM 2.17 35.906 0.091 7.1 3.45 13.17
12/13/2021 6:00:00 AM 2.18 35.924 0.091 7.09 3.52 13.17
12/13/2021 6:15:00 AM 2.19 35.942 0.091 7.1 3.49 13.17
12/13/2021 6:30:00 AM 2.21 35.978 0.091 7.09 3.41 13.16
12/13/2021 6:45:00 AM 2.22 35.996 0.091 7.09 3.48 13.15
12/13/2021 7:00:00 AM 2.24 36.032 0.091 7.1 3.37 13.15
12/13/2021 7:15:00 AM 2.26 36.068 0.091 7.08 3.36 13.15
12/13/2021 7:30:00 AM 2.27 36.086 0.091 7.1 3.38 13.15
12/13/2021 7:45:00 AM 2.29 36.122 0.091 7.1 3.35 13.15
12/13/2021 8:00:00 AM 2.31 36.158 0.091 7.1 3.37 13.17
12/13/2021 8:15:00 AM 2.34 36.212 0.091 7.11 3.34 13.22
12/13/2021 8:30:00 AM 2.37 36.266 0.091 7.12 3.43 13.29
12/13/2021 8:45:00 AM 2.41 36.338 0.091 7.15 3.34 13.39
12/13/2021 9:00:00 AM 2.44 36.392 0.091 7.18 3.17 13.49
12/13/2021 9:15:00 AM 2.46 36.428 0.09 7.2 3.28 13.6
12/13/2021 9:30:00 AM 2.5 36.5 0.09 7.24 3.13 13.71
12/13/2021 9:45:00 AM 2.55 36.59 0.09 7.27 3.12 13.82
12/13/2021 10:00:00 AM 2.6 36.68 0.09 7.28 3.17 13.9
12/13/2021 10:15:00 AM 2.65 36.77 0.09 7.33 3.14 13.95
12/13/2021 10:30:00 AM 2.71 36.878 0.09 7.36 3.2 14
12/13/2021 10:45:00 AM 2.78 37.004 0.089 7.36 3.1 14.04
12/13/2021 11:00:00 AM 2.85 37.13 0.089 7.4 3.15 14.07
12/13/2021 11:15:00 AM 2.94 37.292 0.089 7.44 3.06 14.1
12/13/2021 11:30:00 AM 3.03 37.454 0.089 7.45 3.11 14.12
12/13/2021 11:45:00 AM 3.13 37.634 0.089 7.48 3.05 14.13
12/13/2021 12:00:00 PM 3.25 37.85 0.089 7.52 2.98 14.13
12/13/2021 12:15:00 PM 3.36 38.048 0.089 7.53 2.94 14.15
12/13/2021 12:30:00 PM 3.47 38.246 0.088 7.58 3.05 14.15
12/13/2021 12:45:00 PM 3.6 38.48 0.088 7.61 2.98 14.14
12/13/2021 1:00:00 PM 3.7 38.66 0.088 7.61 2.96 14.12
12/13/2021 1:15:00 PM 3.81 38.858 0.088 7.65 3.04 14.1
12/13/2021 1:30:00 PM 3.89 39.002 0.088 7.68 2.91 14.08
12/13/2021 1:45:00 PM 3.94 39.092 0.088 7.68 2.96 14.04
12/13/2021 2:00:00 PM 4 39.2 0.088 7.69 2.92 14
12/13/2021 2:15:00 PM 4.03 39.254 0.088 7.7 2.94 13.96
12/13/2021 2:30:00 PM 4.05 39.29 0.088 7.69 2.92 13.91
12/13/2021 2:45:00 PM 4.07 39.326 0.088 7.68 3.02 13.87
12/13/2021 3:00:00 PM 4.06 39.308 0.088 7.66 2.97 13.8
12/13/2021 3:15:00 PM 4.04 39.272 0.088 7.62 2.94 13.74
12/13/2021 3:30:00 PM 4 39.2 0.088 7.58 3 13.65
12/13/2021 3:45:00 PM 3.95 39.11 0.088 7.53 2.97 13.54
12/13/2021 4:00:00 PM 3.89 39.002 0.088 7.48 3.06 13.43
12/13/2021 4:15:00 PM 3.83 38.894 0.088 7.42 2.99 13.29
12/13/2021 4:30:00 PM 3.78 38.804 0.088 7.37 2.88 13.18
12/13/2021 4:45:00 PM 3.73 38.714 0.088 7.31 3.02 13.03
12/13/2021 5:00:00 PM 3.69 38.642 0.088 7.27 3.03 12.93
12/13/2021 5:15:00 PM 3.65 38.57 0.088 7.23 3.03 12.84
12/13/2021 5:30:00 PM 3.62 38.516 0.089 7.21 3.07 12.79
12/13/2021 5:45:00 PM 3.58 38.444 0.089 7.17 3.13 12.75
12/13/2021 6:00:00 PM 3.56 38.408 0.089 7.17 3.05 12.71
12/13/2021 6:15:00 PM 3.51 38.318 0.089 7.15 3.04 12.7
12/13/2021 6:30:00 PM 3.47 38.246 0.089 7.13 3.12 12.7
12/13/2021 6:45:00 PM 3.41 38.138 0.089 7.13 3.12 12.7
12/13/2021 7:00:00 PM 3.37 38.066 0.089 7.13 3.11 12.71
12/13/2021 7:15:00 PM 3.31 37.958 0.089 7.12 3.04 12.72
12/13/2021 7:30:00 PM 3.27 37.886 0.089 7.12 3.17 12.73
12/13/2021 7:45:00 PM 3.21 37.778 0.089 7.11 3.04 12.75
12/13/2021 8:00:00 PM 3.15 37.67 0.089 7.11 3.06 12.77
12/13/2021 8:15:00 PM 3.11 37.598 0.089 7.11 3.26 12.79
12/13/2021 8:30:00 PM 3.05 37.49 0.089 7.08 3.05 12.81
12/13/2021 8:45:00 PM 3 37.4 0.089 7.09 3.14 12.82
12/13/2021 9:00:00 PM 2.96 37.328 0.089 7.1 3.06 12.84
12/13/2021 9:15:00 PM 2.91 37.238 0.089 7.1 3.13 12.86
12/13/2021 9:30:00 PM 2.86 37.148 0.089 7.1 3.08 12.88
12/13/2021 9:45:00 PM 2.82 37.076 0.089 7.08 3.03 12.89
12/13/2021 10:00:00 PM 2.78 37.004 0.089 7.09 3.08 12.91
12/13/2021 10:15:00 PM 2.74 36.932 0.089 7.1 3.05 12.93
12/13/2021 10:30:00 PM 2.7 36.86 0.089 7.09 3.12 12.95
12/13/2021 10:45:00 PM 2.66 36.788 0.089 7.07 3.12 12.96
12/13/2021 11:00:00 PM 2.62 36.716 0.089 7.08 3.24 12.97
12/13/2021 11:15:00 PM 2.57 36.626 0.089 7.1 3.17 12.99
12/13/2021 11:30:00 PM 2.53 36.554 0.089 7.09 3.19 13.01
12/13/2021 11:45:00 PM 2.5 36.5 0.089 7.09 3.01 13.03
12/14/2021 12:00:00 AM 2.46 36.428 0.089 7.08 3.05 13.05
12/14/2021 12:15:00 AM 2.42 36.356 0.089 7.09 3.15 13.06
12/14/2021 12:30:00 AM 2.39 36.302 0.089 7.07 3.03 13.06
12/14/2021 12:45:00 AM 2.35 36.23 0.089 7.07 3.05 13.08
12/14/2021 1:00:00 AM 2.32 36.176 0.089 7.07 3.08 13.1
12/14/2021 1:15:00 AM 2.29 36.122 0.089 7.09 3.11 13.11
12/14/2021 1:30:00 AM 2.26 36.068 0.089 7.09 3.06 13.13
12/14/2021 1:45:00 AM 2.23 36.014 0.089 7.06 3.15 13.13
12/14/2021 2:00:00 AM 2.2 35.96 0.089 7.08 2.98 13.15
12/14/2021 2:15:00 AM 2.17 35.906 0.089 7.07 3.02 13.16
12/14/2021 2:30:00 AM 2.14 35.852 0.089 7.08 3.06 13.17
12/14/2021 2:45:00 AM 2.11 35.798 0.089 7.07 3.07 13.19
12/14/2021 3:00:00 AM 2.07 35.726 0.089 7.08 3.09 13.21
12/14/2021 3:15:00 AM 2.04 35.672 0.089 7.06 3.02 13.22
12/14/2021 3:30:00 AM 2.02 35.636 0.089 7.08 2.98 13.22
12/14/2021 3:45:00 AM 1.98 35.564 0.089 7.07 3.01 13.23
12/14/2021 4:00:00 AM 1.96 35.528 0.089 7.08 2.93 13.24
12/14/2021 4:15:00 AM 1.93 35.474 0.089 7.08 2.99 13.26
12/14/2021 4:30:00 AM 1.9 35.42 0.089 7.08 2.9 13.27
12/14/2021 4:45:00 AM 1.87 35.366 0.089 7.06 3.01 13.29
12/14/2021 5:00:00 AM 1.84 35.312 0.089 7.08 2.95 13.3
12/14/2021 5:15:00 AM 1.81 35.258 0.089 7.08 3.01 13.32
12/14/2021 5:30:00 AM 1.79 35.222 0.089 7.08 3.01 13.33
12/14/2021 5:45:00 AM 1.76 35.168 0.089 7.07 2.96 13.34
12/14/2021 6:00:00 AM 1.73 35.114 0.089 7.06 2.89 13.35
12/14/2021 6:15:00 AM 1.71 35.078 0.089 7.08 2.9 13.36
12/14/2021 6:30:00 AM 1.68 35.024 0.089 7.08 2.94 13.38
12/14/2021 6:45:00 AM 1.67 35.006 0.089 7.07 2.91 13.38
12/14/2021 7:00:00 AM 1.68 35.024 0.089 7.08 2.88 13.39
12/14/2021 7:15:00 AM 1.69 35.042 0.089 7.05 2.79 13.4
12/14/2021 7:30:00 AM 1.7 35.06 0.089 7.08 2.81 13.41
12/14/2021 7:45:00 AM 1.71 35.078 0.089 7.07 2.92 13.44
12/14/2021 8:00:00 AM 1.74 35.132 0.089 7.07 2.88 13.49
12/14/2021 8:15:00 AM 1.77 35.186 0.088 7.1 2.82 13.57
12/14/2021 8:30:00 AM 1.81 35.258 0.088 7.12 2.87 13.67
12/14/2021 8:45:00 AM 1.86 35.348 0.088 7.15 2.87 13.81
12/14/2021 9:00:00 AM 1.92 35.456 0.088 7.17 2.86 13.99
12/14/2021 9:15:00 AM 1.98 35.564 0.088 7.23 2.9 14.13
12/14/2021 9:30:00 AM 2.04 35.672 0.088 7.27 2.77 14.23
12/14/2021 9:45:00 AM 2.12 35.816 0.087 7.31 2.76 14.34
12/14/2021 10:00:00 AM 2.21 35.978 0.087 7.35 2.75 14.45
12/14/2021 10:15:00 AM 2.33 36.194 0.087 7.4 2.79 14.53
12/14/2021 10:30:00 AM 2.41 36.338 0.087 7.45 2.71 14.58
12/14/2021 10:45:00 AM 2.51 36.518 0.087 7.5 2.8 14.62
12/14/2021 11:00:00 AM 2.63 36.734 0.086 7.52 2.79 14.62
12/14/2021 11:15:00 AM 2.67 36.806 0.086 7.55 2.76 14.6
12/14/2021 11:30:00 AM 2.74 36.932 0.086 7.56 2.75 14.57
12/14/2021 11:45:00 AM 2.87 37.166 0.086 7.6 2.74 14.56
12/14/2021 12:00:00 PM 3 37.4 0.086 7.62 2.75 14.54
12/14/2021 12:15:00 PM 3.11 37.598 0.086 7.65 2.82 14.52
12/14/2021 12:30:00 PM 3.21 37.778 0.086 7.64 2.71 14.51
12/14/2021 12:45:00 PM 3.34 38.012 0.086 7.69 2.7 14.48
12/14/2021 1:00:00 PM 3.44 38.192 0.085 7.72 2.76 14.47
12/14/2021 1:15:00 PM 3.56 38.408 0.085 7.73 2.7 14.43
12/14/2021 1:30:00 PM 3.65 38.57 0.085 7.75 2.7 14.4
12/14/2021 1:45:00 PM 3.71 38.678 0.085 7.76 2.7 14.36
12/14/2021 2:00:00 PM 3.75 38.75 0.085 7.76 2.71 14.33
12/14/2021 2:15:00 PM 3.77 38.786 0.085 7.75 2.71 14.27
12/14/2021 2:30:00 PM 3.79 38.822 0.085 7.75 2.69 14.23
12/14/2021 2:45:00 PM 3.8 38.84 0.085 7.72 2.68 14.18
12/14/2021 3:00:00 PM 3.8 38.84 0.085 7.69 2.85 14.13
12/14/2021 3:15:00 PM 3.79 38.822 0.085 7.68 2.62 14.06
12/14/2021 3:30:00 PM 3.75 38.75 0.085 7.63 2.67 13.98
12/14/2021 3:45:00 PM 3.7 38.66 0.085 7.57 2.6 13.87
12/14/2021 4:00:00 PM 3.65 38.57 0.086 7.51 2.6 13.75
12/14/2021 4:15:00 PM 3.58 38.444 0.086 7.45 2.6 13.62
12/14/2021 4:30:00 PM 3.51 38.318 0.086 7.39 2.7 13.48
12/14/2021 4:45:00 PM 3.45 38.21 0.086 7.32 2.62 13.34
12/14/2021 5:00:00 PM 3.4 38.12 0.086 7.28 2.74 13.22
12/14/2021 5:15:00 PM 3.35 38.03 0.086 7.24 2.69 13.13
12/14/2021 5:30:00 PM 3.32 37.976 0.086 7.2 2.64 13.06
12/14/2021 5:45:00 PM 3.28 37.904 0.087 7.17 2.74 13.01
12/14/2021 6:00:00 PM 3.25 37.85 0.087 7.16 2.7 12.97
12/14/2021 6:15:00 PM 3.21 37.778 0.087 7.15 2.78 12.96
12/14/2021 6:30:00 PM 3.18 37.724 0.087 7.14 2.8 12.95
12/14/2021 6:45:00 PM 3.13 37.634 0.087 7.12 2.76 12.95
12/14/2021 7:00:00 PM 3.08 37.544 0.087 7.11 2.83 12.96
12/14/2021 7:15:00 PM 3.03 37.454 0.087 7.11 2.67 12.97
12/14/2021 7:30:00 PM 2.98 37.364 0.087 7.11 2.77 12.98
12/14/2021 7:45:00 PM 2.93 37.274 0.087 7.1 2.8 13
12/14/2021 8:00:00 PM 2.88 37.184 0.087 7.11 2.85 13.02
12/14/2021 8:15:00 PM 2.83 37.094 0.087 7.1 2.87 13.03
12/14/2021 8:30:00 PM 2.78 37.004 0.087 7.08 2.84 13.05
12/14/2021 8:45:00 PM 2.73 36.914 0.088 7.08 2.89 13.07
12/14/2021 9:00:00 PM 2.69 36.842 0.088 7.09 2.79 13.08
12/14/2021 9:15:00 PM 2.65 36.77 0.088 7.08 2.87 13.1
12/14/2021 9:30:00 PM 2.6 36.68 0.088 7.09 2.75 13.12
12/14/2021 9:45:00 PM 2.56 36.608 0.088 7.09 2.76 13.14
12/14/2021 10:00:00 PM 2.52 36.536 0.088 7.08 2.73 13.15
12/14/2021 10:15:00 PM 2.48 36.464 0.088 7.08 2.78 13.17
12/14/2021 10:30:00 PM 2.45 36.41 0.088 7.07 2.76 13.18
12/14/2021 10:45:00 PM 2.4 36.32 0.088 7.07 2.72 13.19
12/14/2021 11:00:00 PM 2.36 36.248 0.088 7.08 2.85 13.2
12/14/2021 11:15:00 PM 2.32 36.176 0.088 7.06 2.79 13.22
12/14/2021 11:30:00 PM 2.28 36.104 0.088 7.08 2.82 13.24
12/14/2021 11:45:00 PM 2.24 36.032 0.088 7.08 2.8 13.25
12/15/2021 12:00:00 AM 2.2 35.96 0.088 7.08 2.76 13.27
12/15/2021 12:15:00 AM 2.16 35.888 0.088 7.08 2.75 13.27
12/15/2021 12:30:00 AM 2.11 35.798 0.088 7.06 2.75 13.3
12/15/2021 12:45:00 AM 2.07 35.726 0.088 7.07 2.74 13.3
12/15/2021 1:00:00 AM 2.03 35.654 0.088 7.07 2.78 13.32
12/15/2021 1:15:00 AM 1.99 35.582 0.089 7.07 2.77 13.33
12/15/2021 1:30:00 AM 1.95 35.51 0.089 7.06 2.73 13.36
12/15/2021 1:45:00 AM 1.91 35.438 0.089 7.07 2.74 13.36
12/15/2021 2:00:00 AM 1.87 35.366 0.088 7.07 2.66 13.38
12/15/2021 2:15:00 AM 1.83 35.294 0.089 7.06 2.59 13.4
12/15/2021 2:30:00 AM 1.8 35.24 0.089 7.07 2.66 13.41
12/15/2021 2:45:00 AM 1.77 35.186 0.089 7.08 2.65 13.42
12/15/2021 3:00:00 AM 1.73 35.114 0.089 7.06 2.67 13.44
12/15/2021 3:15:00 AM 1.7 35.06 0.089 7.06 2.61 13.45
12/15/2021 3:30:00 AM 1.67 35.006 0.089 7.06 2.62 13.46
12/15/2021 3:45:00 AM 1.63 34.934 0.089 7.06 2.63 13.48
12/15/2021 4:00:00 AM 1.6 34.88 0.088 7.06 2.55 13.49
12/15/2021 4:15:00 AM 1.57 34.826 0.089 7.07 2.55 13.5
12/15/2021 4:30:00 AM 1.55 34.79 0.089 7.07 2.59 13.51
12/15/2021 4:45:00 AM 1.53 34.754 0.089 7.05 2.74 13.52
12/15/2021 5:00:00 AM 1.51 34.718 0.088 7.05 2.73 13.53
12/15/2021 5:15:00 AM 1.48 34.664 0.089 7.07 2.64 13.54
12/15/2021 5:30:00 AM 1.46 34.628 0.089 7.07 2.58 13.55
12/15/2021 5:45:00 AM 1.44 34.592 0.088 7.05 2.67 13.56
12/15/2021 6:00:00 AM 1.42 34.556 0.089 7.07 2.65 13.57
12/15/2021 6:15:00 AM 1.4 34.52 0.089 7.07 2.72 13.57
12/15/2021 6:30:00 AM 1.39 34.502 0.088 7.07 2.68 13.58
12/15/2021 6:45:00 AM 1.38 34.484 0.088 7.05 2.71 13.59
12/15/2021 7:00:00 AM 1.37 34.466 0.089 7.07 2.58 13.59
12/15/2021 7:15:00 AM 1.37 34.466 0.088 7.05 2.64 13.59
12/15/2021 7:30:00 AM 1.37 34.466 0.089 7.07 2.61 13.61
12/15/2021 7:45:00 AM 1.37 34.466 0.088 7.07 2.6 13.63
12/15/2021 8:00:00 AM 1.38 34.484 0.089 7.08 2.57 13.7
12/15/2021 8:15:00 AM 1.39 34.502 0.088 7.09 2.65 13.79
12/15/2021 8:30:00 AM 1.42 34.556 0.088 7.13 2.6 13.94
12/15/2021 8:45:00 AM 1.45 34.61 0.088 7.16 2.57 14.08
12/15/2021 9:00:00 AM 1.49 34.682 0.088 7.19 2.54 14.25
12/15/2021 9:15:00 AM 1.54 34.772 0.088 7.23 2.58 14.37
12/15/2021 9:30:00 AM 1.59 34.862 0.088 7.27 2.56 14.5
12/15/2021 9:45:00 AM 1.66 34.988 0.088 7.32 2.56 14.61
12/15/2021 10:00:00 AM 1.74 35.132 0.087 7.35 2.5 14.72
12/15/2021 10:15:00 AM 1.82 35.276 0.087 7.41 2.52 14.78
12/15/2021 10:30:00 AM 1.89 35.402 0.087 7.43 2.53 14.83
12/15/2021 10:45:00 AM 1.99 35.582 0.087 7.48 2.62 14.86
12/15/2021 11:00:00 AM 2.07 35.726 0.087 7.53 2.48 14.86
12/15/2021 11:15:00 AM 2.19 35.942 0.086 7.58 2.47 14.87
12/15/2021 11:30:00 AM 2.29 36.122 0.086 7.62 2.52 14.9
12/15/2021 11:45:00 AM 2.36 36.248 0.086 7.62 2.52 14.83
12/15/2021 12:00:00 PM 2.43 36.374 0.086 7.62 2.53 14.73
12/15/2021 12:15:00 PM 2.52 36.536 0.086 7.63 2.57 14.7
12/15/2021 12:30:00 PM 2.61 36.698 0.086 7.66 2.64 14.69
12/15/2021 12:45:00 PM 2.66 36.788 0.086 7.65 2.6 14.61
12/15/2021 1:00:00 PM 2.72 36.896 0.086 7.61 2.54 14.47
12/15/2021 1:15:00 PM 2.79 37.022 0.086 7.6 2.61 14.4
12/15/2021 1:30:00 PM 2.86 37.148 0.086 7.58 2.59 14.33
12/15/2021 1:45:00 PM 2.91 37.238 0.086 7.56 2.58 14.22
12/15/2021 2:00:00 PM 2.95 37.31 0.086 7.49 2.66 14.06
12/15/2021 2:15:00 PM 3 37.4 0.086 7.45 2.72 13.91
12/15/2021 2:30:00 PM 3.04 37.472 0.086 7.41 2.6 13.8
12/15/2021 2:45:00 PM 3.07 37.526 0.086 7.37 2.71 13.71
12/15/2021 3:00:00 PM 3.1 37.58 0.086 7.35 2.65 13.61
12/15/2021 3:15:00 PM 3.14 37.652 0.086 7.32 2.83 13.49
12/15/2021 3:30:00 PM 3.17 37.706 0.086 7.28 2.86 13.39
12/15/2021 3:45:00 PM 3.2 37.76 0.086 7.27 3.06 13.32
12/15/2021 4:00:00 PM 3.22 37.796 0.086 7.25 3.49 13.25
12/15/2021 4:15:00 PM 3.26 37.868 0.086 7.23 3.71 13.2
12/15/2021 4:30:00 PM 3.28 37.904 0.086 7.21 4.59 13.12
12/15/2021 4:45:00 PM 3.29 37.922 0.086 7.18 4.62 13.06
12/15/2021 5:00:00 PM 3.31 37.958 0.086 7.18 5.01 13
12/15/2021 5:15:00 PM 3.33 37.994 0.087 7.16 5.79 12.95
12/15/2021 5:30:00 PM 3.35 38.03 0.087 7.15 6 12.91
12/15/2021 5:45:00 PM 3.37 38.066 0.086 7.14 5.57 12.88
12/15/2021 6:00:00 PM 3.39 38.102 0.086 7.13 5.94 12.85
12/15/2021 6:15:00 PM 3.41 38.138 0.086 7.12 6.02 12.83
12/15/2021 6:30:00 PM 3.43 38.174 0.086 7.12 6.51 12.81
12/15/2021 6:45:00 PM 3.46 38.228 0.086 7.13 6.7 12.8
12/15/2021 7:00:00 PM 3.48 38.264 0.086 7.13 6.26 12.78
12/15/2021 7:15:00 PM 3.51 38.318 0.086 7.12 5.75 12.77
12/15/2021 7:30:00 PM 3.53 38.354 0.086 7.12 6.09 12.76
12/15/2021 7:45:00 PM 3.55 38.39 0.086 7.13 5.42 12.75
12/15/2021 8:00:00 PM 3.58 38.444 0.086 7.12 4.94 12.74
12/15/2021 8:15:00 PM 3.61 38.498 0.086 7.13 5.46 12.72
12/15/2021 8:30:00 PM 3.65 38.57 0.086 7.12 5.88 12.71
12/15/2021 8:45:00 PM 3.67 38.606 0.086 7.13 5.65 12.7
12/15/2021 9:00:00 PM 3.71 38.678 0.086 7.12 5.95 12.69
12/15/2021 9:15:00 PM 3.74 38.732 0.087 7.13 6.13 12.68
12/15/2021 9:30:00 PM 3.77 38.786 0.087 7.12 6.28 12.66
12/15/2021 9:45:00 PM 3.8 38.84 0.087 7.12 5.33 12.65
12/15/2021 10:00:00 PM 3.83 38.894 0.087 7.12 5.01 12.64
12/15/2021 10:15:00 PM 3.85 38.93 0.087 7.13 5.07 12.62
12/15/2021 10:30:00 PM 3.86 38.948 0.087 7.13 4.86 12.61
12/15/2021 10:45:00 PM 3.89 39.002 0.087 7.13 4.85 12.6
12/15/2021 11:00:00 PM 3.9 39.02 0.087 7.11 4.61 12.59
12/15/2021 11:15:00 PM 3.91 39.038 0.087 7.12 4.63 12.58
12/15/2021 11:30:00 PM 3.92 39.056 0.087 7.12 5.44 12.57
12/15/2021 11:45:00 PM 3.92 39.056 0.087 7.11 4.42 12.56
12/16/2021 12:00:00 AM 3.93 39.074 0.087 7.12 4.29 12.55
12/16/2021 12:15:00 AM 3.93 39.074 0.087 7.09 4.47 12.56
12/16/2021 12:30:00 AM 3.93 39.074 0.087 7.12 4.32 12.55
12/16/2021 12:45:00 AM 3.94 39.092 0.087 7.11 4.19 12.54
12/16/2021 1:00:00 AM 3.96 39.128 0.087 7.1 4.35 12.54
12/16/2021 1:15:00 AM 3.98 39.164 0.087 7.11 4.41 12.53
12/16/2021 1:30:00 AM 4.01 39.218 0.087 7.11 4 12.52
12/16/2021 1:45:00 AM 4.03 39.254 0.087 7.1 3.86 12.51
12/16/2021 2:00:00 AM 4.05 39.29 0.087 7.11 4.01 12.5
12/16/2021 2:15:00 AM 4.05 39.29 0.087 7.11 3.9 12.5
12/16/2021 2:30:00 AM 4.05 39.29 0.087 7.08 4.04 12.49
12/16/2021 2:45:00 AM 4.05 39.29 0.088 7.1 3.83 12.49
12/16/2021 3:00:00 AM 4.05 39.29 0.088 7.11 3.69 12.48
12/16/2021 3:15:00 AM 4.06 39.308 0.088 7.1 3.62 12.47
12/16/2021 3:30:00 AM 4.06 39.308 0.088 7.09 4.13 12.47
12/16/2021 3:45:00 AM 4.06 39.308 0.088 7.1 3.6 12.47
12/16/2021 4:00:00 AM 4.07 39.326 0.088 7.1 3.45 12.46
12/16/2021 4:15:00 AM 4.09 39.362 0.088 7.1 3.47 12.46
12/16/2021 4:30:00 AM 4.1 39.38 0.088 7.1 3.53 12.46
12/16/2021 4:45:00 AM 4.11 39.398 0.088 7.1 3.44 12.45
12/16/2021 5:00:00 AM 4.12 39.416 0.088 7.08 3.37 12.44
12/16/2021 5:15:00 AM 4.14 39.452 0.088 7.1 3.54 12.44
12/16/2021 5:30:00 AM 4.15 39.47 0.088 7.1 3.52 12.44
12/16/2021 5:45:00 AM 4.16 39.488 0.088 7.1 3.44 12.43
12/16/2021 6:00:00 AM 4.16 39.488 0.088 7.1 3.43 12.42
12/16/2021 6:15:00 AM 4.16 39.488 0.089 7.08 3.37 12.42
12/16/2021 6:30:00 AM 4.17 39.506 0.089 7.1 3.37 12.41
12/16/2021 6:45:00 AM 4.18 39.524 0.089 7.09 3.19 12.41
12/16/2021 7:00:00 AM 4.18 39.524 0.089 7.09 3.29 12.41
12/16/2021 7:15:00 AM 4.19 39.542 0.089 7.08 3.19 12.4
12/16/2021 7:30:00 AM 4.2 39.56 0.089 7.09 3.21 12.4
12/16/2021 7:45:00 AM 4.21 39.578 0.089 7.09 3.33 12.42
12/16/2021 8:00:00 AM 4.23 39.614 0.089 7.1 3.2 12.46
12/16/2021 8:15:00 AM 4.25 39.65 0.089 7.12 3.24 12.53
12/16/2021 8:30:00 AM 4.27 39.686 0.089 7.15 3.21 12.67
12/16/2021 8:45:00 AM 4.3 39.74 0.088 7.19 3.02 12.82
12/16/2021 9:00:00 AM 4.34 39.812 0.088 7.23 3.11 13
12/16/2021 9:15:00 AM 4.37 39.866 0.088 7.27 3.06 13.15
12/16/2021 9:30:00 AM 4.41 39.938 0.088 7.32 2.95 13.28
12/16/2021 9:45:00 AM 4.46 40.028 0.088 7.37 3.08 13.39
12/16/2021 10:00:00 AM 4.53 40.154 0.087 7.43 2.91 13.49
12/16/2021 10:15:00 AM 4.59 40.262 0.087 7.49 3.04 13.58
12/16/2021 10:30:00 AM 4.65 40.37 0.087 7.54 2.86 13.63
12/16/2021 10:45:00 AM 4.75 40.55 0.087 7.61 2.78 13.71
12/16/2021 11:00:00 AM 4.85 40.73 0.086 7.67 2.91 13.74
12/16/2021 11:15:00 AM 4.93 40.874 0.086 7.72 2.78 13.78
12/16/2021 11:30:00 AM 5.03 41.054 0.086 7.8 2.82 13.8
12/16/2021 11:45:00 AM 5.14 41.252 0.086 7.85 2.68 13.8
12/16/2021 12:00:00 PM 5.26 41.468 0.086 7.92 2.8 13.82
12/16/2021 12:15:00 PM 5.39 41.702 0.086 8.01 2.74 13.82
12/16/2021 12:30:00 PM 5.51 41.918 0.086 8.07 2.67 13.8
12/16/2021 12:45:00 PM 5.65 42.17 0.085 8.12 2.75 13.78
12/16/2021 1:00:00 PM 5.79 42.422 0.085 8.21 2.75 13.78
12/16/2021 1:15:00 PM 5.89 42.602 0.085 8.26 2.71 13.75
12/16/2021 1:30:00 PM 5.99 42.782 0.085 8.32 2.72 13.71
12/16/2021 1:45:00 PM 6.08 42.944 0.085 8.34 2.62 13.68
12/16/2021 2:00:00 PM 6.16 43.088 0.085 8.38 2.68 13.64
12/16/2021 2:15:00 PM 6.23 43.214 0.085 8.4 2.64 13.6
12/16/2021 2:30:00 PM 6.3 43.34 0.084 8.4 2.7 13.55
12/16/2021 2:45:00 PM 6.34 43.412 0.084 8.4 2.73 13.5
12/16/2021 3:00:00 PM 6.39 43.502 0.084 8.39 2.66 13.44
12/16/2021 3:15:00 PM 6.41 43.538 0.084 8.36 2.68 13.37
12/16/2021 3:30:00 PM 6.4 43.52 0.084 8.28 2.67 13.28
12/16/2021 3:45:00 PM 6.4 43.52 0.084 8.18 2.68 13.18
12/16/2021 4:00:00 PM 6.38 43.484 0.085 8 2.66 12.99
12/16/2021 4:15:00 PM 6.36 43.448 0.085 7.82 2.73 12.8
12/16/2021 4:30:00 PM 6.32 43.376 0.085 7.64 2.68 12.53
12/16/2021 4:45:00 PM 6.29 43.322 0.086 7.52 2.69 12.32
12/16/2021 5:00:00 PM 6.27 43.286 0.086 7.41 2.65 12.14
12/16/2021 5:15:00 PM 6.25 43.25 0.086 7.35 2.64 12.01
12/16/2021 5:30:00 PM 6.22 43.196 0.086 7.3 3.51 11.9
12/16/2021 5:45:00 PM 6.2 43.16 0.086 7.24 2.76 11.82
12/16/2021 6:00:00 PM 6.18 43.124 0.086 7.22 2.84 11.78
12/16/2021 6:15:00 PM 6.16 43.088 0.087 7.2 2.85 11.74
12/16/2021 6:30:00 PM 6.15 43.07 0.087 7.18 2.77 11.72
12/16/2021 6:45:00 PM 6.14 43.052 0.087 7.17 2.8 11.7
12/16/2021 7:00:00 PM 6.14 43.052 0.087 7.14 2.84 11.69
12/16/2021 7:15:00 PM 6.13 43.034 0.087 7.15 2.78 11.69
12/16/2021 7:30:00 PM 6.13 43.034 0.087 7.15 3.3 11.68
12/16/2021 7:45:00 PM 6.13 43.034 0.087 7.12 2.92 11.68
12/16/2021 8:00:00 PM 6.14 43.052 0.087 7.14 2.87 11.68
12/16/2021 8:15:00 PM 6.14 43.052 0.087 7.11 2.89 11.67
12/16/2021 8:30:00 PM 6.14 43.052 0.088 7.13 2.84 11.67
12/16/2021 8:45:00 PM 6.14 43.052 0.088 7.13 2.92 11.67
12/16/2021 9:00:00 PM 6.13 43.034 0.088 7.12 2.89 11.66
12/16/2021 9:15:00 PM 6.13 43.034 0.088 7.12 2.87 11.66
12/16/2021 9:30:00 PM 6.14 43.052 0.088 7.11 2.94 11.65
12/16/2021 9:45:00 PM 6.16 43.088 0.088 7.12 3.02 11.65
12/16/2021 10:00:00 PM 6.16 43.088 0.088 7.12 2.89 11.64
12/16/2021 10:15:00 PM 6.17 43.106 0.088 7.1 2.92 11.64
12/16/2021 10:30:00 PM 6.18 43.124 0.088 7.12 2.86 11.63
12/16/2021 10:45:00 PM 6.19 43.142 0.088 7.12 2.89 11.62
12/16/2021 11:00:00 PM 6.2 43.16 0.088 7.12 2.92 11.62
12/16/2021 11:15:00 PM 6.21 43.178 0.088 7.11 3.07 11.62
12/16/2021 11:30:00 PM 6.23 43.214 0.088 7.09 2.79 11.61
12/16/2021 11:45:00 PM 6.27 43.286 0.088 7.1 2.85 11.6
12/17/2021 12:00:00 AM 6.29 43.322 0.088 7.11 2.81 11.6
12/17/2021 12:15:00 AM 6.32 43.376 0.088 7.11 2.91 11.58
12/17/2021 12:30:00 AM 6.37 43.466 0.088 7.11 2.76 11.58
12/17/2021 12:45:00 AM 6.37 43.466 0.088 7.11 3.34 11.57
12/17/2021 1:00:00 AM 6.38 43.484 0.089 7.11 3.2 11.57
12/17/2021 1:15:00 AM 6.38 43.484 0.089 7.11 2.84 11.56
12/17/2021 1:30:00 AM 6.37 43.466 0.089 7.11 2.79 11.56
12/17/2021 1:45:00 AM 6.38 43.484 0.089 7.09 2.68 11.55
12/17/2021 2:00:00 AM 6.36 43.448 0.089 7.11 2.94 11.55
12/17/2021 2:15:00 AM 6.33 43.394 0.089 7.11 2.83 11.56
12/17/2021 2:30:00 AM 6.31 43.358 0.089 7.09 2.79 11.56
12/17/2021 2:45:00 AM 6.28 43.304 0.088 7.09 2.85 11.57
12/17/2021 3:00:00 AM 6.26 43.268 0.088 7.09 2.74 11.58
12/17/2021 3:15:00 AM 6.23 43.214 0.088 7.09 2.75 11.58
12/17/2021 3:30:00 AM 6.19 43.142 0.088 7.1 2.77 11.6
12/17/2021 3:45:00 AM 6.15 43.07 0.088 7.1 2.77 11.6
12/17/2021 4:00:00 AM 6.1 42.98 0.088 7.1 2.78 11.62
12/17/2021 4:15:00 AM 6.06 42.908 0.088 7.1 2.73 11.64
12/17/2021 4:30:00 AM 6.01 42.818 0.088 7.1 2.69 11.65
12/17/2021 4:45:00 AM 5.95 42.71 0.088 7.1 2.78 11.66
12/17/2021 5:00:00 AM 5.89 42.602 0.088 7.1 2.71 11.69
12/17/2021 5:15:00 AM 5.82 42.476 0.088 7.1 2.78 11.7
12/17/2021 5:30:00 AM 5.75 42.35 0.088 7.1 2.75 11.73
12/17/2021 5:45:00 AM 5.68 42.224 0.088 7.08 2.7 11.75
12/17/2021 6:00:00 AM 5.61 42.098 0.088 7.1 2.8 11.78
12/17/2021 6:15:00 AM 5.56 42.008 0.088 7.1 2.71 11.8
12/17/2021 6:30:00 AM 5.49 41.882 0.088 7.1 2.7 11.82
12/17/2021 6:45:00 AM 5.44 41.792 0.088 7.1 2.74 11.84
12/17/2021 7:00:00 AM 5.39 41.702 0.088 7.1 2.7 11.86
12/17/2021 7:15:00 AM 5.32 41.576 0.088 7.08 2.72 11.89
12/17/2021 7:30:00 AM 5.25 41.45 0.088 7.1 2.64 11.92
12/17/2021 7:45:00 AM 5.2 41.36 0.088 7.11 2.61 11.96
12/17/2021 8:00:00 AM 5.14 41.252 0.088 7.09 2.68 12.05
12/17/2021 8:15:00 AM 5.08 41.144 0.088 7.13 2.58 12.16
12/17/2021 8:30:00 AM 5.01 41.018 0.088 7.15 2.57 12.3
12/17/2021 8:45:00 AM 4.96 40.928 0.088 7.16 2.6 12.41
12/17/2021 9:00:00 AM 4.91 40.838 0.088 7.2 2.6 12.55
12/17/2021 9:15:00 AM 4.87 40.766 0.088 7.23 2.59 12.69
12/17/2021 9:30:00 AM 4.85 40.73 0.088 7.26 2.56 12.83
12/17/2021 9:45:00 AM 4.85 40.73 0.088 7.3 2.6 12.99
12/17/2021 10:00:00 AM 4.86 40.748 0.088 7.34 2.54 13.14
12/17/2021 10:15:00 AM 4.88 40.784 0.087 7.39 2.53 13.25
12/17/2021 10:30:00 AM 4.9 40.82 0.087 7.44 2.52 13.36
12/17/2021 10:45:00 AM 4.93 40.874 0.087 7.49 2.51 13.46
12/17/2021 11:00:00 AM 4.97 40.946 0.087 7.55 2.46 13.54
12/17/2021 11:15:00 AM 5.03 41.054 0.087 7.59 2.47 13.59
12/17/2021 11:30:00 AM 5.09 41.162 0.087 7.64 2.42 13.64
12/17/2021 11:45:00 AM 5.15 41.27 0.087 7.69 2.45 13.67
12/17/2021 12:00:00 PM 5.23 41.414 0.087 7.75 2.49 13.71
12/17/2021 12:15:00 PM 5.32 41.576 0.086 7.81 2.42 13.74
12/17/2021 12:30:00 PM 5.41 41.738 0.086 7.88 2.44 13.77
12/17/2021 12:45:00 PM 5.51 41.918 0.086 7.96 2.33 13.78
12/17/2021 1:00:00 PM 5.58 42.044 0.086 8.02 2.29 13.79
12/17/2021 1:15:00 PM 5.64 42.152 0.086 8.08 2.33 13.78
12/17/2021 1:30:00 PM 5.65 42.17 0.086 8.12 2.28 13.76
12/17/2021 1:45:00 PM 5.66 42.188 0.086 8.15 2.28 13.74
12/17/2021 2:00:00 PM 5.64 42.152 0.086 8.17 2.23 13.72
12/17/2021 2:15:00 PM 5.62 42.116 0.086 8.15 2.28 13.68
12/17/2021 2:30:00 PM 5.58 42.044 0.086 8.15 2.27 13.64
12/17/2021 2:45:00 PM 5.53 41.954 0.086 8.11 2.38 13.6
12/17/2021 3:00:00 PM 5.5 41.9 0.086 8.07 2.29 13.54
12/17/2021 3:15:00 PM 5.47 41.846 0.086 8.01 2.26 13.48
12/17/2021 3:30:00 PM 5.44 41.792 0.086 7.94 2.25 13.44
12/17/2021 3:45:00 PM 5.39 41.702 0.086 7.86 2.35 13.35
12/17/2021 4:00:00 PM 5.34 41.612 0.087 7.76 2.26 13.22
12/17/2021 4:15:00 PM 5.3 41.54 0.087 7.65 2.31 13.08
12/17/2021 4:30:00 PM 5.26 41.468 0.087 7.55 2.27 12.92
12/17/2021 4:45:00 PM 5.22 41.396 0.087 7.46 2.24 12.72
12/17/2021 5:00:00 PM 5.17 41.306 0.087 7.37 2.26 12.56
12/17/2021 5:15:00 PM 5.14 41.252 0.088 7.32 2.35 12.43
12/17/2021 5:30:00 PM 5.1 41.18 0.088 7.27 2.35 12.33
12/17/2021 5:45:00 PM 5.07 41.126 0.088 7.23 2.41 12.26
12/17/2021 6:00:00 PM 5.02 41.036 0.088 7.2 2.37 12.21
12/17/2021 6:15:00 PM 4.98 40.964 0.088 7.18 2.4 12.18
12/17/2021 6:30:00 PM 4.93 40.874 0.088 7.16 2.41 12.17
12/17/2021 6:45:00 PM 4.87 40.766 0.088 7.15 2.36 12.16
12/17/2021 7:00:00 PM 4.82 40.676 0.089 7.14 2.38 12.16
12/17/2021 7:15:00 PM 4.75 40.55 0.089 7.13 2.38 12.18
12/17/2021 7:30:00 PM 4.7 40.46 0.089 7.12 2.48 12.18
12/17/2021 7:45:00 PM 4.64 40.352 0.089 7.12 2.4 12.2
12/17/2021 8:00:00 PM 4.58 40.244 0.089 7.09 2.42 12.22
12/17/2021 8:15:00 PM 4.51 40.118 0.089 7.11 2.39 12.23
12/17/2021 8:30:00 PM 4.44 39.992 0.089 7.08 2.37 12.26
12/17/2021 8:45:00 PM 4.38 39.884 0.089 7.1 2.42 12.28
12/17/2021 9:00:00 PM 4.32 39.776 0.089 7.08 2.46 12.3
12/17/2021 9:15:00 PM 4.27 39.686 0.089 7.08 2.41 12.32
12/17/2021 9:30:00 PM 4.22 39.596 0.089 7.1 2.4 12.34
12/17/2021 9:45:00 PM 4.17 39.506 0.089 7.08 2.39 12.35
12/17/2021 10:00:00 PM 4.12 39.416 0.089 7.1 2.44 12.37
12/17/2021 10:15:00 PM 4.08 39.344 0.09 7.1 2.41 12.39
12/17/2021 10:30:00 PM 4.05 39.29 0.09 7.1 2.4 12.41
12/17/2021 10:45:00 PM 4.02 39.236 0.09 7.07 2.34 12.42
12/17/2021 11:00:00 PM 4 39.2 0.09 7.09 2.4 12.43
12/17/2021 11:15:00 PM 3.97 39.146 0.09 7.1 2.36 12.44
12/17/2021 11:30:00 PM 3.94 39.092 0.09 7.09 2.33 12.46
12/17/2021 11:45:00 PM 3.92 39.056 0.09 7.08 2.36 12.46
12/18/2021 12:00:00 AM 3.9 39.02 0.09 7.1 2.4 12.47
12/18/2021 12:15:00 AM 3.89 39.002 0.09 7.08 2.37 12.48
12/18/2021 12:30:00 AM 3.87 38.966 0.09 7.1 2.32 12.48
12/18/2021 12:45:00 AM 3.86 38.948 0.09 7.09 2.33 12.49
12/18/2021 1:00:00 AM 3.85 38.93 0.09 7.09 2.4 12.49
12/18/2021 1:15:00 AM 3.84 38.912 0.09 7.09 2.41 12.49
12/18/2021 1:30:00 AM 3.84 38.912 0.09 7.08 2.38 12.5
12/18/2021 1:45:00 AM 3.84 38.912 0.09 7.09 2.38 12.5
12/18/2021 2:00:00 AM 3.83 38.894 0.09 7.09 2.47 12.5
12/18/2021 2:15:00 AM 3.83 38.894 0.09 7.07 2.39 12.5
12/18/2021 2:30:00 AM 3.83 38.894 0.09 7.09 2.37 12.49
12/18/2021 2:45:00 AM 3.82 38.876 0.09 7.08 2.33 12.5
12/18/2021 3:00:00 AM 3.82 38.876 0.09 7.09 2.32 12.5
12/18/2021 3:15:00 AM 3.82 38.876 0.09 7.08 2.32 12.5
12/18/2021 3:30:00 AM 3.81 38.858 0.09 7.09 2.3 12.5
12/18/2021 3:45:00 AM 3.81 38.858 0.09 7.07 2.35 12.49
12/18/2021 4:00:00 AM 3.81 38.858 0.09 7.08 2.32 12.5
12/18/2021 4:15:00 AM 3.81 38.858 0.09 7.09 2.31 12.5
12/18/2021 4:30:00 AM 3.81 38.858 0.09 7.08 2.3 12.5
12/18/2021 4:45:00 AM 3.8 38.84 0.09 7.08 2.37 12.49
12/18/2021 5:00:00 AM 3.8 38.84 0.09 7.08 2.28 12.49
12/18/2021 5:15:00 AM 3.8 38.84 0.09 7.09 2.33 12.49
12/18/2021 5:30:00 AM 3.81 38.858 0.09 7.09 2.29 12.49
12/18/2021 5:45:00 AM 3.81 38.858 0.09 7.09 2.28 12.49
12/18/2021 6:00:00 AM 3.81 38.858 0.09 7.07 2.24 12.49
12/18/2021 6:15:00 AM 3.8 38.84 0.09 7.08 2.33 12.49
12/18/2021 6:30:00 AM 3.8 38.84 0.09 7.09 2.28 12.49
12/18/2021 6:45:00 AM 3.81 38.858 0.09 7.09 2.26 12.49
12/18/2021 7:00:00 AM 3.81 38.858 0.09 7.09 2.33 12.49
12/18/2021 7:15:00 AM 3.81 38.858 0.09 7.06 2.27 12.49
12/18/2021 7:30:00 AM 3.81 38.858 0.09 7.09 2.3 12.49
12/18/2021 7:45:00 AM 3.82 38.876 0.09 7.09 2.29 12.51
12/18/2021 8:00:00 AM 3.82 38.876 0.09 7.07 2.23 12.55
12/18/2021 8:15:00 AM 3.82 38.876 0.09 7.11 2.23 12.6
12/18/2021 8:30:00 AM 3.83 38.894 0.09 7.13 2.26 12.7
12/18/2021 8:45:00 AM 3.84 38.912 0.09 7.13 2.21 12.81
12/18/2021 9:00:00 AM 3.86 38.948 0.089 7.17 2.22 12.95
12/18/2021 9:15:00 AM 3.87 38.966 0.089 7.21 2.21 13.06
12/18/2021 9:30:00 AM 3.88 38.984 0.089 7.24 2.21 13.17
12/18/2021 9:45:00 AM 3.9 39.02 0.089 7.27 2.18 13.29
12/18/2021 10:00:00 AM 3.91 39.038 0.089 7.31 2.18 13.41
12/18/2021 10:15:00 AM 3.94 39.092 0.089 7.36 2.12 13.54
12/18/2021 10:30:00 AM 3.96 39.128 0.089 7.4 2.15 13.61
12/18/2021 10:45:00 AM 3.97 39.146 0.088 7.42 2.18 13.61
12/18/2021 11:00:00 AM 3.98 39.164 0.088 7.41 2.15 13.59
12/18/2021 11:15:00 AM 3.99 39.182 0.088 7.44 2.18 13.55
12/18/2021 11:30:00 AM 3.99 39.182 0.088 7.44 2.17 13.52
12/18/2021 11:45:00 AM 4 39.2 0.088 7.43 2.24 13.5
12/18/2021 12:00:00 PM 4.01 39.218 0.088 7.46 2.32 13.52
12/18/2021 12:15:00 PM 4.02 39.236 0.089 7.47 2.4 13.55
12/18/2021 12:30:00 PM 4.02 39.236 0.09 7.47 2.53 13.53
12/18/2021 12:45:00 PM 4.03 39.254 0.09 7.48 2.55 13.49
12/18/2021 1:00:00 PM 4.03 39.254 0.09 7.47 2.58 13.45
12/18/2021 1:15:00 PM 4.04 39.272 0.089 7.47 2.8 13.44
12/18/2021 1:30:00 PM 4.05 39.29 0.089 7.45 2.65 13.41
12/18/2021 1:45:00 PM 4.05 39.29 0.088 7.47 2.65 13.39
12/18/2021 2:00:00 PM 4.05 39.29 0.088 7.46 2.81 13.35
12/18/2021 2:15:00 PM 4.05 39.29 0.088 7.44 2.7 13.28
12/18/2021 2:30:00 PM 4.05 39.29 0.088 7.41 2.76 13.19
12/18/2021 2:45:00 PM 4.05 39.29 0.088 7.38 2.81 13.09
12/18/2021 3:00:00 PM 4.05 39.29 0.088 7.36 2.89 13
12/18/2021 3:15:00 PM 4.05 39.29 0.088 7.33 3.68 12.91
12/18/2021 3:30:00 PM 4.05 39.29 0.088 7.3 3.49 12.82
12/18/2021 3:45:00 PM 4.05 39.29 0.088 7.28 3.33 12.76
12/18/2021 4:00:00 PM 4.05 39.29 0.088 7.25 3.41 12.7
12/18/2021 4:15:00 PM 4.05 39.29 0.088 7.23 3.92 12.63
12/18/2021 4:30:00 PM 4.05 39.29 0.088 7.22 3.84 12.58
12/18/2021 4:45:00 PM 4.05 39.29 0.088 7.19 3.66 12.53
12/18/2021 5:00:00 PM 4.05 39.29 0.088 7.19 3.58 12.49
12/18/2021 5:15:00 PM 4.06 39.308 0.088 7.17 3.88 12.46
12/18/2021 5:30:00 PM 4.06 39.308 0.088 7.18 3.88 12.44
12/18/2021 5:45:00 PM 4.06 39.308 0.088 7.17 4.13 12.42
12/18/2021 6:00:00 PM 4.07 39.326 0.089 7.16 4.21 12.41
12/18/2021 6:15:00 PM 4.07 39.326 0.089 7.16 4.11 12.4
12/18/2021 6:30:00 PM 4.08 39.344 0.089 7.15 4.1 12.4
12/18/2021 6:45:00 PM 4.09 39.362 0.09 7.16 4.15 12.39
12/18/2021 7:00:00 PM 4.1 39.38 0.09 7.16 4.11 12.38
12/18/2021 7:15:00 PM 4.11 39.398 0.09 7.16 4.18 12.38
12/18/2021 7:30:00 PM 4.12 39.416 0.09 7.16 4.43 12.38
12/18/2021 7:45:00 PM 4.13 39.434 0.09 7.16 4.34 12.38
12/18/2021 8:00:00 PM 4.14 39.452 0.091 7.15 4.26 12.37
12/18/2021 8:15:00 PM 4.15 39.47 0.091 7.15 4.4 12.36
12/18/2021 8:30:00 PM 4.16 39.488 0.091 7.14 4.36 12.36
12/18/2021 8:45:00 PM 4.17 39.506 0.091 7.14 4.25 12.35
12/18/2021 9:00:00 PM 4.19 39.542 0.091 7.14 4.12 12.35
12/18/2021 9:15:00 PM 4.2 39.56 0.091 7.14 4.14 12.35
12/18/2021 9:30:00 PM 4.21 39.578 0.092 7.12 4.15 12.34
12/18/2021 9:45:00 PM 4.22 39.596 0.092 7.12 4.11 12.34
12/18/2021 10:00:00 PM 4.23 39.614 0.092 7.14 3.98 12.34
12/18/2021 10:15:00 PM 4.24 39.632 0.092 7.14 4.06 12.33
12/18/2021 10:30:00 PM 4.25 39.65 0.092 7.14 4.16 12.33
12/18/2021 10:45:00 PM 4.26 39.668 0.092 7.12 4.08 12.33
12/18/2021 11:00:00 PM 4.27 39.686 0.092 7.13 4.09 12.33
12/18/2021 11:15:00 PM 4.28 39.704 0.093 7.14 4.19 12.32
12/18/2021 11:30:00 PM 4.29 39.722 0.093 7.13 4.03 12.32
12/18/2021 11:45:00 PM 4.3 39.74 0.093 7.13 4.09 12.32
12/19/2021 12:00:00 AM 4.31 39.758 0.093 7.12 4.13 12.32
12/19/2021 12:15:00 AM 4.32 39.776 0.093 7.13 4.04 12.31
12/19/2021 12:30:00 AM 4.32 39.776 0.093 7.13 4.67 12.31
12/19/2021 12:45:00 AM 4.32 39.776 0.093 7.13 4.49 12.31
12/19/2021 1:00:00 AM 4.3 39.74 0.093 7.13 4.17 12.31
12/19/2021 1:15:00 AM 4.28 39.704 0.093 7.14 4.23 12.31
12/19/2021 1:30:00 AM 4.26 39.668 0.093 7.13 4.12 12.32
12/19/2021 1:45:00 AM 4.24 39.632 0.093 7.14 4.01 12.33
12/19/2021 2:00:00 AM 4.21 39.578 0.093 7.14 4 12.34
12/19/2021 2:15:00 AM 4.19 39.542 0.093 7.14 3.94 12.35
12/19/2021 2:30:00 AM 4.16 39.488 0.093 7.14 3.78 12.36
12/19/2021 2:45:00 AM 4.13 39.434 0.092 7.14 3.86 12.37
12/19/2021 3:00:00 AM 4.09 39.362 0.092 7.14 3.71 12.39
12/19/2021 3:15:00 AM 4.05 39.29 0.092 7.12 3.68 12.4
12/19/2021 3:30:00 AM 4 39.2 0.092 7.14 3.87 12.42
12/19/2021 3:45:00 AM 3.96 39.128 0.092 7.13 3.69 12.44
12/19/2021 4:00:00 AM 3.91 39.038 0.092 7.14 3.68 12.46
12/19/2021 4:15:00 AM 3.87 38.966 0.092 7.14 3.74 12.48
12/19/2021 4:30:00 AM 3.83 38.894 0.092 7.14 3.55 12.49
12/19/2021 4:45:00 AM 3.78 38.804 0.092 7.14 3.5 12.51
12/19/2021 5:00:00 AM 3.74 38.732 0.092 7.14 3.67 12.53
12/19/2021 5:15:00 AM 3.69 38.642 0.091 7.14 3.66 12.55
12/19/2021 5:30:00 AM 3.64 38.552 0.091 7.12 3.58 12.57
12/19/2021 5:45:00 AM 3.57 38.426 0.091 7.14 3.4 12.59
12/19/2021 6:00:00 AM 3.52 38.336 0.091 7.12 3.43 12.6
12/19/2021 6:15:00 AM 3.46 38.228 0.091 7.14 3.49 12.63
12/19/2021 6:30:00 AM 3.41 38.138 0.091 7.14 3.36 12.65
12/19/2021 6:45:00 AM 3.36 38.048 0.091 7.13 3.55 12.67
12/19/2021 7:00:00 AM 3.33 37.994 0.091 7.14 3.47 12.69
12/19/2021 7:15:00 AM 3.29 37.922 0.091 7.14 3.48 12.7
12/19/2021 7:30:00 AM 3.25 37.85 0.091 7.14 3.41 12.73
12/19/2021 7:45:00 AM 3.2 37.76 0.091 7.13 3.33 12.75
12/19/2021 8:00:00 AM 3.16 37.688 0.091 7.14 3.24 12.78
12/19/2021 8:15:00 AM 3.11 37.598 0.091 7.14 3.38 12.81
12/19/2021 8:30:00 AM 3.07 37.526 0.091 7.14 3.21 12.85
12/19/2021 8:45:00 AM 3.03 37.454 0.091 7.15 3.21 12.9
12/19/2021 9:00:00 AM 2.99 37.382 0.091 7.16 3.2 12.99
12/19/2021 9:15:00 AM 2.95 37.31 0.091 7.18 3.13 13.07
12/19/2021 9:30:00 AM 2.91 37.238 0.091 7.18 2.95 13.2
12/19/2021 9:45:00 AM 2.88 37.184 0.091 7.24 2.97 13.34
12/19/2021 10:00:00 AM 2.85 37.13 0.091 7.27 2.92 13.44
12/19/2021 10:15:00 AM 2.84 37.112 0.091 7.27 2.96 13.57
12/19/2021 10:30:00 AM 2.84 37.112 0.091 7.34 2.84 13.72
12/19/2021 10:45:00 AM 2.82 37.076 0.091 7.39 2.87 13.87
12/19/2021 11:00:00 AM 2.81 37.058 0.091 7.42 2.78 13.94
12/19/2021 11:15:00 AM 2.8 37.04 0.091 7.46 2.69 13.99
12/19/2021 11:30:00 AM 2.79 37.022 0.091 7.49 2.68 14.05
12/19/2021 11:45:00 AM 2.78 37.004 0.091 7.53 2.7 14.11
12/19/2021 12:00:00 PM 2.79 37.022 0.09 7.56 2.71 14.18
12/19/2021 12:15:00 PM 2.8 37.04 0.09 7.6 2.62 14.24
12/19/2021 12:30:00 PM 2.81 37.058 0.09 7.65 2.59 14.31
12/19/2021 12:45:00 PM 2.81 37.058 0.09 7.71 2.59 14.35
12/19/2021 1:00:00 PM 2.82 37.076 0.09 7.74 2.62 14.37
12/19/2021 1:15:00 PM 2.83 37.094 0.09 7.78 2.56 14.41
12/19/2021 1:30:00 PM 2.85 37.13 0.09 7.83 2.52 14.44
12/19/2021 1:45:00 PM 2.87 37.166 0.09 7.87 2.52 14.46
12/19/2021 2:00:00 PM 2.88 37.184 0.09 7.9 2.53 14.47
12/19/2021 2:15:00 PM 2.88 37.184 0.09 7.89 2.47 14.44
12/19/2021 2:30:00 PM 2.87 37.166 0.09 7.89 2.49 14.39
12/19/2021 2:45:00 PM 2.85 37.13 0.09 7.84 2.5 14.32
12/19/2021 3:00:00 PM 2.82 37.076 0.09 7.8 2.47 14.25
12/19/2021 3:15:00 PM 2.8 37.04 0.09 7.75 2.39 14.19
12/19/2021 3:30:00 PM 2.78 37.004 0.09 7.69 2.46 14.1
12/19/2021 3:45:00 PM 2.75 36.95 0.09 7.62 2.39 13.98
12/19/2021 4:00:00 PM 2.71 36.878 0.09 7.53 2.38 13.87
12/19/2021 4:15:00 PM 2.67 36.806 0.091 7.47 2.38 13.74
12/19/2021 4:30:00 PM 2.64 36.752 0.091 7.42 2.37 13.61
12/19/2021 4:45:00 PM 2.6 36.68 0.091 7.35 2.37 13.47
12/19/2021 5:00:00 PM 2.55 36.59 0.091 7.31 2.4 13.38
12/19/2021 5:15:00 PM 2.51 36.518 0.091 7.26 2.39 13.3
12/19/2021 5:30:00 PM 2.46 36.428 0.091 7.24 2.38 13.24
12/19/2021 5:45:00 PM 2.42 36.356 0.091 7.21 2.37 13.2
12/19/2021 6:00:00 PM 2.38 36.284 0.092 7.2 2.4 13.19
12/19/2021 6:15:00 PM 2.34 36.212 0.092 7.19 2.43 13.18
12/19/2021 6:30:00 PM 2.3 36.14 0.092 7.15 2.44 13.18
12/19/2021 6:45:00 PM 2.27 36.086 0.092 7.16 2.45 13.17
12/19/2021 7:00:00 PM 2.24 36.032 0.092 7.14 2.47 13.18
12/19/2021 7:15:00 PM 2.2 35.96 0.092 7.15 2.46 13.19
12/19/2021 7:30:00 PM 2.17 35.906 0.092 7.15 2.42 13.19
12/19/2021 7:45:00 PM 2.13 35.834 0.092 7.13 2.46 13.21
12/19/2021 8:00:00 PM 2.09 35.762 0.092 7.13 2.42 13.22
12/19/2021 8:15:00 PM 2.05 35.69 0.092 7.14 2.45 13.23
12/19/2021 8:30:00 PM 2.01 35.618 0.092 7.14 2.46 13.25
12/19/2021 8:45:00 PM 1.98 35.564 0.092 7.13 2.51 13.27
12/19/2021 9:00:00 PM 1.95 35.51 0.093 7.13 2.49 13.28
12/19/2021 9:15:00 PM 1.92 35.456 0.093 7.13 2.44 13.29
12/19/2021 9:30:00 PM 1.89 35.402 0.093 7.13 2.45 13.3
12/19/2021 9:45:00 PM 1.85 35.33 0.094 7.13 2.43 13.31
12/19/2021 10:00:00 PM 1.82 35.276 0.094 7.13 2.42 13.32
12/19/2021 10:15:00 PM 1.79 35.222 0.094 7.11 2.41 13.33
12/19/2021 10:30:00 PM 1.77 35.186 0.093 7.13 2.43 13.34
12/19/2021 10:45:00 PM 1.74 35.132 0.093 7.12 2.48 13.35
12/19/2021 11:00:00 PM 1.71 35.078 0.093 7.12 2.42 13.36
12/19/2021 11:15:00 PM 1.68 35.024 0.093 7.1 2.42 13.37
12/19/2021 11:30:00 PM 1.65 34.97 0.093 7.12 2.38 13.39
12/19/2021 11:45:00 PM 1.63 34.934 0.093 7.12 2.31 13.39
12/20/2021 12:00:00 AM 1.61 34.898 0.093 7.11 2.4 13.41
12/20/2021 12:15:00 AM 1.59 34.862 0.093 7.11 2.37 13.41
12/20/2021 12:30:00 AM 1.56 34.808 0.093 7.12 2.43 13.42
12/20/2021 12:45:00 AM 1.54 34.772 0.093 7.12 2.38 13.43
12/20/2021 1:00:00 AM 1.5 34.7 0.093 7.11 2.28 13.44
12/20/2021 1:15:00 AM 1.46 34.628 0.093 7.12 2.41 13.45
12/20/2021 1:30:00 AM 1.42 34.556 0.093 7.11 2.38 13.46
12/20/2021 1:45:00 AM 1.4 34.52 0.093 7.12 2.36 13.47
12/20/2021 2:00:00 AM 1.35 34.43 0.093 7.11 2.37 13.49
12/20/2021 2:15:00 AM 1.31 34.358 0.093 7.11 2.41 13.5
12/20/2021 2:30:00 AM 1.27 34.286 0.093 7.1 2.3 13.52
12/20/2021 2:45:00 AM 1.22 34.196 0.093 7.1 2.33 13.53
12/20/2021 3:00:00 AM 1.17 34.106 0.093 7.1 2.32 13.55
12/20/2021 3:15:00 AM 1.12 34.016 0.093 7.1 2.52 13.56
12/20/2021 3:30:00 AM 1.07 33.926 0.093 7.09 2.29 13.58
12/20/2021 3:45:00 AM 1.03 33.854 0.093 7.09 2.3 13.59
12/20/2021 4:00:00 AM 1 33.8 0.093 7.1 2.38 13.61
12/20/2021 4:15:00 AM 0.96 33.728 0.093 7.1 2.28 13.62
12/20/2021 4:30:00 AM 0.92 33.656 0.093 7.1 2.3 13.65
12/20/2021 4:45:00 AM 0.89 33.602 0.094 7.1 2.34 13.66
12/20/2021 5:00:00 AM 0.85 33.53 0.094 7.06 2.24 13.68
12/20/2021 5:15:00 AM 0.81 33.458 0.094 7.09 2.31 13.69
12/20/2021 5:30:00 AM 0.77 33.386 0.093 7.08 2.29 13.71
12/20/2021 5:45:00 AM 0.72 33.296 0.093 7.08 2.35 13.72
12/20/2021 6:00:00 AM 0.68 33.224 0.093 7.08 2.22 13.74
12/20/2021 6:15:00 AM 0.64 33.152 0.093 7.08 2.26 13.75
12/20/2021 6:30:00 AM 0.6 33.08 0.094 7.09 2.31 13.78
12/20/2021 6:45:00 AM 0.56 33.008 0.093 7.07 2.25 13.8
12/20/2021 7:00:00 AM 0.51 32.918 0.093 7.08 2.25 13.81
12/20/2021 7:15:00 AM 0.47 32.846 0.093 7.09 2.23 13.83
12/20/2021 7:30:00 AM 0.44 32.792 0.093 7.09 2.26 13.85
12/20/2021 7:45:00 AM 0.4 32.72 0.094 7.07 2.25 13.9
12/20/2021 8:00:00 AM 0.36 32.648 0.094 7.11 2.33 14
12/20/2021 8:15:00 AM 0.33 32.594 0.094 7.12 2.29 14.11
12/20/2021 8:30:00 AM 0.3 32.54 0.094 7.14 2.26 14.22
12/20/2021 8:45:00 AM 0.29 32.522 0.094 7.16 2.23 14.35
12/20/2021 9:00:00 AM 0.3 32.54 0.093 7.2 2.24 14.54
12/20/2021 9:15:00 AM 0.32 32.576 0.093 7.24 2.25 14.68
12/20/2021 9:30:00 AM 0.35 32.63 0.093 7.28 2.21 14.84
12/20/2021 9:45:00 AM 0.37 32.666 0.093 7.32 2.27 14.96
12/20/2021 10:00:00 AM 0.43 32.774 0.093 7.35 2.19 15.06
12/20/2021 10:15:00 AM 0.48 32.864 0.092 7.39 2.23 15.14
12/20/2021 10:30:00 AM 0.53 32.954 0.092 7.44 2.22 15.22
12/20/2021 10:45:00 AM 0.58 33.044 0.092 7.47 2.2 15.29
12/20/2021 11:00:00 AM 0.67 33.206 0.092 7.53 2.12 15.34
12/20/2021 11:15:00 AM 0.77 33.386 0.092 7.57 2.15 15.37
12/20/2021 11:30:00 AM 0.87 33.566 0.092 7.61 2.2 15.37
12/20/2021 11:45:00 AM 0.95 33.71 0.091 7.63 2.22 15.35
12/20/2021 12:00:00 PM 1.03 33.854 0.091 7.66 2.23 15.34
12/20/2021 12:15:00 PM 1.13 34.034 0.091 7.69 2.16 15.31
12/20/2021 12:30:00 PM 1.26 34.268 0.091 7.68 2.19 15.25
12/20/2021 12:45:00 PM 1.34 34.412 0.091 7.7 2.13 15.21
12/20/2021 1:00:00 PM 1.45 34.61 0.091 7.73 2.16 15.17
12/20/2021 1:15:00 PM 1.53 34.754 0.091 7.74 2.13 15.15
12/20/2021 1:30:00 PM 1.61 34.898 0.091 7.73 2.19 15.1
12/20/2021 1:45:00 PM 1.66 34.988 0.091 7.75 2.15 15.06
12/20/2021 2:00:00 PM 1.69 35.042 0.091 7.75 2.18 15.02
12/20/2021 2:15:00 PM 1.7 35.06 0.09 7.74 2.23 14.98
12/20/2021 2:30:00 PM 1.71 35.078 0.09 7.74 2.37 14.95
12/20/2021 2:45:00 PM 1.74 35.132 0.09 7.76 2.3 14.96
12/20/2021 3:00:00 PM 1.79 35.222 0.09 7.76 2.38 14.95
12/20/2021 3:15:00 PM 1.81 35.258 0.09 7.77 2.42 14.92
12/20/2021 3:30:00 PM 1.77 35.186 0.09 7.73 2.29 14.82
12/20/2021 3:45:00 PM 1.73 35.114 0.09 7.68 2.34 14.71
12/20/2021 4:00:00 PM 1.68 35.024 0.09 7.62 2.45 14.59
12/20/2021 4:15:00 PM 1.63 34.934 0.09 7.54 2.45 14.46
12/20/2021 4:30:00 PM 1.56 34.808 0.091 7.48 2.39 14.28
12/20/2021 4:45:00 PM 1.51 34.718 0.091 7.42 2.33 14.13
12/20/2021 5:00:00 PM 1.46 34.628 0.091 7.36 2.31 13.97
12/20/2021 5:15:00 PM 1.43 34.574 0.091 7.3 2.29 13.84
12/20/2021 5:30:00 PM 1.4 34.52 0.091 7.27 2.27 13.74
12/20/2021 5:45:00 PM 1.38 34.484 0.092 7.22 2.25 13.66
12/20/2021 6:00:00 PM 1.35 34.43 0.092 7.21 2.31 13.61
12/20/2021 6:15:00 PM 1.32 34.376 0.092 7.17 2.3 13.56
12/20/2021 6:30:00 PM 1.28 34.304 0.092 7.17 2.23 13.54
12/20/2021 6:45:00 PM 1.25 34.25 0.092 7.16 2.25 13.53
12/20/2021 7:00:00 PM 1.22 34.196 0.092 7.14 2.27 13.52
12/20/2021 7:15:00 PM 1.19 34.142 0.092 7.14 2.26 13.51
12/20/2021 7:30:00 PM 1.16 34.088 0.092 7.12 2.22 13.52
12/20/2021 7:45:00 PM 1.13 34.034 0.092 7.12 2.26 13.53
12/20/2021 8:00:00 PM 1.09 33.962 0.092 7.12 2.22 13.54
12/20/2021 8:15:00 PM 1.06 33.908 0.092 7.13 2.24 13.54
12/20/2021 8:30:00 PM 1.01 33.818 0.092 7.1 2.25 13.55
12/20/2021 8:45:00 PM 0.97 33.746 0.092 7.12 2.24 13.57
12/20/2021 9:00:00 PM 0.93 33.674 0.093 7.12 2.24 13.58
12/20/2021 9:15:00 PM 0.9 33.62 0.093 7.12 2.24 13.6
12/20/2021 9:30:00 PM 0.85 33.53 0.093 7.12 2.24 13.61
12/20/2021 9:45:00 PM 0.82 33.476 0.093 7.11 2.26 13.62
12/20/2021 10:00:00 PM 0.78 33.404 0.093 7.11 2.23 13.64
12/20/2021 10:15:00 PM 0.75 33.35 0.093 7.11 2.29 13.65
12/20/2021 10:30:00 PM 0.71 33.278 0.093 7.11 2.25 13.66
12/20/2021 10:45:00 PM 0.68 33.224 0.093 7.1 2.22 13.68
12/20/2021 11:00:00 PM 0.65 33.17 0.093 7.1 2.25 13.69
12/20/2021 11:15:00 PM 0.61 33.098 0.093 7.09 2.24 13.7
12/20/2021 11:30:00 PM 0.58 33.044 0.093 7.1 2.23 13.72
12/20/2021 11:45:00 PM 0.55 32.99 0.093 7.1 2.19 13.73
12/21/2021 12:00:00 AM 0.52 32.936 0.093 7.11 2.21 13.73
12/21/2021 12:15:00 AM 0.48 32.864 0.093 7.09 2.26 13.74
12/21/2021 12:30:00 AM 0.45 32.81 0.093 7.09 2.21 13.76
12/21/2021 12:45:00 AM 0.42 32.756 0.093 7.1 2.2 13.77
12/21/2021 1:00:00 AM 0.4 32.72 0.093 7.09 2.24 13.78
12/21/2021 1:15:00 AM 0.37 32.666 0.093 7.09 2.22 13.78
12/21/2021 1:30:00 AM 0.34 32.612 0.093 7.1 2.24 13.79
12/21/2021 1:45:00 AM 0.31 32.558 0.093 7.09 2.15 13.8
12/21/2021 2:00:00 AM 0.29 32.522 0.093 7.1 2.22 13.82
12/21/2021 2:15:00 AM 0.27 32.486 0.093 7.09 2.2 13.82
12/21/2021 2:30:00 AM 0.25 32.45 0.093 7.09 2.19 13.82
12/21/2021 2:45:00 AM 0.23 32.414 0.093 7.1 2.19 13.84
12/21/2021 3:00:00 AM 0.2 32.36 0.093 7.1 2.22 13.85
12/21/2021 3:15:00 AM 0.18 32.324 0.093 7.1 2.21 13.86
12/21/2021 3:30:00 AM 0.16 32.288 0.093 7.08 2.17 13.87
12/21/2021 3:45:00 AM 0.14 32.252 0.093 7.09 2.23 13.87
12/21/2021 4:00:00 AM 0.11 32.198 0.093 7.08 2.2 13.88
12/21/2021 4:15:00 AM 0.09 32.162 0.093 7.08 2.23 13.89
12/21/2021 4:30:00 AM 0.08 32.144 0.093 7.09 2.2 13.9
12/21/2021 4:45:00 AM 0.06 32.108 0.093 7.09 2.16 13.91
12/21/2021 5:00:00 AM 0.07 32.126 0.093 7.09 2.18 13.91
12/21/2021 5:15:00 AM 0.08 32.144 0.093 7.09 2.21 13.91
12/21/2021 5:30:00 AM 0.1 32.18 0.093 7.09 2.2 13.91
12/21/2021 5:45:00 AM 0.12 32.216 0.093 7.09 2.19 13.9
12/21/2021 6:00:00 AM 0.14 32.252 0.093 7.09 2.17 13.9
12/21/2021 6:15:00 AM 0.17 32.306 0.093 7.09 2.23 13.9
12/21/2021 6:30:00 AM 0.19 32.342 0.093 7.09 2.18 13.89
12/21/2021 6:45:00 AM 0.21 32.378 0.093 7.07 2.18 13.88
12/21/2021 7:00:00 AM 0.22 32.396 0.093 7.09 2.19 13.88
12/21/2021 7:15:00 AM 0.23 32.414 0.093 7.09 2.29 13.88
12/21/2021 7:30:00 AM 0.24 32.432 0.093 7.07 2.14 13.87
12/21/2021 7:45:00 AM 0.24 32.432 0.093 7.09 2.18 13.89
12/21/2021 8:00:00 AM 0.24 32.432 0.093 7.1 2.15 13.95
12/21/2021 8:15:00 AM 0.24 32.432 0.093 7.11 2.2 14.06
12/21/2021 8:30:00 AM 0.26 32.468 0.093 7.15 2.18 14.23
12/21/2021 8:45:00 AM 0.28 32.504 0.093 7.18 2.21 14.38
12/21/2021 9:00:00 AM 0.3 32.54 0.092 7.21 2.14 14.52
12/21/2021 9:15:00 AM 0.34 32.612 0.092 7.25 2.14 14.67
12/21/2021 9:30:00 AM 0.39 32.702 0.092 7.29 2.14 14.81
12/21/2021 9:45:00 AM 0.46 32.828 0.092 7.32 2.14 14.94
12/21/2021 10:00:00 AM 0.52 32.936 0.092 7.37 2.16 15.05
12/21/2021 10:15:00 AM 0.59 33.062 0.092 7.43 2.14 15.14
12/21/2021 10:30:00 AM 0.66 33.188 0.091 7.47 2.13 15.2
12/21/2021 10:45:00 AM 0.81 33.458 0.091 7.5 2.09 15.24
12/21/2021 11:00:00 AM 0.94 33.692 0.091 7.56 2.14 15.26
12/21/2021 11:15:00 AM 1.01 33.818 0.091 7.61 2.15 15.28
12/21/2021 11:30:00 AM 1.13 34.034 0.09 7.65 2.12 15.28
12/21/2021 11:45:00 AM 1.29 34.322 0.09 7.69 2.16 15.28
12/21/2021 12:00:00 PM 1.44 34.592 0.09 7.73 2.12 15.23
12/21/2021 12:15:00 PM 1.52 34.736 0.09 7.75 2.09 15.19
12/21/2021 12:30:00 PM 1.58 34.844 0.09 7.75 2.14 15.12
12/21/2021 12:45:00 PM 1.69 35.042 0.09 7.77 2.16 15.07
12/21/2021 1:00:00 PM 1.82 35.276 0.09 7.79 2.18 15.02
12/21/2021 1:15:00 PM 1.92 35.456 0.089 7.79 2.21 14.99
12/21/2021 1:30:00 PM 2.02 35.636 0.089 7.83 2.19 14.95
12/21/2021 1:45:00 PM 2.09 35.762 0.089 7.84 2.17 14.9
12/21/2021 2:00:00 PM 2.14 35.852 0.089 7.84 2.23 14.84
12/21/2021 2:15:00 PM 2.17 35.906 0.089 7.83 2.29 14.79
12/21/2021 2:30:00 PM 2.19 35.942 0.089 7.83 2.31 14.76
12/21/2021 2:45:00 PM 2.22 35.996 0.089 7.81 2.42 14.7
12/21/2021 3:00:00 PM 2.24 36.032 0.089 7.81 2.38 14.66
12/21/2021 3:15:00 PM 2.24 36.032 0.089 7.78 2.34 14.6
12/21/2021 3:30:00 PM 2.23 36.014 0.089 7.75 2.42 14.53
12/21/2021 3:45:00 PM 2.2 35.96 0.089 7.7 2.41 14.45
12/21/2021 4:00:00 PM 2.17 35.906 0.089 7.65 2.39 14.34
12/21/2021 4:15:00 PM 2.12 35.816 0.089 7.58 2.42 14.19
12/21/2021 4:30:00 PM 2.07 35.726 0.09 7.5 2.4 14.04
12/21/2021 4:45:00 PM 2.01 35.618 0.09 7.42 2.35 13.87
12/21/2021 5:00:00 PM 1.97 35.546 0.09 7.36 2.33 13.71
12/21/2021 5:15:00 PM 1.93 35.474 0.09 7.32 2.33 13.58
12/21/2021 5:30:00 PM 1.89 35.402 0.09 7.26 2.3 13.47
12/21/2021 5:45:00 PM 1.86 35.348 0.09 7.23 2.28 13.38
12/21/2021 6:00:00 PM 1.84 35.312 0.09 7.21 2.23 13.33
12/21/2021 6:15:00 PM 1.81 35.258 0.09 7.19 2.31 13.28
12/21/2021 6:30:00 PM 1.78 35.204 0.09 7.18 2.34 13.25
12/21/2021 6:45:00 PM 1.76 35.168 0.091 7.16 2.24 13.23
12/21/2021 7:00:00 PM 1.73 35.114 0.091 7.14 2.26 13.22
12/21/2021 7:15:00 PM 1.7 35.06 0.091 7.14 2.22 13.21
12/21/2021 7:30:00 PM 1.66 34.988 0.091 7.13 2.29 13.21
12/21/2021 7:45:00 PM 1.62 34.916 0.091 7.13 2.25 13.22
12/21/2021 8:00:00 PM 1.58 34.844 0.091 7.13 2.35 13.23
12/21/2021 8:15:00 PM 1.54 34.772 0.091 7.12 2.29 13.24
12/21/2021 8:30:00 PM 1.49 34.682 0.091 7.12 2.33 13.25
12/21/2021 8:45:00 PM 1.45 34.61 0.091 7.12 2.27 13.26
12/21/2021 9:00:00 PM 1.41 34.538 0.091 7.11 2.33 13.28
12/21/2021 9:15:00 PM 1.37 34.466 0.091 7.12 2.31 13.29
12/21/2021 9:30:00 PM 1.34 34.412 0.091 7.11 2.29 13.3
12/21/2021 9:45:00 PM 1.32 34.376 0.091 7.12 2.34 13.31
12/21/2021 10:00:00 PM 1.29 34.322 0.092 7.11 2.27 13.32
12/21/2021 10:15:00 PM 1.26 34.268 0.092 7.11 2.35 13.32
12/21/2021 10:30:00 PM 1.22 34.196 0.092 7.09 2.29 13.33
12/21/2021 10:45:00 PM 1.2 34.16 0.092 7.1 2.42 13.34
12/21/2021 11:00:00 PM 1.17 34.106 0.092 7.11 2.34 13.35
12/21/2021 11:15:00 PM 1.13 34.034 0.092 7.11 2.26 13.36
12/21/2021 11:30:00 PM 1.1 33.98 0.092 7.09 2.28 13.37
12/21/2021 11:45:00 PM 1.07 33.926 0.092 7.09 2.3 13.37
12/22/2021 12:00:00 AM 1.04 33.872 0.092 7.11 2.31 13.38
12/22/2021 12:15:00 AM 1.01 33.818 0.092 7.11 2.27 13.39
12/22/2021 12:30:00 AM 0.98 33.764 0.092 7.1 2.28 13.39
12/22/2021 12:45:00 AM 0.95 33.71 0.092 7.11 2.25 13.4
12/22/2021 1:00:00 AM 0.93 33.674 0.092 7.1 2.26 13.41
12/22/2021 1:15:00 AM 0.9 33.62 0.092 7.1 2.28 13.41
12/22/2021 1:30:00 AM 0.88 33.584 0.092 7.1 2.31 13.42
12/22/2021 1:45:00 AM 0.86 33.548 0.092 7.1 2.27 13.43
12/22/2021 2:00:00 AM 0.83 33.494 0.092 7.1 2.25 13.43
12/22/2021 2:15:00 AM 0.8 33.44 0.092 7.1 2.24 13.44
12/22/2021 2:30:00 AM 0.77 33.386 0.092 7.1 2.21 13.45
12/22/2021 2:45:00 AM 0.74 33.332 0.092 7.09 2.21 13.46
12/22/2021 3:00:00 AM 0.71 33.278 0.092 7.08 2.2 13.47
12/22/2021 3:15:00 AM 0.68 33.224 0.092 7.1 2.19 13.48
12/22/2021 3:30:00 AM 0.65 33.17 0.092 7.09 2.2 13.48
12/22/2021 3:45:00 AM 0.63 33.134 0.092 7.08 2.25 13.5
12/22/2021 4:00:00 AM 0.61 33.098 0.092 7.1 2.22 13.49
12/22/2021 4:15:00 AM 0.59 33.062 0.092 7.1 2.17 13.5
12/22/2021 4:30:00 AM 0.57 33.026 0.092 7.09 2.24 13.51
12/22/2021 4:45:00 AM 0.54 32.972 0.092 7.08 2.23 13.51
12/22/2021 5:00:00 AM 0.52 32.936 0.092 7.09 2.2 13.53
12/22/2021 5:15:00 AM 0.5 32.9 0.092 7.08 2.2 13.53
12/22/2021 5:30:00 AM 0.48 32.864 0.092 7.09 2.23 13.54
12/22/2021 5:45:00 AM 0.46 32.828 0.092 7.09 2.23 13.55
12/22/2021 6:00:00 AM 0.45 32.81 0.092 7.09 2.22 13.56
12/22/2021 6:15:00 AM 0.44 32.792 0.092 7.09 2.18 13.57
12/22/2021 6:30:00 AM 0.44 32.792 0.092 7.09 2.23 13.56
12/22/2021 6:45:00 AM 0.44 32.792 0.092 7.09 2.2 13.57
12/22/2021 7:00:00 AM 0.42 32.756 0.092 7.09 2.23 13.58
12/22/2021 7:15:00 AM 0.4 32.72 0.092 7.09 2.15 13.58
12/22/2021 7:30:00 AM 0.38 32.684 0.092 7.07 2.2 13.59
12/22/2021 7:45:00 AM 0.37 32.666 0.092 7.09 2.19 13.62
12/22/2021 8:00:00 AM 0.38 32.684 0.092 7.11 2.19 13.69
12/22/2021 8:15:00 AM 0.39 32.702 0.092 7.1 2.19 13.8
12/22/2021 8:30:00 AM 0.41 32.738 0.092 7.12 2.15 13.87
12/22/2021 8:45:00 AM 0.45 32.81 0.092 7.16 2.21 13.98
12/22/2021 9:00:00 AM 0.47 32.846 0.092 7.18 2.28 14.11
12/22/2021 9:15:00 AM 0.53 32.954 0.091 7.22 2.35 14.3
12/22/2021 9:30:00 AM 0.59 33.062 0.091 7.26 2.3 14.45
12/22/2021 9:45:00 AM 0.65 33.17 0.091 7.3 2.23 14.56
12/22/2021 10:00:00 AM 0.7 33.26 0.091 7.33 2.18 14.66
12/22/2021 10:15:00 AM 0.78 33.404 0.091 7.38 2.18 14.73
12/22/2021 10:30:00 AM 0.84 33.512 0.091 7.41 2.18 14.76
12/22/2021 10:45:00 AM 0.94 33.692 0.09 7.43 2.18 14.82
12/22/2021 11:00:00 AM 1.04 33.872 0.09 7.48 2.17 14.87
12/22/2021 11:15:00 AM 1.12 34.016 0.09 7.52 2.16 14.89
12/22/2021 11:30:00 AM 1.15 34.07 0.09 7.52 2.19 14.82
12/22/2021 11:45:00 AM 1.2 34.16 0.09 7.51 2.16 14.71
12/22/2021 12:00:00 PM 1.31 34.358 0.09 7.52 2.21 14.67
12/22/2021 12:15:00 PM 1.39 34.502 0.09 7.54 2.18 14.69
12/22/2021 12:30:00 PM 1.48 34.664 0.089 7.6 2.14 14.73
12/22/2021 12:45:00 PM 1.56 34.808 0.089 7.63 2.23 14.77
12/22/2021 1:00:00 PM 1.59 34.862 0.089 7.62 2.19 14.67
12/22/2021 1:15:00 PM 1.59 34.862 0.089 7.6 2.2 14.56
12/22/2021 1:30:00 PM 1.62 34.916 0.089 7.59 2.23 14.52
12/22/2021 1:45:00 PM 1.67 35.006 0.089 7.61 2.19 14.55
12/22/2021 2:00:00 PM 1.71 35.078 0.089 7.64 2.23 14.58
12/22/2021 2:15:00 PM 1.73 35.114 0.089 7.67 2.15 14.61
12/22/2021 2:30:00 PM 1.74 35.132 0.089 7.7 2.17 14.63
12/22/2021 2:45:00 PM 1.75 35.15 0.089 7.73 2.2 14.66
12/22/2021 3:00:00 PM 1.76 35.168 0.088 7.73 2.24 14.66
12/22/2021 3:15:00 PM 1.77 35.186 0.088 7.74 2.2 14.64
12/22/2021 3:30:00 PM 1.75 35.15 0.088 7.71 2.27 14.56
12/22/2021 3:45:00 PM 1.7 35.06 0.089 7.64 2.19 14.41
12/22/2021 4:00:00 PM 1.65 34.97 0.089 7.57 2.28 14.23
12/22/2021 4:15:00 PM 1.6 34.88 0.089 7.49 2.29 14.09
12/22/2021 4:30:00 PM 1.54 34.772 0.089 7.43 2.24 13.94
12/22/2021 4:45:00 PM 1.49 34.682 0.089 7.37 2.19 13.81
12/22/2021 5:00:00 PM 1.44 34.592 0.089 7.29 2.23 13.68
12/22/2021 5:15:00 PM 1.4 34.52 0.09 7.28 2.23 13.6
12/22/2021 5:30:00 PM 1.38 34.484 0.09 7.25 2.18 13.52
12/22/2021 5:45:00 PM 1.34 34.412 0.09 7.2 2.18 13.47
12/22/2021 6:00:00 PM 1.31 34.358 0.09 7.2 2.16 13.43
12/22/2021 6:15:00 PM 1.29 34.322 0.09 7.18 2.2 13.41
12/22/2021 6:30:00 PM 1.26 34.268 0.09 7.16 2.2 13.39
12/22/2021 6:45:00 PM 1.23 34.214 0.09 7.16 2.25 13.38
12/22/2021 7:00:00 PM 1.18 34.124 0.09 7.15 2.2 13.38
12/22/2021 7:15:00 PM 1.15 34.07 0.09 7.15 2.24 13.39
12/22/2021 7:30:00 PM 1.11 33.998 0.091 7.12 2.24 13.4
12/22/2021 7:45:00 PM 1.07 33.926 0.091 7.14 2.28 13.41
12/22/2021 8:00:00 PM 1.02 33.836 0.091 7.13 2.18 13.42
12/22/2021 8:15:00 PM 0.99 33.782 0.091 7.1 2.22 13.43
12/22/2021 8:30:00 PM 0.95 33.71 0.091 7.13 2.26 13.45
12/22/2021 8:45:00 PM 0.92 33.656 0.091 7.12 2.2 13.46
12/22/2021 9:00:00 PM 0.9 33.62 0.091 7.11 2.27 13.48
12/22/2021 9:15:00 PM 0.87 33.566 0.091 7.12 2.29 13.49
12/22/2021 9:30:00 PM 0.86 33.548 0.091 7.12 2.16 13.5
12/22/2021 9:45:00 PM 0.84 33.512 0.091 7.12 2.23 13.51
12/22/2021 10:00:00 PM 0.83 33.494 0.091 7.12 2.24 13.52
12/22/2021 10:15:00 PM 0.8 33.44 0.091 7.12 2.16 13.53
12/22/2021 10:30:00 PM 0.78 33.404 0.091 7.11 2.28 13.54
12/22/2021 10:45:00 PM 0.76 33.368 0.091 7.12 2.17 13.55
12/22/2021 11:00:00 PM 0.75 33.35 0.091 7.11 2.24 13.56
12/22/2021 11:15:00 PM 0.74 33.332 0.091 7.09 2.28 13.56
12/22/2021 11:30:00 PM 0.72 33.296 0.091 7.11 2.2 13.58
12/22/2021 11:45:00 PM 0.7 33.26 0.092 7.11 2.24 13.58
12/23/2021 12:00:00 AM 0.69 33.242 0.091 7.09 2.24 13.59
12/23/2021 12:15:00 AM 0.67 33.206 0.092 7.11 2.18 13.6
12/23/2021 12:30:00 AM 0.64 33.152 0.092 7.11 2.17 13.61
12/23/2021 12:45:00 AM 0.62 33.116 0.092 7.11 2.21 13.62
12/23/2021 1:00:00 AM 0.6 33.08 0.092 7.09 2.24 13.63
12/23/2021 1:15:00 AM 0.57 33.026 0.092 7.11 2.19 13.64
12/23/2021 1:30:00 AM 0.55 32.99 0.092 7.1 2.17 13.65
12/23/2021 1:45:00 AM 0.54 32.972 0.092 7.1 2.3 13.66
12/23/2021 2:00:00 AM 0.52 32.936 0.092 7.11 2.21 13.66
12/23/2021 2:15:00 AM 0.51 32.918 0.092 7.1 2.19 13.67
12/23/2021 2:30:00 AM 0.5 32.9 0.092 7.08 2.21 13.68
12/23/2021 2:45:00 AM 0.49 32.882 0.092 7.1 2.23 13.69
12/23/2021 3:00:00 AM 0.49 32.882 0.092 7.08 2.16 13.69
12/23/2021 3:15:00 AM 0.49 32.882 0.092 7.1 2.11 13.7
12/23/2021 3:30:00 AM 0.48 32.864 0.092 7.08 2.14 13.7
12/23/2021 3:45:00 AM 0.47 32.846 0.092 7.1 2.26 13.71
12/23/2021 4:00:00 AM 0.45 32.81 0.092 7.1 2.15 13.71
12/23/2021 4:15:00 AM 0.43 32.774 0.092 7.1 2.14 13.72
12/23/2021 4:30:00 AM 0.41 32.738 0.092 7.1 2.2 13.72
12/23/2021 4:45:00 AM 0.4 32.72 0.092 7.07 2.11 13.73
12/23/2021 5:00:00 AM 0.38 32.684 0.092 7.1 2.19 13.73
12/23/2021 5:15:00 AM 0.35 32.63 0.092 7.1 2.13 13.74
12/23/2021 5:30:00 AM 0.33 32.594 0.092 7.09 2.13 13.75
12/23/2021 5:45:00 AM 0.31 32.558 0.092 7.09 2.16 13.76
12/23/2021 6:00:00 AM 0.3 32.54 0.092 7.07 2.12 13.77
12/23/2021 6:15:00 AM 0.29 32.522 0.092 7.09 2.11 13.78
12/23/2021 6:30:00 AM 0.28 32.504 0.092 7.09 2.13 13.79
12/23/2021 6:45:00 AM 0.28 32.504 0.092 7.09 2.15 13.8
12/23/2021 7:00:00 AM 0.27 32.486 0.092 7.08 2.14 13.81
12/23/2021 7:15:00 AM 0.26 32.468 0.092 7.08 2.12 13.82
12/23/2021 7:30:00 AM 0.26 32.468 0.092 7.07 2.13 13.83
12/23/2021 7:45:00 AM 0.26 32.468 0.092 7.09 2.16 13.85
12/23/2021 8:00:00 AM 0.27 32.486 0.092 7.1 2.07 13.89
12/23/2021 8:15:00 AM -99999.99 -179968 -99999.99 -99999.99 -99999.99 -99999.99
12/23/2021 8:30:00 AM 0.29 32.522 0.092 7.14 2.16 14.1
12/23/2021 8:45:00 AM 0.31 32.558 0.092 7.14 2.13 14.26
12/23/2021 9:00:00 AM 0.34 32.612 0.092 7.19 2.12 14.42
12/23/2021 9:15:00 AM 0.36 32.648 0.092 7.19 2.17 14.55
12/23/2021 9:30:00 AM 0.39 32.702 0.092 7.25 2.07 14.7
12/23/2021 9:45:00 AM 0.42 32.756 0.091 7.29 2.08 14.85
12/23/2021 10:00:00 AM 0.46 32.828 0.091 7.34 2.1 14.98
12/23/2021 10:15:00 AM 0.51 32.918 0.091 7.38 2.11 15.09
12/23/2021 10:30:00 AM 0.55 32.99 0.091 7.43 2.02 15.18
12/23/2021 10:45:00 AM 0.62 33.116 0.09 7.47 2.12 15.25
12/23/2021 11:00:00 AM 0.67 33.206 0.09 7.51 2.08 15.3
12/23/2021 11:15:00 AM 0.72 33.296 0.09 7.53 2.1 15.32
12/23/2021 11:30:00 AM 0.76 33.368 0.09 7.57 2.05 15.32
12/23/2021 11:45:00 AM 0.84 33.512 0.09 7.6 2.24 15.32
12/23/2021 12:00:00 PM 0.92 33.656 0.09 7.63 2.05 15.34
12/23/2021 12:15:00 PM 0.96 33.728 0.089 7.65 2.06 15.35
12/23/2021 12:30:00 PM 0.99 33.782 0.089 7.68 2.11 15.34
12/23/2021 12:45:00 PM 1.05 33.89 0.089 7.7 2.02 15.32
12/23/2021 1:00:00 PM 1.13 34.034 0.089 7.74 2.08 15.31
12/23/2021 1:15:00 PM 1.18 34.124 0.089 7.76 2.16 15.3
12/23/2021 1:30:00 PM 1.22 34.196 0.089 7.77 2.12 15.27
12/23/2021 1:45:00 PM 1.29 34.322 0.089 7.77 2.06 15.25
12/23/2021 2:00:00 PM 1.36 34.448 0.089 7.8 2.02 15.24
12/23/2021 2:15:00 PM 1.41 34.538 0.089 7.8 2.05 15.22
12/23/2021 2:30:00 PM 1.42 34.556 0.089 7.81 2.08 15.17
12/23/2021 2:45:00 PM 1.4 34.52 0.089 7.77 2.03 15.08
12/23/2021 3:00:00 PM 1.38 34.484 0.088 7.76 2.07 15.02
12/23/2021 3:15:00 PM 1.33 34.394 0.089 7.72 2.07 14.97
12/23/2021 3:30:00 PM 1.28 34.304 0.089 7.69 2.1 14.93
12/23/2021 3:45:00 PM 1.22 34.196 0.089 7.63 2.12 14.86
12/23/2021 4:00:00 PM 1.16 34.088 0.089 7.6 2.06 14.78
12/23/2021 4:15:00 PM 1.1 33.98 0.089 7.53 2.07 14.65
12/23/2021 4:30:00 PM 1.04 33.872 0.089 7.47 2.15 14.51
12/23/2021 4:45:00 PM 0.99 33.782 0.089 7.41 2.12 14.34
12/23/2021 5:00:00 PM 0.94 33.692 0.09 7.36 2.06 14.2
12/23/2021 5:15:00 PM 0.9 33.62 0.09 7.3 2.1 14.08
12/23/2021 5:30:00 PM 0.85 33.53 0.09 7.27 2.1 13.99
12/23/2021 5:45:00 PM 0.81 33.458 0.09 7.21 2.1 13.91
12/23/2021 6:00:00 PM 0.79 33.422 0.09 7.21 2.07 13.84
12/23/2021 6:15:00 PM 0.78 33.404 0.09 7.18 2.07 13.8
12/23/2021 6:30:00 PM 0.77 33.386 0.09 7.17 2.09 13.76
12/23/2021 6:45:00 PM 0.76 33.368 0.09 7.15 2.06 13.73
12/23/2021 7:00:00 PM 0.76 33.368 0.091 7.15 2.08 13.7
12/23/2021 7:15:00 PM 0.76 33.368 0.091 7.13 2.12 13.69
12/23/2021 7:30:00 PM 0.76 33.368 0.091 7.12 2.09 13.68
12/23/2021 7:45:00 PM 0.76 33.368 0.091 7.13 2.05 13.67
12/23/2021 8:00:00 PM 0.76 33.368 0.091 7.12 2.03 13.66
12/23/2021 8:15:00 PM 0.76 33.368 0.091 7.11 2.1 13.66
12/23/2021 8:30:00 PM 0.75 33.35 0.091 7.11 2.06 13.66
12/23/2021 8:45:00 PM 0.75 33.35 0.091 7.12 2.05 13.66
12/23/2021 9:00:00 PM 0.74 33.332 0.091 7.11 2.09 13.65
12/23/2021 9:15:00 PM 0.73 33.314 0.091 7.11 2.14 13.65
12/23/2021 9:30:00 PM 0.71 33.278 0.091 7.09 2.13 13.65
12/23/2021 9:45:00 PM 0.71 33.278 0.091 7.11 2.1 13.65
12/23/2021 10:00:00 PM 0.7 33.26 0.091 7.09 2.05 13.65
12/23/2021 10:15:00 PM 0.71 33.278 0.092 7.11 2.11 13.65
12/23/2021 10:30:00 PM 0.71 33.278 0.092 7.1 2.14 13.66
12/23/2021 10:45:00 PM 0.71 33.278 0.092 7.11 2.08 13.65
12/23/2021 11:00:00 PM 0.7 33.26 0.092 7.09 2.06 13.65
12/23/2021 11:15:00 PM 0.7 33.26 0.092 7.1 2.13 13.65
12/23/2021 11:30:00 PM 0.7 33.26 0.092 7.08 2.09 13.65
12/23/2021 11:45:00 PM 0.7 33.26 0.092 7.11 2.08 13.64
12/24/2021 12:00:00 AM 0.7 33.26 0.092 7.11 2.12 13.64
12/24/2021 12:15:00 AM 0.7 33.26 0.092 7.1 2.09 13.64
12/24/2021 12:30:00 AM 0.71 33.278 0.092 7.1 2.11 13.64
12/24/2021 12:45:00 AM 0.7 33.26 0.092 7.1 2.11 13.63
12/24/2021 1:00:00 AM 0.7 33.26 0.092 7.09 2.05 13.63
12/24/2021 1:15:00 AM 0.69 33.242 0.092 7.1 2.11 13.63
12/24/2021 1:30:00 AM 0.67 33.206 0.092 7.1 2.08 13.63
12/24/2021 1:45:00 AM 0.65 33.17 0.092 7.08 2.1 13.63
12/24/2021 2:00:00 AM 0.63 33.134 0.092 7.1 2.14 13.63
12/24/2021 2:15:00 AM 0.59 33.062 0.092 7.1 2.1 13.62
12/24/2021 2:30:00 AM 0.56 33.008 0.092 7.1 2.05 13.63
12/24/2021 2:45:00 AM 0.54 32.972 0.092 7.1 2.12 13.64
12/24/2021 3:00:00 AM 0.52 32.936 0.092 7.08 2.08 13.65
12/24/2021 3:15:00 AM 0.51 32.918 0.092 7.09 2.08 13.66
12/24/2021 3:30:00 AM 0.49 32.882 0.092 7.08 2.12 13.67
12/24/2021 3:45:00 AM 0.46 32.828 0.092 7.1 2.13 13.68
12/24/2021 4:00:00 AM 0.44 32.792 0.092 7.09 2.15 13.69
12/24/2021 4:15:00 AM 0.44 32.792 0.092 7.1 2.11 13.7
12/24/2021 4:30:00 AM 0.44 32.792 0.092 7.09 2.09 13.7
12/24/2021 4:45:00 AM 0.44 32.792 0.092 7.08 2.15 13.71
12/24/2021 5:00:00 AM 0.45 32.81 0.092 7.1 2.14 13.71
12/24/2021 5:15:00 AM 0.46 32.828 0.092 7.09 2.11 13.71
12/24/2021 5:30:00 AM 0.47 32.846 0.092 7.09 2.15 13.71
12/24/2021 5:45:00 AM 0.49 32.882 0.092 7.08 2.04 13.71
12/24/2021 6:00:00 AM 0.51 32.918 0.092 7.09 2.07 13.7
12/24/2021 6:15:00 AM -99999.99 -179968 -99999.99 -99999.99 -99999.99 -99999.99
12/24/2021 6:30:00 AM 0.55 32.99 0.092 7.1 2.1 13.69
12/24/2021 6:45:00 AM 0.57 33.026 0.092 7.09 2.1 13.68
12/24/2021 7:00:00 AM 0.59 33.062 0.092 7.1 2.11 13.68
12/24/2021 7:15:00 AM 0.61 33.098 0.092 7.1 2.06 13.67
12/24/2021 7:30:00 AM 0.62 33.116 0.092 7.09 2.07 13.66
12/24/2021 7:45:00 AM 0.65 33.17 0.092 7.1 2.1 13.67
12/24/2021 8:00:00 AM -99999.99 -179968 -99999.99 -99999.99 -99999.99 -99999.99
12/24/2021 8:15:00 AM 0.68 33.224 0.092 7.11 2.09 13.74
12/24/2021 8:30:00 AM 0.7 33.26 0.092 7.13 2.12 13.86
12/24/2021 8:45:00 AM 0.73 33.314 0.092 7.15 2.18 13.99
12/24/2021 9:00:00 AM 0.76 33.368 0.091 7.15 2.09 14.11
12/24/2021 9:15:00 AM 0.81 33.458 0.091 7.21 2.09 14.26
12/24/2021 9:30:00 AM 0.85 33.53 0.091 7.21 2.05 14.39
12/24/2021 9:45:00 AM 0.9 33.62 0.091 7.27 2.03 14.53
12/24/2021 10:00:00 AM 0.95 33.71 0.091 7.29 2.02 14.65
12/24/2021 10:15:00 AM 1.01 33.818 0.091 7.36 2.03 14.78
12/24/2021 10:30:00 AM 1.07 33.926 0.091 7.4 2.06 14.86
12/24/2021 10:45:00 AM 1.15 34.07 0.09 7.44 2.1 14.95
12/24/2021 11:00:00 AM 1.21 34.178 0.09 7.46 2.05 15
12/24/2021 11:15:00 AM 1.28 34.304 0.09 7.52 2.04 15.03
12/24/2021 11:30:00 AM 1.32 34.376 0.09 7.55 2.05 15.04
12/24/2021 11:45:00 AM 1.38 34.484 0.09 7.56 2.04 15.01
12/24/2021 12:00:00 PM 1.43 34.574 0.09 7.6 2.03 15
12/24/2021 12:15:00 PM 1.48 34.664 0.09 7.62 2.05 14.98
12/24/2021 12:30:00 PM 1.53 34.754 0.09 7.63 2.04 14.96
12/24/2021 12:45:00 PM 1.57 34.826 0.09 7.65 2.02 14.92
12/24/2021 1:00:00 PM 1.61 34.898 0.089 7.66 2.02 14.9
12/24/2021 1:15:00 PM 1.67 35.006 0.089 7.67 2.05 14.88
12/24/2021 1:30:00 PM 1.73 35.114 0.089 7.69 2.03 14.89
12/24/2021 1:45:00 PM 1.81 35.258 0.089 7.73 2.1 14.91
12/24/2021 2:00:00 PM 1.89 35.402 0.089 7.75 2.05 14.94
12/24/2021 2:15:00 PM 2 35.6 0.089 7.81 2.12 14.97
12/24/2021 2:30:00 PM 2.07 35.726 0.089 7.85 2.04 14.95
12/24/2021 2:45:00 PM 2.12 35.816 0.088 7.86 2.03 14.9
12/24/2021 3:00:00 PM 2.14 35.852 0.088 7.85 2.06 14.82
12/24/2021 3:15:00 PM 2.16 35.888 0.088 7.83 2.04 14.76
12/24/2021 3:30:00 PM 2.18 35.924 0.088 7.81 2.15 14.69
12/24/2021 3:45:00 PM 2.17 35.906 0.088 7.76 2.22 14.61
12/24/2021 4:00:00 PM 2.14 35.852 0.089 7.72 2.26 14.53
12/24/2021 4:15:00 PM 2.1 35.78 0.089 7.64 2.29 14.36
12/24/2021 4:30:00 PM 2.06 35.708 0.089 7.54 2.21 14.19
12/24/2021 4:45:00 PM 2.02 35.636 0.089 7.48 2.36 14
12/24/2021 5:00:00 PM 1.98 35.564 0.09 7.4 2.27 13.81
12/24/2021 5:15:00 PM 1.94 35.492 0.09 7.35 2.12 13.67
12/24/2021 5:30:00 PM 1.91 35.438 0.09 7.3 2.22 13.55
12/24/2021 5:45:00 PM 1.88 35.384 0.09 7.26 2.12 13.46
12/24/2021 6:00:00 PM 1.85 35.33 0.091 7.22 2.18 13.39
12/24/2021 6:15:00 PM 1.83 35.294 0.091 7.21 2.26 13.33
12/24/2021 6:30:00 PM 1.81 35.258 0.091 7.19 2.19 13.28
12/24/2021 6:45:00 PM 1.8 35.24 0.091 7.16 2.23 13.26
12/24/2021 7:00:00 PM 1.78 35.204 0.091 7.15 2.17 13.24
12/24/2021 7:15:00 PM 1.77 35.186 0.091 7.15 2.22 13.22
12/24/2021 7:30:00 PM 1.77 35.186 0.091 7.14 2.16 13.21
12/24/2021 7:45:00 PM 1.76 35.168 0.091 7.14 2.16 13.2
12/24/2021 8:00:00 PM 1.75 35.15 0.091 7.13 2.31 13.2
12/24/2021 8:15:00 PM 1.75 35.15 0.091 7.12 2.19 13.2
12/24/2021 8:30:00 PM 1.75 35.15 0.091 7.12 2.15 13.19
12/24/2021 8:45:00 PM 1.75 35.15 0.091 7.09 2.22 13.19
12/24/2021 9:00:00 PM 1.74 35.132 0.091 7.12 2.19 13.19
12/24/2021 9:15:00 PM 1.75 35.15 0.092 7.11 2.16 13.18
12/24/2021 9:30:00 PM 1.75 35.15 0.092 7.11 2.19 13.18
12/24/2021 9:45:00 PM 1.76 35.168 0.092 7.11 2.21 13.18
12/24/2021 10:00:00 PM 1.77 35.186 0.092 7.1 2.19 13.17
12/24/2021 10:15:00 PM 1.78 35.204 0.092 7.11 2.24 13.16
12/24/2021 10:30:00 PM 1.78 35.204 0.092 7.11 2.13 13.16
12/24/2021 10:45:00 PM 1.79 35.222 0.092 7.1 2.26 13.15
12/24/2021 11:00:00 PM 1.79 35.222 0.092 7.09 2.23 13.15
12/24/2021 11:15:00 PM 1.8 35.24 0.092 7.11 2.14 13.14
12/24/2021 11:30:00 PM 1.82 35.276 0.092 7.11 2.22 13.13
12/24/2021 11:45:00 PM 1.83 35.294 0.092 7.11 2.18 13.13
12/25/2021 12:00:00 AM 1.85 35.33 0.092 7.08 2.2 13.12
12/25/2021 12:15:00 AM 1.87 35.366 0.092 7.11 2.25 13.11
12/25/2021 12:30:00 AM 1.89 35.402 0.092 7.11 2.24 13.1
12/25/2021 12:45:00 AM 1.91 35.438 0.092 7.09 2.23 13.1
12/25/2021 1:00:00 AM 1.92 35.456 0.092 7.09 2.18 13.09
12/25/2021 1:15:00 AM 1.94 35.492 0.092 7.11 2.32 13.08
12/25/2021 1:30:00 AM 1.96 35.528 0.092 7.09 2.19 13.07
12/25/2021 1:45:00 AM 1.97 35.546 0.092 7.11 2.26 13.06
12/25/2021 2:00:00 AM 1.99 35.582 0.092 7.11 2.3 13.04
12/25/2021 2:15:00 AM 2 35.6 0.092 7.11 2.31 13.04
12/25/2021 2:30:00 AM 2.01 35.618 0.093 7.11 2.39 13.03
12/25/2021 2:45:00 AM 2.03 35.654 0.093 7.09 2.35 13.02
12/25/2021 3:00:00 AM 2.04 35.672 0.093 7.11 2.24 13.01
12/25/2021 3:15:00 AM 2.06 35.708 0.092 7.11 2.4 12.99
12/25/2021 3:30:00 AM 2.08 35.744 0.092 7.11 2.39 12.99
12/25/2021 3:45:00 AM 2.09 35.762 0.092 7.1 2.35 12.97
12/25/2021 4:00:00 AM 2.1 35.78 0.092 7.11 2.4 12.97
12/25/2021 4:15:00 AM 2.12 35.816 0.092 7.11 2.48 12.97
12/25/2021 4:30:00 AM 2.13 35.834 0.092 7.09 2.44 12.96
12/25/2021 4:45:00 AM 2.15 35.87 0.092 7.1 2.41 12.94
12/25/2021 5:00:00 AM 2.16 35.888 0.092 7.11 2.39 12.94
12/25/2021 5:15:00 AM 2.18 35.924 0.092 7.1 2.52 12.93
12/25/2021 5:30:00 AM 2.2 35.96 0.092 7.11 2.56 12.92
12/25/2021 5:45:00 AM 2.21 35.978 0.092 7.1 2.64 12.91
12/25/2021 6:00:00 AM -99999.99 -179968 -99999.99 -99999.99 -99999.99 -99999.99
12/25/2021 6:15:00 AM 2.25 36.05 0.092 7.12 2.79 12.89
12/25/2021 6:30:00 AM 2.27 36.086 0.092 7.11 2.96 12.9
12/25/2021 6:45:00 AM 2.28 36.104 0.091 7.12 3.34 12.89
12/25/2021 7:00:00 AM 2.3 36.14 0.092 7.12 3.9 12.87
12/25/2021 7:15:00 AM 2.31 36.158 0.091 7.09 3.57 12.87
12/25/2021 7:30:00 AM 2.33 36.194 0.091 7.11 4.09 12.88
12/25/2021 7:45:00 AM 2.34 36.212 0.091 7.11 5.46 12.88
12/25/2021 8:00:00 AM -99999.99 -179968 -99999.99 -99999.99 -99999.99 -99999.99
12/25/2021 8:15:00 AM 2.38 36.284 0.091 7.14 7.58 12.94
12/25/2021 8:30:00 AM 2.39 36.302 0.092 7.15 8.65 12.96
12/25/2021 8:45:00 AM 2.4 36.32 0.092 7.16 9.68 13.01
12/25/2021 9:00:00 AM 2.42 36.356 0.092 7.17 9.79 13.09
12/25/2021 9:15:00 AM 2.44 36.392 0.092 7.21 10.76 13.16
12/25/2021 9:30:00 AM 2.45 36.41 0.092 7.23 11.98 13.18
12/25/2021 9:45:00 AM 2.47 36.446 0.092 7.23 11.45 13.2
12/25/2021 10:00:00 AM 2.48 36.464 0.092 7.25 11.73 13.26
12/25/2021 10:15:00 AM 2.49 36.482 0.092 7.28 12.73 13.28
12/25/2021 10:30:00 AM 2.5 36.5 0.092 7.29 12.13 13.27
12/25/2021 10:45:00 AM 2.51 36.518 0.091 7.27 13.76 13.28
12/25/2021 11:00:00 AM 2.52 36.536 0.091 7.3 14.02 13.3
12/25/2021 11:15:00 AM 2.54 36.572 0.09 7.3 18.9 13.3
12/25/2021 11:30:00 AM 2.57 36.626 0.091 7.3 18 13.36
12/25/2021 11:45:00 AM 2.62 36.716 0.091 7.3 19.4 13.4
12/25/2021 12:00:00 PM 2.64 36.752 0.091 7.31 18.48 13.39
12/25/2021 12:15:00 PM 2.65 36.77 0.092 7.31 18.1 13.35
12/25/2021 12:30:00 PM 2.66 36.788 0.093 7.3 19.08 13.3
12/25/2021 12:45:00 PM 2.67 36.806 0.093 7.31 19.45 13.25
12/25/2021 1:00:00 PM 2.67 36.806 0.094 7.3 16.88 13.21
12/25/2021 1:15:00 PM 2.68 36.824 0.094 7.28 18.84 13.17
12/25/2021 1:30:00 PM 2.71 36.878 0.094 7.3 18.94 13.21
12/25/2021 1:45:00 PM 2.74 36.932 0.094 7.3 19.01 13.23
12/25/2021 2:00:00 PM 2.77 36.986 0.093 7.31 19.17 13.23
12/25/2021 2:15:00 PM 2.8 37.04 0.093 7.3 18.97 13.24
12/25/2021 2:30:00 PM 2.83 37.094 0.094 7.31 20.11 13.22
12/25/2021 2:45:00 PM 2.85 37.13 0.094 7.29 17.84 13.2
12/25/2021 3:00:00 PM 2.89 37.202 0.093 7.29 17.94 13.18
12/25/2021 3:15:00 PM 2.92 37.256 0.093 7.28 16.58 13.15
12/25/2021 3:30:00 PM 2.94 37.292 0.093 7.27 17.55 13.08
12/25/2021 3:45:00 PM 2.96 37.328 0.092 7.26 12.79 13.04
12/25/2021 4:00:00 PM 2.98 37.364 0.092 7.24 16.67 12.99
12/25/2021 4:15:00 PM 3 37.4 0.091 7.22 16.16 12.92
12/25/2021 4:30:00 PM 3.02 37.436 0.091 7.19 15.43 12.87
12/25/2021 4:45:00 PM 3.04 37.472 0.091 7.18 14.91 12.82
12/25/2021 5:00:00 PM 3.06 37.508 0.09 7.17 15.04 12.78
12/25/2021 5:15:00 PM 3.07 37.526 0.09 7.16 15.87 12.75
12/25/2021 5:30:00 PM 3.08 37.544 0.09 7.13 13.65 12.73
12/25/2021 5:45:00 PM 3.1 37.58 0.089 7.14 13.77 12.71
12/25/2021 6:00:00 PM 3.11 37.598 0.089 7.12 13.31 12.7
12/25/2021 6:15:00 PM 3.12 37.616 0.089 7.13 12.57 12.69
12/25/2021 6:30:00 PM 3.13 37.634 0.089 7.1 12.53 12.68
12/25/2021 6:45:00 PM 3.14 37.652 0.088 7.12 12.18 12.68
12/25/2021 7:00:00 PM 3.15 37.67 0.088 7.12 11.89 12.67
12/25/2021 7:15:00 PM 3.16 37.688 0.088 7.08 11.68 12.67
12/25/2021 7:30:00 PM 3.17 37.706 0.088 7.1 11.39 12.67
12/25/2021 7:45:00 PM 3.18 37.724 0.088 7.1 11.67 12.67
12/25/2021 8:00:00 PM 3.19 37.742 0.088 7.09 11.04 12.66
12/25/2021 8:15:00 PM 3.21 37.778 0.088 7.11 10.57 12.66
12/25/2021 8:30:00 PM 3.23 37.814 0.088 7.1 9.87 12.65
12/25/2021 8:45:00 PM 3.24 37.832 0.088 7.09 9.74 12.65
12/25/2021 9:00:00 PM 3.26 37.868 0.088 7.11 9.6 12.64
12/25/2021 9:15:00 PM 3.28 37.904 0.088 7.11 10.39 12.64
12/25/2021 9:30:00 PM 3.29 37.922 0.088 7.08 9.7 12.64
12/25/2021 9:45:00 PM 3.3 37.94 0.088 7.11 9.71 12.63
12/25/2021 10:00:00 PM 3.32 37.976 0.088 7.11 8.83 12.63
12/25/2021 10:15:00 PM 3.33 37.994 0.088 7.1 9.49 12.62
12/25/2021 10:30:00 PM 3.35 38.03 0.088 7.11 10.01 12.62
12/25/2021 10:45:00 PM 3.36 38.048 0.088 7.08 9.09 12.62
12/25/2021 11:00:00 PM 3.38 38.084 0.089 7.11 9.05 12.61
12/25/2021 11:15:00 PM 3.39 38.102 0.089 7.11 8.96 12.61
12/25/2021 11:30:00 PM 3.4 38.12 0.089 7.12 8.94 12.61
12/25/2021 11:45:00 PM 3.41 38.138 0.089 7.12 9.05 12.6
12/26/2021 12:00:00 AM 3.42 38.156 0.089 7.11 8.31 12.61
12/26/2021 12:15:00 AM 3.43 38.174 0.089 7.1 8.87 12.6
12/26/2021 12:30:00 AM 3.44 38.192 0.089 7.12 8.98 12.59
12/26/2021 12:45:00 AM 3.45 38.21 0.089 7.12 8.51 12.6
12/26/2021 1:00:00 AM 3.45 38.21 0.089 7.12 8.6 12.59
12/26/2021 1:15:00 AM 3.46 38.228 0.089 7.11 8.86 12.6
12/26/2021 1:30:00 AM 3.46 38.228 0.089 7.11 7.99 12.59
12/26/2021 1:45:00 AM 3.46 38.228 0.089 7.11 7.86 12.6
12/26/2021 2:00:00 AM 3.46 38.228 0.09 7.09 7.87 12.59
12/26/2021 2:15:00 AM 3.46 38.228 0.09 7.1 7.92 12.6
12/26/2021 2:30:00 AM 3.46 38.228 0.09 7.11 7.72 12.6
12/26/2021 2:45:00 AM 3.46 38.228 0.09 7.11 7.84 12.6
12/26/2021 3:00:00 AM 3.45 38.21 0.09 7.14 7.51 12.61
12/26/2021 3:15:00 AM 3.44 38.192 0.09 7.11 7.66 12.6
12/26/2021 3:30:00 AM 3.43 38.174 0.09 7.11 6.9 12.61
12/26/2021 3:45:00 AM 3.42 38.156 0.09 7.11 6.87 12.61
12/26/2021 4:00:00 AM 3.41 38.138 0.09 7.12 6.82 12.61
12/26/2021 4:15:00 AM 3.41 38.138 0.09 7.1 6.63 12.61
12/26/2021 4:30:00 AM 3.4 38.12 0.09 7.11 6.9 12.62
12/26/2021 4:45:00 AM 3.39 38.102 0.09 7.11 6.43 12.63
12/26/2021 5:00:00 AM 3.38 38.084 0.09 7.11 6.36 12.63
12/26/2021 5:15:00 AM 3.37 38.066 0.091 7.07 6.47 12.64
12/26/2021 5:30:00 AM 3.35 38.03 0.091 7.11 6.5 12.65
12/26/2021 5:45:00 AM 3.34 38.012 0.091 7.09 6.18 12.66
12/26/2021 6:00:00 AM 3.32 37.976 0.091 7.11 6.17 12.66
12/26/2021 6:15:00 AM 3.3 37.94 0.091 7.11 6.02 12.67
12/26/2021 6:30:00 AM 3.28 37.904 0.091 7.11 5.61 12.68
12/26/2021 6:45:00 AM 3.25 37.85 0.091 7.09 5.8 12.68
12/26/2021 7:00:00 AM 3.21 37.778 0.091 7.11 5.68 12.7
12/26/2021 7:15:00 AM 3.19 37.742 0.091 7.1 5.24 12.71
12/26/2021 7:30:00 AM 3.17 37.706 0.091 7.09 5.6 12.72
12/26/2021 7:45:00 AM 3.15 37.67 0.091 7.11 5.35 12.74
12/26/2021 8:00:00 AM 3.13 37.634 0.091 7.1 5.2 12.79
12/26/2021 8:15:00 AM 3.1 37.58 0.091 7.13 5.17 12.87
12/26/2021 8:30:00 AM 3.07 37.526 0.091 7.14 5.12 12.94
12/26/2021 8:45:00 AM 3.04 37.472 0.091 7.16 4.97 13.03
12/26/2021 9:00:00 AM 3.03 37.454 0.091 7.19 4.82 13.13
12/26/2021 9:15:00 AM 3.04 37.472 0.091 7.2 4.91 13.25
12/26/2021 9:30:00 AM 3.06 37.508 0.091 7.25 4.85 13.37
12/26/2021 9:45:00 AM 3.09 37.562 0.091 7.28 4.46 13.49
12/26/2021 10:00:00 AM 3.12 37.616 0.09 7.31 4.32 13.6
12/26/2021 10:15:00 AM 3.14 37.652 0.09 7.35 4.37 13.69
12/26/2021 10:30:00 AM 3.17 37.706 0.09 7.36 4.31 13.73
12/26/2021 10:45:00 AM 3.2 37.76 0.09 7.4 4.38 13.76
12/26/2021 11:00:00 AM 3.22 37.796 0.09 7.42 4.18 13.78
12/26/2021 11:15:00 AM 3.25 37.85 0.09 7.45 4.17 13.8
12/26/2021 11:30:00 AM 3.29 37.922 0.09 7.46 4.28 13.81
12/26/2021 11:45:00 AM 3.31 37.958 0.09 7.44 4.15 13.8
12/26/2021 12:00:00 PM 3.34 38.012 0.09 7.48 4.06 13.79
12/26/2021 12:15:00 PM 3.36 38.048 0.09 7.5 4.09 13.78
12/26/2021 12:30:00 PM 3.38 38.084 0.09 7.49 4.04 13.79
12/26/2021 12:45:00 PM 3.4 38.12 0.089 7.52 3.97 13.78
12/26/2021 1:00:00 PM 3.43 38.174 0.089 7.51 4.02 13.77
12/26/2021 1:15:00 PM 3.46 38.228 0.089 7.53 4.02 13.78
12/26/2021 1:30:00 PM 3.49 38.282 0.089 7.55 3.85 13.8
12/26/2021 1:45:00 PM 3.52 38.336 0.089 7.54 3.84 13.81
12/26/2021 2:00:00 PM 3.54 38.372 0.089 7.56 3.87 13.8
12/26/2021 2:15:00 PM 3.54 38.372 0.089 7.56 3.81 13.75
12/26/2021 2:30:00 PM 3.55 38.39 0.089 7.51 4.2 13.67
12/26/2021 2:45:00 PM 3.54 38.372 0.089 7.49 4.16 13.57
12/26/2021 3:00:00 PM 3.54 38.372 0.089 7.46 4.15 13.53
12/26/2021 3:15:00 PM 3.54 38.372 0.089 7.45 3.95 13.5
12/26/2021 3:30:00 PM 3.53 38.354 0.089 7.39 3.96 13.43
12/26/2021 3:45:00 PM 3.52 38.336 0.09 7.39 4.04 13.34
12/26/2021 4:00:00 PM 3.51 38.318 0.09 7.33 3.98 13.23
12/26/2021 4:15:00 PM 3.5 38.3 0.09 7.31 3.98 13.12
12/26/2021 4:30:00 PM 3.49 38.282 0.09 7.28 3.93 13.04
12/26/2021 4:45:00 PM 3.46 38.228 0.09 7.25 3.99 12.97
12/26/2021 5:00:00 PM 3.43 38.174 0.09 7.22 3.93 12.9
12/26/2021 5:15:00 PM 3.41 38.138 0.09 7.2 3.88 12.84
12/26/2021 5:30:00 PM 3.39 38.102 0.09 7.15 3.9 12.8
12/26/2021 5:45:00 PM 3.37 38.066 0.09 7.16 4.09 12.77
12/26/2021 6:00:00 PM 3.34 38.012 0.09 7.15 3.97 12.75
12/26/2021 6:15:00 PM 3.32 37.976 0.091 7.14 3.98 12.74
12/26/2021 6:30:00 PM 3.29 37.922 0.091 7.14 3.93 12.74
12/26/2021 6:45:00 PM 3.27 37.886 0.091 7.13 3.88 12.74
12/26/2021 7:00:00 PM 3.24 37.832 0.091 7.12 3.82 12.74
12/26/2021 7:15:00 PM 3.21 37.778 0.091 7.12 3.96 12.75
12/26/2021 7:30:00 PM 3.19 37.742 0.091 7.11 3.9 12.75
12/26/2021 7:45:00 PM 3.16 37.688 0.091 7.08 3.82 12.76
12/26/2021 8:00:00 PM 3.13 37.634 0.091 7.1 3.91 12.77
12/26/2021 8:15:00 PM 3.1 37.58 0.091 7.09 3.85 12.78
12/26/2021 8:30:00 PM 3.08 37.544 0.091 7.11 3.79 12.8
12/26/2021 8:45:00 PM 3.05 37.49 0.091 7.11 3.65 12.8
12/26/2021 9:00:00 PM 3.02 37.436 0.091 7.1 3.75 12.81
12/26/2021 9:15:00 PM 2.99 37.382 0.091 7.1 3.93 12.82
12/26/2021 9:30:00 PM 2.96 37.328 0.091 7.09 3.85 12.83
12/26/2021 9:45:00 PM 2.94 37.292 0.091 7.1 3.71 12.84
12/26/2021 10:00:00 PM 2.92 37.256 0.091 7.08 3.55 12.85
12/26/2021 10:15:00 PM 2.9 37.22 0.091 7.1 3.68 12.85
12/26/2021 10:30:00 PM 2.88 37.184 0.091 7.1 3.54 12.86
12/26/2021 10:45:00 PM 2.85 37.13 0.091 7.09 3.65 12.87
12/26/2021 11:00:00 PM 2.83 37.094 0.091 7.1 3.56 12.88
12/26/2021 11:15:00 PM 2.81 37.058 0.091 7.1 3.76 12.89
12/26/2021 11:30:00 PM 2.79 37.022 0.091 7.07 3.81 12.89
12/26/2021 11:45:00 PM 2.77 36.986 0.091 7.09 3.56 12.9
12/27/2021 12:00:00 AM 2.74 36.932 0.091 7.1 3.68 12.92
12/27/2021 12:15:00 AM 2.69 36.842 0.091 7.07 3.63 12.93
12/27/2021 12:30:00 AM 2.64 36.752 0.091 7.1 3.61 12.94
12/27/2021 12:45:00 AM 2.61 36.698 0.091 7.08 3.54 12.96
12/27/2021 1:00:00 AM 2.57 36.626 0.091 7.1 3.48 12.96
12/27/2021 1:15:00 AM 2.51 36.518 0.091 7.08 3.6 12.99
12/27/2021 1:30:00 AM 2.46 36.428 0.091 7.1 3.47 13
12/27/2021 1:45:00 AM 2.43 36.374 0.091 7.09 3.36 13.01
12/27/2021 2:00:00 AM 2.39 36.302 0.091 7.07 3.37 13.02
12/27/2021 2:15:00 AM 2.35 36.23 0.091 7.09 3.4 13.04
12/27/2021 2:30:00 AM 2.31 36.158 0.091 7.09 3.47 13.06
12/27/2021 2:45:00 AM 2.27 36.086 0.091 7.06 3.32 13.07
12/27/2021 3:00:00 AM 2.23 36.014 0.091 7.09 3.27 13.08
12/27/2021 3:15:00 AM 2.2 35.96 0.091 7.08 3.47 13.08
12/27/2021 3:30:00 AM 2.16 35.888 0.091 7.08 3.3 13.1
12/27/2021 3:45:00 AM 2.13 35.834 0.091 7.09 3.24 13.11
12/27/2021 4:00:00 AM 2.1 35.78 0.091 7.08 3.16 13.12
12/27/2021 4:15:00 AM 2.06 35.708 0.091 7.09 3.25 13.14
12/27/2021 4:30:00 AM 2.04 35.672 0.091 7.06 3.33 13.14
12/27/2021 4:45:00 AM 2.02 35.636 0.091 7.09 3.18 13.15
12/27/2021 5:00:00 AM 2 35.6 0.091 7.07 3.25 13.17
12/27/2021 5:15:00 AM 1.98 35.564 0.091 7.07 3.19 13.18
12/27/2021 5:30:00 AM 1.95 35.51 0.091 7.06 3.25 13.18
12/27/2021 5:45:00 AM 1.93 35.474 0.091 7.08 3.1 13.19
12/27/2021 6:00:00 AM 1.91 35.438 0.091 7.08 3.16 13.2
12/27/2021 6:15:00 AM 1.89 35.402 0.091 7.08 3.08 13.21
12/27/2021 6:30:00 AM 1.88 35.384 0.091 7.08 3.26 13.22
12/27/2021 6:45:00 AM 1.86 35.348 0.091 7.08 2.96 13.22
12/27/2021 7:00:00 AM 1.85 35.33 0.091 7.06 3.11 13.23
12/27/2021 7:15:00 AM 1.83 35.294 0.091 7.05 3.06 13.24
12/27/2021 7:30:00 AM 1.82 35.276 0.091 7.08 2.97 13.24
12/27/2021 7:45:00 AM 1.81 35.258 0.091 7.08 2.88 13.25
12/27/2021 8:00:00 AM 1.81 35.258 0.091 7.08 2.92 13.26
12/27/2021 8:15:00 AM 1.8 35.24 0.091 7.08 3.02 13.28
12/27/2021 8:30:00 AM 1.79 35.222 0.091 7.09 3.02 13.32
12/27/2021 8:45:00 AM 1.79 35.222 0.091 7.1 2.95 13.36
12/27/2021 9:00:00 AM 1.78 35.204 0.09 7.11 2.95 13.41
12/27/2021 9:15:00 AM 1.78 35.204 0.09 7.12 2.89 13.46
12/27/2021 9:30:00 AM 1.78 35.204 0.09 7.13 3 13.49
12/27/2021 9:45:00 AM 1.77 35.186 0.09 7.09 2.95 13.52
12/27/2021 10:00:00 AM 1.78 35.204 0.09 7.17 3.02 13.58
12/27/2021 10:15:00 AM 1.79 35.222 0.09 7.16 3.01 13.7
12/27/2021 10:30:00 AM 1.81 35.258 0.09 7.16 3.09 13.8
12/27/2021 10:45:00 AM 1.82 35.276 0.09 7.21 2.99 13.88
12/27/2021 11:00:00 AM 1.84 35.312 0.09 7.23 2.81 13.96
12/27/2021 11:15:00 AM 1.86 35.348 0.09 7.27 2.89 14.05
12/27/2021 11:30:00 AM 1.88 35.384 0.089 7.29 2.79 14.1
12/27/2021 11:45:00 AM 1.9 35.42 0.089 7.3 2.73 14.15
12/27/2021 12:00:00 PM 1.92 35.456 0.089 7.33 2.76 14.18
12/27/2021 12:15:00 PM 1.95 35.51 0.089 7.36 2.97 14.2
12/27/2021 12:30:00 PM 1.96 35.528 0.089 7.35 2.83 14.21
12/27/2021 12:45:00 PM 1.97 35.546 0.089 7.36 2.91 14.17
12/27/2021 1:00:00 PM 1.98 35.564 0.089 7.38 2.86 14.18
12/27/2021 1:15:00 PM 2 35.6 0.089 7.39 2.83 14.2
12/27/2021 1:30:00 PM 2.01 35.618 0.089 7.41 2.74 14.22
12/27/2021 1:45:00 PM 2.01 35.618 0.088 7.42 2.77 14.23
12/27/2021 2:00:00 PM 2.02 35.636 0.088 7.43 2.67 14.22
12/27/2021 2:15:00 PM 2.04 35.672 0.088 7.42 2.71 14.2
12/27/2021 2:30:00 PM 2.05 35.69 0.088 7.43 2.78 14.18
12/27/2021 2:45:00 PM 2.07 35.726 0.088 7.43 2.75 14.13
12/27/2021 3:00:00 PM 2.08 35.744 0.088 7.39 2.77 14.05
12/27/2021 3:15:00 PM 2.09 35.762 0.088 7.38 2.66 13.96
12/27/2021 3:30:00 PM 2.1 35.78 0.088 7.36 2.84 13.85
12/27/2021 3:45:00 PM 2.11 35.798 0.088 7.31 2.74 13.78
12/27/2021 4:00:00 PM 2.13 35.834 0.088 7.3 2.71 13.72
12/27/2021 4:15:00 PM 2.13 35.834 0.088 7.28 2.83 13.6
12/27/2021 4:30:00 PM 2.14 35.852 0.089 7.24 2.76 13.5
12/27/2021 4:45:00 PM 2.14 35.852 0.089 7.22 2.8 13.4
12/27/2021 5:00:00 PM 2.14 35.852 0.089 7.19 2.77 13.31
12/27/2021 5:15:00 PM 2.14 35.852 0.089 7.17 2.78 13.26
12/27/2021 5:30:00 PM 2.14 35.852 0.089 7.15 2.78 13.21
12/27/2021 5:45:00 PM 2.13 35.834 0.089 7.14 2.79 13.16
12/27/2021 6:00:00 PM 2.11 35.798 0.089 7.11 2.72 13.14
12/27/2021 6:15:00 PM 2.1 35.78 0.089 7.13 2.91 13.12
12/27/2021 6:30:00 PM 2.09 35.762 0.089 7.11 2.83 13.09
12/27/2021 6:45:00 PM 2.07 35.726 0.089 7.11 2.78 13.09
12/27/2021 7:00:00 PM 2.06 35.708 0.089 7.1 3.12 13.09
12/27/2021 7:15:00 PM 2.06 35.708 0.089 7.1 3.06 13.09
12/27/2021 7:30:00 PM 2.06 35.708 0.089 7.1 3.1 13.08
12/27/2021 7:45:00 PM 2.06 35.708 0.089 7.11 3.05 13.08
12/27/2021 8:00:00 PM 2.06 35.708 0.089 7.1 3.06 13.08
12/27/2021 8:15:00 PM 2.06 35.708 0.089 7.1 3.14 13.07
12/27/2021 8:30:00 PM 2.05 35.69 0.089 7.09 3 13.08
12/27/2021 8:45:00 PM 2.05 35.69 0.089 7.07 3.12 13.07
12/27/2021 9:00:00 PM 2.04 35.672 0.089 7.09 3.14 13.06
12/27/2021 9:15:00 PM 2.03 35.654 0.089 7.09 3 13.07
12/27/2021 9:30:00 PM 2.03 35.654 0.089 7.1 3.07 13.06
12/27/2021 9:45:00 PM 2.02 35.636 0.09 7.09 3.05 13.07
12/27/2021 10:00:00 PM 2.02 35.636 0.09 7.08 3.02 13.05
12/27/2021 10:15:00 PM 2.01 35.618 0.09 7.08 3.05 13.06
12/27/2021 10:30:00 PM 2.01 35.618 0.09 7.09 3.08 13.07
12/27/2021 10:45:00 PM 2.01 35.618 0.089 7.07 3.04 13.06
12/27/2021 11:00:00 PM 2.01 35.618 0.089 7.09 3.06 13.06
12/27/2021 11:15:00 PM 2.01 35.618 0.09 7.06 2.98 13.06
12/27/2021 11:30:00 PM 2.01 35.618 0.09 7.09 3.04 13.05
12/27/2021 11:45:00 PM 2.01 35.618 0.09 7.08 2.9 13.05
12/28/2021 12:00:00 AM 2.02 35.636 0.09 7.06 2.93 13.06
12/28/2021 12:15:00 AM 2.02 35.636 0.09 7.09 2.99 13.05
12/28/2021 12:30:00 AM 2.02 35.636 0.09 7.08 2.87 13.05
12/28/2021 12:45:00 AM 2.03 35.654 0.089 7.06 3.01 13.04
12/28/2021 1:00:00 AM 2.04 35.672 0.089 7.09 2.91 13.05
12/28/2021 1:15:00 AM 2.05 35.69 0.089 7.05 2.87 13.04
12/28/2021 1:30:00 AM 2.06 35.708 0.089 7.08 2.8 13.03
12/28/2021 1:45:00 AM 2.07 35.726 0.089 7.09 3.03 13.03
12/28/2021 2:00:00 AM 2.08 35.744 0.089 7.08 2.89 13.03
12/28/2021 2:15:00 AM 2.1 35.78 0.089 7.08 2.91 13.02
12/28/2021 2:30:00 AM 2.11 35.798 0.089 7.08 2.85 13.03
12/28/2021 2:45:00 AM 2.13 35.834 0.089 7.07 2.98 13.01
12/28/2021 3:00:00 AM 2.14 35.852 0.089 7.07 2.82 13.01
12/28/2021 3:15:00 AM 2.15 35.87 0.089 7.07 2.86 13.01
12/28/2021 3:30:00 AM 2.17 35.906 0.089 7.08 2.98 13.01
12/28/2021 3:45:00 AM 2.18 35.924 0.089 7.09 2.91 13.01
12/28/2021 4:00:00 AM 2.19 35.942 0.089 7.08 2.83 13
12/28/2021 4:15:00 AM 2.2 35.96 0.089 7.06 2.84 12.99
12/28/2021 4:30:00 AM 2.22 35.996 0.089 7.07 2.9 13
12/28/2021 4:45:00 AM 2.23 36.014 0.089 7.05 2.89 12.99
12/28/2021 5:00:00 AM 2.24 36.032 0.089 7.08 2.77 12.98
12/28/2021 5:15:00 AM 2.25 36.05 0.089 7.08 2.93 12.98
12/28/2021 5:30:00 AM 2.26 36.068 0.089 7.07 2.95 12.97
12/28/2021 5:45:00 AM 2.28 36.104 0.089 7.07 2.84 12.96
12/28/2021 6:00:00 AM 2.28 36.104 0.089 7.07 2.89 12.97
12/28/2021 6:15:00 AM 2.28 36.104 0.089 7.08 2.84 12.96
12/28/2021 6:30:00 AM 2.28 36.104 0.089 7.07 2.83 12.97
12/28/2021 6:45:00 AM 2.28 36.104 0.089 7.03 2.91 12.97
12/28/2021 7:00:00 AM 2.28 36.104 0.089 7.08 2.75 12.97
12/28/2021 7:15:00 AM 2.29 36.122 0.089 7.06 2.65 12.97
12/28/2021 7:30:00 AM 2.29 36.122 0.089 7.08 2.81 12.98
12/28/2021 7:45:00 AM 2.28 36.104 0.089 7.08 2.81 13
12/28/2021 8:00:00 AM 2.26 36.068 0.089 7.11 3.02 13.06
12/28/2021 8:15:00 AM 2.24 36.032 0.089 7.1 3.04 13.14
12/28/2021 8:30:00 AM 2.22 35.996 0.089 7.11 2.84 13.28
12/28/2021 8:45:00 AM 2.22 35.996 0.088 7.15 2.76 13.43
12/28/2021 9:00:00 AM 2.24 36.032 0.088 7.18 2.72 13.58
12/28/2021 9:15:00 AM 2.24 36.032 0.088 7.2 2.84 13.73
12/28/2021 9:30:00 AM 2.22 35.996 0.088 7.25 2.74 13.8
12/28/2021 9:45:00 AM 2.23 36.014 0.088 7.26 2.71 13.88
12/28/2021 10:00:00 AM 2.26 36.068 0.088 7.3 2.79 13.99
12/28/2021 10:15:00 AM 2.31 36.158 0.087 7.34 2.67 14.06
12/28/2021 10:30:00 AM 2.38 36.284 0.087 7.35 2.71 14.15
12/28/2021 10:45:00 AM 2.47 36.446 0.087 7.42 2.74 14.2
12/28/2021 11:00:00 AM 2.53 36.554 0.087 7.46 2.74 14.26
12/28/2021 11:15:00 AM 2.62 36.716 0.086 7.49 2.74 14.29
12/28/2021 11:30:00 AM 2.74 36.932 0.086 7.52 2.78 14.3
12/28/2021 11:45:00 AM 2.84 37.112 0.086 7.55 2.79 14.27
12/28/2021 12:00:00 PM 2.89 37.202 0.086 7.56 2.82 14.24
12/28/2021 12:15:00 PM 2.95 37.31 0.086 7.57 3.1 14.23
12/28/2021 12:30:00 PM 3.01 37.418 0.086 7.6 3.21 14.22
12/28/2021 12:45:00 PM 3.07 37.526 0.086 7.62 3.29 14.21
12/28/2021 1:00:00 PM 3.12 37.616 0.086 7.63 3.31 14.19
12/28/2021 1:15:00 PM 3.15 37.67 0.086 7.64 3.54 14.15
12/28/2021 1:30:00 PM 3.17 37.706 0.086 7.63 3.62 14.09
12/28/2021 1:45:00 PM 3.19 37.742 0.086 7.62 3.42 14.05
12/28/2021 2:00:00 PM 3.21 37.778 0.086 7.6 3.35 13.97
12/28/2021 2:15:00 PM 3.23 37.814 0.086 7.57 3.21 13.87
12/28/2021 2:30:00 PM 3.24 37.832 0.086 7.54 3.19 13.79
12/28/2021 2:45:00 PM 3.26 37.868 0.086 7.51 3.3 13.7
12/28/2021 3:00:00 PM 3.28 37.904 0.086 7.5 3.06 13.67
12/28/2021 3:15:00 PM 3.3 37.94 0.086 7.47 3.11 13.64
12/28/2021 3:30:00 PM 3.3 37.94 0.086 7.43 3.01 13.54
12/28/2021 3:45:00 PM 3.31 37.958 0.086 7.39 3.28 13.41
12/28/2021 4:00:00 PM 3.31 37.958 0.086 7.35 3.16 13.29
12/28/2021 4:15:00 PM 3.31 37.958 0.086 7.32 3.11 13.17
12/28/2021 4:30:00 PM 3.31 37.958 0.086 7.25 3.17 13.08
12/28/2021 4:45:00 PM 3.3 37.94 0.086 7.23 3.1 12.98
12/28/2021 5:00:00 PM 3.3 37.94 0.086 7.21 3.3 12.89
12/28/2021 5:15:00 PM 3.29 37.922 0.086 7.19 3.33 12.83
12/28/2021 5:30:00 PM 3.28 37.904 0.087 7.17 3.24 12.79
12/28/2021 5:45:00 PM 3.27 37.886 0.087 7.14 3.23 12.75
12/28/2021 6:00:00 PM 3.26 37.868 0.087 7.14 3.02 12.72
12/28/2021 6:15:00 PM 3.24 37.832 0.087 7.13 3.16 12.71
12/28/2021 6:30:00 PM 3.23 37.814 0.087 7.12 3.18 12.7
12/28/2021 6:45:00 PM 3.21 37.778 0.087 7.12 3.18 12.69
12/28/2021 7:00:00 PM 3.14 37.652 0.087 7.11 3.16 12.69
12/28/2021 7:15:00 PM 2.99 37.382 0.087 7.11 3.21 12.69
12/28/2021 7:30:00 PM 2.84 37.112 0.087 7.11 3.37 12.7
12/28/2021 7:45:00 PM 2.72 36.896 0.087 7.07 3.67 12.72
12/28/2021 8:00:00 PM 2.64 36.752 0.087 7.1 4.24 12.74
12/28/2021 8:15:00 PM 2.58 36.644 0.087 7.1 3.89 12.77
12/28/2021 8:30:00 PM 2.51 36.518 0.088 7.07 3.8 12.82
12/28/2021 8:45:00 PM 2.45 36.41 0.087 7.07 3.73 12.84
12/28/2021 9:00:00 PM 2.37 36.266 0.087 7.09 3.79 12.87
12/28/2021 9:15:00 PM 2.25 36.05 0.087 7.09 3.66 12.89
12/28/2021 9:30:00 PM 2.19 35.942 0.087 7.09 3.99 12.93
12/28/2021 9:45:00 PM 2.18 35.924 0.087 7.09 4 12.96
12/28/2021 10:00:00 PM 2.18 35.924 0.087 7.07 4.15 12.98
12/28/2021 10:15:00 PM 2.18 35.924 0.087 7.09 3.98 12.99
12/28/2021 10:30:00 PM 2.18 35.924 0.087 7.08 3.89 13
12/28/2021 10:45:00 PM 2.19 35.942 0.087 7.06 4.12 13
12/28/2021 11:00:00 PM 2.2 35.96 0.087 7.09 4.12 13.01
12/28/2021 11:15:00 PM 2.21 35.978 0.087 7.08 4.31 13.01
12/28/2021 11:30:00 PM 2.21 35.978 0.087 7.09 4.56 13.01
12/28/2021 11:45:00 PM 2.22 35.996 0.088 7.09 4.26 13.01
12/29/2021 12:00:00 AM 2.23 36.014 0.088 7.05 4.16 13
12/29/2021 12:15:00 AM 2.24 36.032 0.088 7.08 3.95 13
12/29/2021 12:30:00 AM 2.26 36.068 0.088 7.08 4.11 12.99
12/29/2021 12:45:00 AM 2.28 36.104 0.088 7.08 3.79 12.98
12/29/2021 1:00:00 AM 2.29 36.122 0.088 7.08 4.01 12.99
12/29/2021 1:15:00 AM 2.3 36.14 0.088 7.04 3.92 12.99
12/29/2021 1:30:00 AM 2.31 36.158 0.088 7.08 3.88 12.98
12/29/2021 1:45:00 AM 2.32 36.176 0.088 7.08 3.94 12.97
12/29/2021 2:00:00 AM 2.33 36.194 0.088 7.05 4.07 12.96
12/29/2021 2:15:00 AM 2.34 36.212 0.088 7.08 4.2 12.97
12/29/2021 2:30:00 AM 2.35 36.23 0.088 7.04 4.32 12.94
12/29/2021 2:45:00 AM 2.36 36.248 0.089 7.08 4.63 12.95
12/29/2021 3:00:00 AM 2.37 36.266 0.089 7.08 4.64 12.94
12/29/2021 3:15:00 AM 2.39 36.302 0.089 7.06 4.03 12.94
12/29/2021 3:30:00 AM 2.4 36.32 0.089 7.08 4.02 12.93
12/29/2021 3:45:00 AM 2.41 36.338 0.089 7.08 4.31 12.93
12/29/2021 4:00:00 AM 2.42 36.356 0.09 7.08 4.24 12.92
12/29/2021 4:15:00 AM 2.43 36.374 0.091 7.08 4.45 12.92
12/29/2021 4:30:00 AM 2.44 36.392 0.091 7.08 4.28 12.91
12/29/2021 4:45:00 AM 2.44 36.392 0.091 7.08 4.06 12.91
12/29/2021 5:00:00 AM 2.45 36.41 0.091 7.08 4.36 12.91
12/29/2021 5:15:00 AM 2.46 36.428 0.092 7.08 4.83 12.9
12/29/2021 5:30:00 AM 2.47 36.446 0.092 7.07 4.6 12.91
12/29/2021 5:45:00 AM 2.48 36.464 0.092 7.05 4.76 12.89
12/29/2021 6:00:00 AM 2.49 36.482 0.092 7.08 4.48 12.89
12/29/2021 6:15:00 AM 2.49 36.482 0.092 7.05 4.75 12.89
12/29/2021 6:30:00 AM 2.5 36.5 0.093 7.06 4.57 12.89
12/29/2021 6:45:00 AM 2.51 36.518 0.093 7.08 4.66 12.89
12/29/2021 7:00:00 AM 2.52 36.536 0.093 7.08 4.73 12.89
12/29/2021 7:15:00 AM 2.53 36.554 0.093 7.08 4.32 12.88
12/29/2021 7:30:00 AM 2.54 36.572 0.093 7.07 4.36 12.89
12/29/2021 7:45:00 AM 2.55 36.59 0.094 7.08 4.37 12.89
12/29/2021 8:00:00 AM 2.55 36.59 0.094 7.08 4.37 12.91
12/29/2021 8:15:00 AM 2.56 36.608 0.094 7.09 4.48 12.94
12/29/2021 8:30:00 AM 2.57 36.626 0.094 7.09 4.24 13
12/29/2021 8:45:00 AM 2.59 36.662 0.094 7.12 4.06 13.07
12/29/2021 9:00:00 AM 2.61 36.698 0.094 7.13 4.15 13.18
12/29/2021 9:15:00 AM 2.63 36.734 0.094 7.15 4.25 13.31
12/29/2021 9:30:00 AM 2.66 36.788 0.095 7.19 4.11 13.4
12/29/2021 9:45:00 AM 2.68 36.824 0.095 7.21 3.99 13.49
12/29/2021 10:00:00 AM 2.71 36.878 0.095 7.27 4.03 13.56
12/29/2021 10:15:00 AM 2.73 36.914 0.095 7.27 4.04 13.62
12/29/2021 10:30:00 AM 2.77 36.986 0.095 7.26 3.9 13.71
12/29/2021 10:45:00 AM 2.81 37.058 0.095 7.32 3.94 13.8
12/29/2021 11:00:00 AM 2.86 37.148 0.095 7.37 4.32 13.87
12/29/2021 11:15:00 AM 2.9 37.22 0.095 7.38 4.6 13.92
12/29/2021 11:30:00 AM 2.95 37.31 0.095 7.44 4.28 13.96
12/29/2021 11:45:00 AM 3.01 37.418 0.096 7.48 4.75 14
12/29/2021 12:00:00 PM 3.07 37.526 0.095 7.5 5 14.03
12/29/2021 12:15:00 PM 3.1 37.58 0.095 7.53 5.01 14.02
12/29/2021 12:30:00 PM 3.14 37.652 0.095 7.55 5.43 14
12/29/2021 12:45:00 PM 3.19 37.742 0.095 7.57 5.02 13.98
12/29/2021 1:00:00 PM 3.24 37.832 0.095 7.58 5.06 13.97
12/29/2021 1:15:00 PM 3.28 37.904 0.095 7.58 5.65 13.94
12/29/2021 1:30:00 PM 3.32 37.976 0.096 7.59 5.14 13.9
12/29/2021 1:45:00 PM 3.35 38.03 0.096 7.58 5.25 13.84
12/29/2021 2:00:00 PM 3.38 38.084 0.096 7.56 5.3 13.8
12/29/2021 2:15:00 PM 3.41 38.138 0.096 7.54 5.55 13.73
12/29/2021 2:30:00 PM 3.43 38.174 0.096 7.52 5.26 13.65
12/29/2021 2:45:00 PM 3.46 38.228 0.096 7.48 5.52 13.59
12/29/2021 3:00:00 PM 3.5 38.3 0.096 7.48 5.29 13.57
12/29/2021 3:15:00 PM 3.53 38.354 0.096 7.48 5.81 13.55
12/29/2021 3:30:00 PM 3.56 38.408 0.097 7.46 6.3 13.47
12/29/2021 3:45:00 PM 3.58 38.444 0.097 7.41 5.93 13.37
12/29/2021 4:00:00 PM 3.59 38.462 0.097 7.37 6.51 13.28
12/29/2021 4:15:00 PM 3.61 38.498 0.097 7.35 6.1 13.17
12/29/2021 4:30:00 PM 3.62 38.516 0.097 7.32 6.77 13.07
12/29/2021 4:45:00 PM 3.62 38.516 0.097 7.24 6.59 12.97
12/29/2021 5:00:00 PM 3.62 38.516 0.097 7.24 6.3 12.87
12/29/2021 5:15:00 PM 3.62 38.516 0.098 7.2 6.33 12.79
12/29/2021 5:30:00 PM 3.62 38.516 0.098 7.19 6.39 12.74
12/29/2021 5:45:00 PM 3.62 38.516 0.098 7.17 6.22 12.7
12/29/2021 6:00:00 PM 3.62 38.516 0.098 7.15 5.97 12.68
12/29/2021 6:15:00 PM 3.61 38.498 0.098 7.12 6.04 12.66
12/29/2021 6:30:00 PM 3.61 38.498 0.098 7.14 6.12 12.65
12/29/2021 6:45:00 PM 3.61 38.498 0.098 7.12 5.89 12.64
12/29/2021 7:00:00 PM 3.6 38.48 0.098 7.13 6.18 12.63
12/29/2021 7:15:00 PM 3.6 38.48 0.098 7.11 6.24 12.64
12/29/2021 7:30:00 PM 3.59 38.462 0.098 7.12 5.7 12.64
12/29/2021 7:45:00 PM 3.59 38.462 0.098 7.12 5.85 12.64
12/29/2021 8:00:00 PM 3.58 38.444 0.098 7.08 5.82 12.65
12/29/2021 8:15:00 PM 3.58 38.444 0.098 7.09 5.91 12.65
12/29/2021 8:30:00 PM 3.57 38.426 0.098 7.12 5.77 12.65
12/29/2021 8:45:00 PM 3.57 38.426 0.098 7.11 5.43 12.65
12/29/2021 9:00:00 PM 3.57 38.426 0.098 7.12 5.26 12.65
12/29/2021 9:15:00 PM 3.56 38.408 0.098 7.12 5.26 12.65
12/29/2021 9:30:00 PM 3.56 38.408 0.098 7.12 5.31 12.65
12/29/2021 9:45:00 PM 3.56 38.408 0.098 7.09 5.41 12.65
12/29/2021 10:00:00 PM 3.55 38.39 0.098 7.11 5.29 12.65
12/29/2021 10:15:00 PM 3.55 38.39 0.098 7.08 5.1 12.65
12/29/2021 10:30:00 PM 3.55 38.39 0.098 7.11 5 12.65
12/29/2021 10:45:00 PM 3.55 38.39 0.098 7.1 4.95 12.65
12/29/2021 11:00:00 PM 3.55 38.39 0.098 7.11 5.15 12.65
12/29/2021 11:15:00 PM 3.55 38.39 0.098 7.1 4.96 12.64
12/29/2021 11:30:00 PM 3.54 38.372 0.098 7.1 4.74 12.64
12/29/2021 11:45:00 PM 3.54 38.372 0.097 7.1 4.78 12.64
12/30/2021 12:00:00 AM 3.54 38.372 0.097 7.1 4.75 12.64
12/30/2021 12:15:00 AM 3.54 38.372 0.097 7.09 4.53 12.64
12/30/2021 12:30:00 AM 3.54 38.372 0.097 7.08 4.63 12.64
12/30/2021 12:45:00 AM 3.54 38.372 0.097 7.1 4.77 12.63
12/30/2021 1:00:00 AM 3.54 38.372 0.096 7.09 4.48 12.63
12/30/2021 1:15:00 AM 3.54 38.372 0.096 7.09 4.43 12.64
12/30/2021 1:30:00 AM 3.54 38.372 0.096 7.08 4.54 12.64
12/30/2021 1:45:00 AM 3.54 38.372 0.096 7.1 4.38 12.63
12/30/2021 2:00:00 AM 3.54 38.372 0.096 7.1 4.52 12.62
12/30/2021 2:15:00 AM 3.54 38.372 0.096 7.09 4.55 12.62
12/30/2021 2:30:00 AM 3.54 38.372 0.095 7.07 4.38 12.62
12/30/2021 2:45:00 AM 3.54 38.372 0.095 7.09 4.4 12.62
12/30/2021 3:00:00 AM 3.54 38.372 0.095 7.07 4.71 12.61
12/30/2021 3:15:00 AM 3.54 38.372 0.095 7.09 4.57 12.61
12/30/2021 3:30:00 AM 3.54 38.372 0.095 7.09 4.34 12.61
12/30/2021 3:45:00 AM 3.54 38.372 0.095 7.07 4.22 12.61
12/30/2021 4:00:00 AM 3.54 38.372 0.095 7.09 4.37 12.61
12/30/2021 4:15:00 AM 3.54 38.372 0.094 7.09 4.4 12.6
12/30/2021 4:30:00 AM 3.55 38.39 0.094 7.09 4.03 12.6
12/30/2021 4:45:00 AM 3.55 38.39 0.094 7.06 4.05 12.6
12/30/2021 5:00:00 AM 3.55 38.39 0.094 7.09 3.95 12.59
12/30/2021 5:15:00 AM 3.56 38.408 0.094 7.09 4.06 12.59
12/30/2021 5:30:00 AM 3.56 38.408 0.094 7.08 4.06 12.59
12/30/2021 5:45:00 AM 3.57 38.426 0.094 7.08 4.04 12.59
12/30/2021 6:00:00 AM 3.57 38.426 0.094 7.05 3.82 12.58
12/30/2021 6:15:00 AM 3.57 38.426 0.094 7.07 3.76 12.59
12/30/2021 6:30:00 AM 3.58 38.444 0.094 7.08 3.86 12.59
12/30/2021 6:45:00 AM 3.59 38.462 0.094 7.08 3.88 12.59
12/30/2021 7:00:00 AM 3.59 38.462 0.093 7.08 3.8 12.58
12/30/2021 7:15:00 AM 3.59 38.462 0.093 7.08 3.89 12.59
12/30/2021 7:30:00 AM 3.6 38.48 0.093 7.07 3.98 12.58
12/30/2021 7:45:00 AM 3.6 38.48 0.093 7.08 3.9 12.58
12/30/2021 8:00:00 AM 3.61 38.498 0.093 7.08 4.05 12.59
12/30/2021 8:15:00 AM 3.62 38.516 0.093 7.07 4.39 12.6
12/30/2021 8:30:00 AM 3.62 38.516 0.093 7.08 4.89 12.63
12/30/2021 8:45:00 AM 3.63 38.534 0.093 7.1 4 12.66
12/30/2021 9:00:00 AM 3.64 38.552 0.093 7.11 4.15 12.72
12/30/2021 9:15:00 AM 3.66 38.588 0.093 7.12 4.03 12.78
12/30/2021 9:30:00 AM 3.67 38.606 0.093 7.13 4.18 12.84
12/30/2021 9:45:00 AM 3.69 38.642 0.093 7.15 4.11 12.9
12/30/2021 10:00:00 AM -99999.99 -179968 -99999.99 -99999.99 -99999.99 -99999.99
12/30/2021 10:15:00 AM 3.75 38.75 0.092 7.22 4.04 13.13
12/30/2021 10:30:00 AM 3.78 38.804 0.092 7.24 4.04 13.23
12/30/2021 10:45:00 AM 3.81 38.858 0.092 7.27 3.93 13.31
12/30/2021 11:00:00 AM 3.84 38.912 0.092 7.31 3.89 13.37
12/30/2021 11:15:00 AM 3.87 38.966 0.092 7.33 3.92 13.4
12/30/2021 11:30:00 AM 3.91 39.038 0.092 7.36 3.95 13.43
12/30/2021 11:45:00 AM 3.93 39.074 0.092 7.38 3.7 13.41
12/30/2021 12:00:00 PM 3.96 39.128 0.092 7.37 3.73 13.4
12/30/2021 12:15:00 PM 3.99 39.182 0.091 7.4 3.9 13.39
12/30/2021 12:30:00 PM 4.04 39.272 0.091 7.4 3.68 13.43
12/30/2021 12:45:00 PM 4.08 39.344 0.091 7.45 3.8 13.48
12/30/2021 1:00:00 PM 4.13 39.434 0.091 7.48 3.78 13.5
12/30/2021 1:15:00 PM 4.17 39.506 0.091 7.49 3.67 13.5
12/30/2021 1:30:00 PM 4.21 39.578 0.091 7.47 3.66 13.47
12/30/2021 1:45:00 PM 4.25 39.65 0.091 7.51 3.57 13.47
12/30/2021 2:00:00 PM 4.29 39.722 0.091 7.52 3.56 13.46
12/30/2021 2:15:00 PM 4.31 39.758 0.091 7.52 3.52 13.43
12/30/2021 2:30:00 PM 4.33 39.794 0.091 7.5 3.46 13.34
12/30/2021 2:45:00 PM 4.35 39.83 0.091 7.46 3.49 13.23
12/30/2021 3:00:00 PM 4.37 39.866 0.091 7.4 3.47 13.13
12/30/2021 3:15:00 PM 4.38 39.884 0.091 7.38 3.55 13.06
12/30/2021 3:30:00 PM 4.4 39.92 0.091 7.36 3.59 13.01
12/30/2021 3:45:00 PM 4.42 39.956 0.091 7.36 3.66 12.96
12/30/2021 4:00:00 PM 4.44 39.992 0.091 7.33 3.43 12.88
12/30/2021 4:15:00 PM 4.45 40.01 0.091 7.3 3.46 12.78
12/30/2021 4:30:00 PM 4.46 40.028 0.092 7.26 3.36 12.66
12/30/2021 4:45:00 PM 4.46 40.028 0.092 7.23 3.54 12.57
12/30/2021 5:00:00 PM 4.47 40.046 0.092 7.17 3.46 12.49
12/30/2021 5:15:00 PM 4.47 40.046 0.092 7.16 3.4 12.41
12/30/2021 5:30:00 PM 4.47 40.046 0.092 7.14 3.52 12.37
12/30/2021 5:45:00 PM 4.48 40.064 0.092 7.12 3.79 12.34
12/30/2021 6:00:00 PM 4.48 40.064 0.092 7.12 3.96 12.32
12/30/2021 6:15:00 PM 4.48 40.064 0.092 7.12 3.83 12.3
12/30/2021 6:30:00 PM 4.48 40.064 0.092 7.11 3.94 12.29
12/30/2021 6:45:00 PM 4.48 40.064 0.092 7.1 3.83 12.28
12/30/2021 7:00:00 PM 4.49 40.082 0.093 7.1 3.85 12.27
12/30/2021 7:15:00 PM 4.49 40.082 0.093 7.06 3.96 12.27
12/30/2021 7:30:00 PM 4.5 40.1 0.093 7.08 3.78 12.26
12/30/2021 7:45:00 PM 4.5 40.1 0.093 7.09 4.02 12.26
12/30/2021 8:00:00 PM 4.5 40.1 0.093 7.08 4.06 12.26
12/30/2021 8:15:00 PM 4.51 40.118 0.093 7.08 3.81 12.25
12/30/2021 8:30:00 PM 4.51 40.118 0.093 7.05 4 12.25
12/30/2021 8:45:00 PM 4.52 40.136 0.093 7.06 4.13 12.25
12/30/2021 9:00:00 PM 4.52 40.136 0.093 7.08 4.05 12.24
12/30/2021 9:15:00 PM 4.52 40.136 0.093 7.08 3.76 12.25
12/30/2021 9:30:00 PM 4.52 40.136 0.093 7.05 3.93 12.25
12/30/2021 9:45:00 PM 4.52 40.136 0.093 7.07 4.07 12.25
12/30/2021 10:00:00 PM 4.52 40.136 0.093 7.07 4.02 12.24
12/30/2021 10:15:00 PM 4.52 40.136 0.093 7.06 3.87 12.25
12/30/2021 10:30:00 PM 4.53 40.154 0.093 7.04 3.84 12.24
12/30/2021 10:45:00 PM 4.53 40.154 0.093 7.07 4.07 12.24
12/30/2021 11:00:00 PM 4.53 40.154 0.093 7.06 4.08 12.23
12/30/2021 11:15:00 PM 4.53 40.154 0.093 7.07 3.85 12.23
12/30/2021 11:30:00 PM 4.52 40.136 0.093 7.03 3.98 12.24
12/30/2021 11:45:00 PM 4.51 40.118 0.093 7.07 3.81 12.24
12/31/2021 12:00:00 AM 4.52 40.136 0.093 7.06 3.96 12.25
12/31/2021 12:15:00 AM 4.52 40.136 0.093 7.06 3.78 12.24
12/31/2021 12:30:00 AM 4.51 40.118 0.093 7.07 3.9 12.23
12/31/2021 12:45:00 AM 4.51 40.118 0.093 7.06 4.07 12.24
12/31/2021 1:00:00 AM 4.51 40.118 0.093 7.06 4.16 12.25
12/31/2021 1:15:00 AM 4.51 40.118 0.093 7.03 4.18 12.24
12/31/2021 1:30:00 AM 4.51 40.118 0.093 7.04 3.92 12.25
12/31/2021 1:45:00 AM 4.51 40.118 0.093 7.06 3.99 12.24
12/31/2021 2:00:00 AM 4.51 40.118 0.093 7.02 3.86 12.24
12/31/2021 2:15:00 AM 4.51 40.118 0.093 7.05 3.75 12.24
12/31/2021 2:30:00 AM 4.52 40.136 0.093 7.06 3.69 12.25
12/31/2021 2:45:00 AM 4.52 40.136 0.093 7.03 3.74 12.24
12/31/2021 3:00:00 AM 4.52 40.136 0.093 7.05 3.74 12.24
12/31/2021 3:15:00 AM 4.52 40.136 0.093 7.02 3.78 12.23
12/31/2021 3:30:00 AM 4.53 40.154 0.093 7.05 3.62 12.24
12/31/2021 3:45:00 AM 4.53 40.154 0.093 7.05 3.66 12.23
12/31/2021 4:00:00 AM 4.53 40.154 0.093 7.05 3.74 12.23
12/31/2021 4:15:00 AM 4.54 40.172 0.092 7.05 3.61 12.22
12/31/2021 4:30:00 AM 4.54 40.172 0.093 7.05 3.61 12.23
12/31/2021 4:45:00 AM 4.55 40.19 0.093 7.05 3.56 12.22
12/31/2021 5:00:00 AM 4.55 40.19 0.093 7.01 3.48 12.21
12/31/2021 5:15:00 AM 4.55 40.19 0.093 7.05 3.59 12.21
12/31/2021 5:30:00 AM 4.56 40.208 0.093 7.05 3.51 12.21
12/31/2021 5:45:00 AM 4.56 40.208 0.092 7.05 3.53 12.2
12/31/2021 6:00:00 AM 4.56 40.208 0.092 7.05 3.36 12.21
12/31/2021 6:15:00 AM 4.56 40.208 0.092 7.05 3.44 12.21
12/31/2021 6:30:00 AM 4.56 40.208 0.092 7.05 3.33 12.2
12/31/2021 6:45:00 AM 4.56 40.208 0.092 7.05 3.35 12.2
12/31/2021 7:00:00 AM 4.56 40.208 0.092 6.99 3.23 12.2
12/31/2021 7:15:00 AM 4.56 40.208 0.092 7.05 3.35 12.21
12/31/2021 7:30:00 AM 4.56 40.208 0.092 7.05 3.38 12.2
12/31/2021 7:45:00 AM 4.57 40.226 0.092 7 3.6 12.21
12/31/2021 8:00:00 AM 4.57 40.226 0.092 7.05 3.37 12.25
12/31/2021 8:15:00 AM 4.58 40.244 0.092 7.07 3.31 12.31
12/31/2021 8:30:00 AM 4.6 40.28 0.092 7.08 3.32 12.38
12/31/2021 8:45:00 AM 4.62 40.316 0.092 7.11 3.17 12.48
12/31/2021 9:00:00 AM 4.65 40.37 0.092 7.1 3.19 12.58
12/31/2021 9:15:00 AM 4.68 40.424 0.092 7.16 3.44 12.68
12/31/2021 9:30:00 AM 4.72 40.496 0.092 7.19 3.29 12.79
12/31/2021 9:45:00 AM 4.76 40.568 0.092 7.22 3.16 12.87
12/31/2021 10:00:00 AM 4.8 40.64 0.091 7.25 3.34 12.97
12/31/2021 10:15:00 AM 4.84 40.712 0.091 7.3 3.01 13.04
12/31/2021 10:30:00 AM 4.89 40.802 0.091 7.31 3.15 13.09
12/31/2021 10:45:00 AM 4.93 40.874 0.091 7.37 3.02 13.15
12/31/2021 11:00:00 AM 5.01 41.018 0.091 7.39 3.12 13.25
12/31/2021 11:15:00 AM 5.1 41.18 0.09 7.46 2.95 13.35
12/31/2021 11:30:00 AM 5.17 41.306 0.09 7.51 2.98 13.39
12/31/2021 11:45:00 AM 5.28 41.504 0.09 7.58 2.9 13.43
12/31/2021 12:00:00 PM 5.38 41.684 0.09 7.62 2.86 13.46
12/31/2021 12:15:00 PM 5.43 41.774 0.09 7.67 3.21 13.45
12/31/2021 12:30:00 PM 5.52 41.936 0.089 7.71 3.13 13.44
12/31/2021 12:45:00 PM 5.66 42.188 0.089 7.75 2.94 13.44
12/31/2021 1:00:00 PM 5.81 42.458 0.089 7.78 3.13 13.43
12/31/2021 1:15:00 PM 5.97 42.746 0.089 7.82 3.26 13.43
12/31/2021 1:30:00 PM 6.08 42.944 0.089 7.86 2.94 13.39
12/31/2021 1:45:00 PM 6.05 42.89 0.089 7.83 3.01 13.28
12/31/2021 2:00:00 PM 5.99 42.782 0.089 7.8 3.08 13.2
12/31/2021 2:15:00 PM 5.98 42.764 0.089 7.79 2.95 13.17
12/31/2021 2:30:00 PM 5.98 42.764 0.089 7.73 2.96 13.14
12/31/2021 2:45:00 PM 5.98 42.764 0.089 7.76 2.94 13.12
12/31/2021 3:00:00 PM 6.01 42.818 0.089 7.77 2.89 13.12
12/31/2021 3:15:00 PM 6.02 42.836 0.089 7.72 3.04 13.1
12/31/2021 3:30:00 PM 6 42.8 0.089 7.73 2.93 13.04
12/31/2021 3:45:00 PM 5.97 42.746 0.089 7.69 2.99 12.97
12/31/2021 4:00:00 PM 5.93 42.674 0.089 7.59 2.98 12.85
12/31/2021 4:15:00 PM 5.9 42.62 0.089 7.54 3.04 12.69
12/31/2021 4:30:00 PM 5.87 42.566 0.089 7.46 2.95 12.54
12/31/2021 4:45:00 PM 5.84 42.512 0.089 7.39 2.87 12.37
12/31/2021 5:00:00 PM 5.81 42.458 0.089 7.31 3 12.23
12/31/2021 5:15:00 PM 5.79 42.422 0.089 7.26 3.01 12.11
12/31/2021 5:30:00 PM 5.76 42.368 0.09 7.23 2.95 12.02
12/31/2021 5:45:00 PM 5.73 42.314 0.09 7.19 2.93 11.95
12/31/2021 6:00:00 PM 5.7 42.26 0.09 7.16 3.02 11.91
12/31/2021 6:15:00 PM 5.66 42.188 0.09 7.12 3.18 11.88
12/31/2021 6:30:00 PM 5.63 42.134 0.09 7.13 3.12 11.87
12/31/2021 6:45:00 PM 5.6 42.08 0.09 7.12 3.15 11.86
12/31/2021 7:00:00 PM 5.57 42.026 0.09 7.11 3.06 11.87
12/31/2021 7:15:00 PM 5.54 41.972 0.09 7.1 3.12 11.87
12/31/2021 7:30:00 PM 5.51 41.918 0.09 7.09 3.27 11.87
12/31/2021 7:45:00 PM 5.48 41.864 0.09 7.06 3.27 11.88
12/31/2021 8:00:00 PM 5.45 41.81 0.091 7.06 3.22 11.88
12/31/2021 8:15:00 PM 5.41 41.738 0.091 7.08 3.15 11.9
12/31/2021 8:30:00 PM 5.38 41.684 0.091 7.07 3.22 11.9
12/31/2021 8:45:00 PM 5.33 41.594 0.091 7.08 3.09 11.91
12/31/2021 9:00:00 PM 5.3 41.54 0.091 7.03 3.22 11.92
12/31/2021 9:15:00 PM 5.28 41.504 0.091 7.07 3.13 11.93
12/31/2021 9:30:00 PM 5.27 41.486 0.092 7.06 3.11 11.93
12/31/2021 9:45:00 PM 5.26 41.468 0.092 7.04 3.15 11.94
12/31/2021 10:00:00 PM 5.25 41.45 0.091 7.07 3.36 11.95
12/31/2021 10:15:00 PM 5.25 41.45 0.091 7.06 3.08 11.95
12/31/2021 10:30:00 PM 5.25 41.45 0.091 7.06 3.17 11.94
12/31/2021 10:45:00 PM 5.24 41.432 0.091 7.07 3.14 11.95
12/31/2021 11:00:00 PM 5.24 41.432 0.091 7.06 3.1 11.95
12/31/2021 11:15:00 PM 5.23 41.414 0.091 7.06 3.09 11.95
12/31/2021 11:30:00 PM 5.24 41.432 0.091 7.06 3.18 11.94
12/31/2021 11:45:00 PM 5.24 41.432 0.091 7.02 3.07 11.95
1/1/2022 12:00:00 AM 5.24 41.432 0.091 7.06 3.11 11.95
1/1/2022 12:15:00 AM 5.24 41.432 0.091 7.06 3.24 11.94
1/1/2022 12:30:00 AM 5.25 41.45 0.091 7.06 3 11.93
1/1/2022 12:45:00 AM 5.25 41.45 0.091 7.06 3.11 11.94
1/1/2022 1:00:00 AM 5.26 41.468 0.091 7.06 3.04 11.94
1/1/2022 1:15:00 AM 5.26 41.468 0.091 7.02 2.96 11.93
1/1/2022 1:30:00 AM 5.28 41.504 0.091 7.06 2.99 11.92
1/1/2022 1:45:00 AM 5.29 41.522 0.091 7.07 3.09 11.92
1/1/2022 2:00:00 AM 5.3 41.54 0.091 7.02 3.07 11.91
1/1/2022 2:15:00 AM 5.31 41.558 0.091 7.05 3.02 11.9
1/1/2022 2:30:00 AM 5.33 41.594 0.091 7.07 3.03 11.9
1/1/2022 2:45:00 AM 5.34 41.612 0.091 7.06 3.08 11.89
1/1/2022 3:00:00 AM 5.35 41.63 0.091 7.04 2.94 11.89
1/1/2022 3:15:00 AM 5.36 41.648 0.091 7.07 3.03 11.88
1/1/2022 3:30:00 AM 5.38 41.684 0.091 7.03 2.86 11.88
1/1/2022 3:45:00 AM 5.39 41.702 0.091 7.07 2.96 11.87
1/1/2022 4:00:00 AM 5.4 41.72 0.091 7.06 2.99 11.86
1/1/2022 4:15:00 AM 5.41 41.738 0.091 7.07 2.89 11.86
1/1/2022 4:30:00 AM 5.42 41.756 0.091 7.02 2.97 11.86
1/1/2022 4:45:00 AM 5.44 41.792 0.091 7.07 2.92 11.85
1/1/2022 5:00:00 AM 5.45 41.81 0.091 7.02 2.9 11.84
1/1/2022 5:15:00 AM 5.46 41.828 0.091 7.07 3.02 11.83
1/1/2022 5:30:00 AM 5.47 41.846 0.091 7.03 2.99 11.83
1/1/2022 5:45:00 AM 5.49 41.882 0.09 7.07 3.07 11.83
1/1/2022 6:00:00 AM 5.5 41.9 0.09 7.04 3 11.82
1/1/2022 6:15:00 AM 5.52 41.936 0.09 7.07 3.08 11.82
1/1/2022 6:30:00 AM 5.53 41.954 0.09 7.07 3.16 11.81
1/1/2022 6:45:00 AM 5.55 41.99 0.09 7.07 2.99 11.81
1/1/2022 7:00:00 AM 5.55 41.99 0.09 7.07 2.86 11.8
1/1/2022 7:15:00 AM 5.57 42.026 0.09 7.07 2.79 11.8
1/1/2022 7:30:00 AM 5.58 42.044 0.09 7.02 3.03 11.79
1/1/2022 7:45:00 AM 5.6 42.08 0.09 7.07 3.06 11.79
1/1/2022 8:00:00 AM 5.61 42.098 0.091 7.07 3.06 11.79
1/1/2022 8:15:00 AM 5.63 42.134 0.09 7.06 2.93 11.81
1/1/2022 8:30:00 AM 5.65 42.17 0.09 7.05 2.9 11.84
1/1/2022 8:45:00 AM 5.67 42.206 0.09 7.07 3.02 11.9
1/1/2022 9:00:00 AM 5.69 42.242 0.09 7.09 2.99 11.96
1/1/2022 9:15:00 AM 5.7 42.26 0.09 7.11 3.08 11.98
1/1/2022 9:30:00 AM 5.72 42.296 0.09 7.14 2.89 12.04
1/1/2022 9:45:00 AM 5.74 42.332 0.09 7.15 2.86 12.11
1/1/2022 10:00:00 AM 5.76 42.368 0.09 7.16 2.89 12.18
1/1/2022 10:15:00 AM 5.78 42.404 0.09 7.16 2.83 12.24
1/1/2022 10:30:00 AM 5.8 42.44 0.09 7.2 2.96 12.3
1/1/2022 10:45:00 AM 5.82 42.476 0.09 7.23 2.84 12.37
1/1/2022 11:00:00 AM 5.85 42.53 0.089 7.25 2.92 12.44
1/1/2022 11:15:00 AM 5.88 42.584 0.089 7.27 2.86 12.49
1/1/2022 11:30:00 AM 5.91 42.638 0.089 7.26 2.79 12.57
1/1/2022 11:45:00 AM 5.94 42.692 0.089 7.33 2.86 12.63
1/1/2022 12:00:00 PM 5.97 42.746 0.089 7.36 2.79 12.66
1/1/2022 12:15:00 PM 6.01 42.818 0.089 7.34 2.85 12.69
1/1/2022 12:30:00 PM 6.05 42.89 0.089 7.39 2.71 12.76
1/1/2022 12:45:00 PM 6.1 42.98 0.088 7.44 2.78 12.83
1/1/2022 1:00:00 PM 6.16 43.088 0.088 7.5 2.71 12.9
1/1/2022 1:15:00 PM 6.22 43.196 0.088 7.51 2.83 12.96
1/1/2022 1:30:00 PM 6.29 43.322 0.088 7.61 2.7 13.02
1/1/2022 1:45:00 PM 6.36 43.448 0.088 7.64 2.75 13.08
1/1/2022 2:00:00 PM 6.42 43.556 0.088 7.72 2.8 13.09
1/1/2022 2:15:00 PM 6.46 43.628 0.088 7.72 2.75 13.04
1/1/2022 2:30:00 PM 6.49 43.682 0.087 7.74 2.71 12.97
1/1/2022 2:45:00 PM 6.52 43.736 0.087 7.71 2.78 12.88
1/1/2022 3:00:00 PM 6.55 43.79 0.087 7.64 2.84 12.76
1/1/2022 3:15:00 PM 6.56 43.808 0.087 7.61 2.89 12.64
1/1/2022 3:30:00 PM 6.57 43.826 0.087 7.5 2.7 12.49
1/1/2022 3:45:00 PM 6.58 43.844 0.088 7.48 2.73 12.34
1/1/2022 4:00:00 PM 6.57 43.826 0.088 7.42 2.84 12.21
1/1/2022 4:15:00 PM 6.57 43.826 0.088 7.35 2.69 12.07
1/1/2022 4:30:00 PM 6.56 43.808 0.088 7.28 2.81 11.94
1/1/2022 4:45:00 PM 6.55 43.79 0.088 7.27 2.88 11.84
1/1/2022 5:00:00 PM 6.54 43.772 0.088 7.22 2.75 11.73
1/1/2022 5:15:00 PM 6.53 43.754 0.088 7.16 2.83 11.66
1/1/2022 5:30:00 PM 6.51 43.718 0.088 7.16 2.86 11.6
1/1/2022 5:45:00 PM 6.5 43.7 0.088 7.13 2.94 11.56
1/1/2022 6:00:00 PM 6.49 43.682 0.088 7.12 2.91 11.54
1/1/2022 6:15:00 PM 6.48 43.664 0.088 7.1 3.05 11.51
1/1/2022 6:30:00 PM 6.47 43.646 0.088 7.09 2.93 11.49
1/1/2022 6:45:00 PM 6.46 43.628 0.088 7.04 2.9 11.49
1/1/2022 7:00:00 PM 6.45 43.61 0.088 7.07 3.01 11.49
1/1/2022 7:15:00 PM 6.44 43.592 0.088 7.07 3.07 11.49
1/1/2022 7:30:00 PM 6.43 43.574 0.088 7.06 3.02 11.48
1/1/2022 7:45:00 PM 6.42 43.556 0.088 7.02 3.02 11.49
1/1/2022 8:00:00 PM 6.41 43.538 0.088 7.06 3.17 11.48
1/1/2022 8:15:00 PM 6.4 43.52 0.088 7.05 3.33 11.49
1/1/2022 8:30:00 PM 6.39 43.502 0.088 7.05 3.23 11.48
1/1/2022 8:45:00 PM 6.38 43.484 0.088 7.05 3.23 11.49
1/1/2022 9:00:00 PM 6.37 43.466 0.088 7.04 3.47 11.49
1/1/2022 9:15:00 PM 6.36 43.448 0.088 7.01 3.6 11.49
1/1/2022 9:30:00 PM 6.35 43.43 0.088 7.02 3.93 11.49
1/1/2022 9:45:00 PM 6.35 43.43 0.088 7.05 4.14 11.49
1/1/2022 10:00:00 PM 6.34 43.412 0.088 7 4.42 11.49
1/1/2022 10:15:00 PM 6.33 43.394 0.088 7.04 5.1 11.49
1/1/2022 10:30:00 PM 6.33 43.394 0.088 7.05 4.97 11.48
1/1/2022 10:45:00 PM 6.33 43.394 0.088 7.05 4.86 11.49
1/1/2022 11:00:00 PM 6.33 43.394 0.088 6.99 4.78 11.48
1/1/2022 11:15:00 PM 6.32 43.376 0.089 7.05 5.11 11.49
1/1/2022 11:30:00 PM 6.32 43.376 0.089 7.02 4.16 11.49
1/1/2022 11:45:00 PM 6.32 43.376 0.089 7.03 3.9 11.49
1/2/2022 12:00:00 AM 6.33 43.394 0.089 7.06 4.33 11.48
1/2/2022 12:15:00 AM 6.34 43.412 0.089 7.06 4.13 11.48
1/2/2022 12:30:00 AM 6.34 43.412 0.089 7.07 3.67 11.48
1/2/2022 12:45:00 AM 6.34 43.412 0.089 7.02 3.6 11.49
1/2/2022 1:00:00 AM 6.33 43.394 0.089 7.07 3.74 11.49
1/2/2022 1:15:00 AM 6.32 43.376 0.089 7.07 4.66 11.49
1/2/2022 1:30:00 AM 6.31 43.358 0.089 7.08 4.82 11.5
1/2/2022 1:45:00 AM 6.3 43.34 0.089 7.07 4.28 11.5
1/2/2022 2:00:00 AM 6.29 43.322 0.089 7.04 5.26 11.51
1/2/2022 2:15:00 AM 6.28 43.304 0.089 7.06 5 11.51
1/2/2022 2:30:00 AM 6.27 43.286 0.089 7.08 5.61 11.51
1/2/2022 2:45:00 AM 6.25 43.25 0.089 7.04 5.74 11.52
1/2/2022 3:00:00 AM 6.24 43.232 0.089 7.08 6.06 11.52
1/2/2022 3:15:00 AM 6.22 43.196 0.089 7.08 5.8 11.53
1/2/2022 3:30:00 AM 6.21 43.178 0.089 7.04 5.22 11.53
1/2/2022 3:45:00 AM 6.19 43.142 0.089 7.07 5.07 11.54
1/2/2022 4:00:00 AM 6.17 43.106 0.089 7.06 5.46 11.54
1/2/2022 4:15:00 AM 6.15 43.07 0.089 7.07 4.79 11.56
1/2/2022 4:30:00 AM 6.13 43.034 0.089 7.07 4.85 11.55
1/2/2022 4:45:00 AM 6.11 42.998 0.089 7.09 4.93 11.56
1/2/2022 5:00:00 AM 6.09 42.962 0.089 7.08 4.65 11.57
1/2/2022 5:15:00 AM 6.06 42.908 0.089 7.09 4.88 11.57
1/2/2022 5:30:00 AM 6.04 42.872 0.089 7.09 4.87 11.59
1/2/2022 5:45:00 AM 6.02 42.836 0.089 7.09 4.65 11.6
1/2/2022 6:00:00 AM 5.99 42.782 0.089 7.08 4.49 11.61
1/2/2022 6:15:00 AM 5.96 42.728 0.089 7.09 4.71 11.61
1/2/2022 6:30:00 AM 5.92 42.656 0.089 7.09 4.36 11.62
1/2/2022 6:45:00 AM 5.89 42.602 0.089 7.09 4.33 11.63
1/2/2022 7:00:00 AM 5.85 42.53 0.09 7.09 4.3 11.64
1/2/2022 7:15:00 AM 5.81 42.458 0.09 7.09 4.33 11.66
1/2/2022 7:30:00 AM 5.78 42.404 0.09 7.09 4.37 11.67
1/2/2022 7:45:00 AM 5.75 42.35 0.09 7.08 4.08 11.69
1/2/2022 8:00:00 AM 5.71 42.278 0.09 7.09 4.42 11.73
1/2/2022 8:15:00 AM 5.68 42.224 0.09 7.11 4.19 11.8
1/2/2022 8:30:00 AM 5.65 42.17 0.09 7.08 4.18 11.85
1/2/2022 8:45:00 AM 5.61 42.098 0.09 7.14 4.12 11.94
1/2/2022 9:00:00 AM 5.59 42.062 0.09 7.16 4.33 12.08
1/2/2022 9:15:00 AM 5.57 42.026 0.09 7.19 3.92 12.21
1/2/2022 9:30:00 AM 5.55 41.99 0.09 7.23 3.65 12.33
1/2/2022 9:45:00 AM 5.53 41.954 0.09 7.25 3.67 12.45
1/2/2022 10:00:00 AM 5.53 41.954 0.09 7.31 3.56 12.62
1/2/2022 10:15:00 AM 5.54 41.972 0.09 7.32 3.81 12.79
1/2/2022 10:30:00 AM 5.51 41.918 0.09 7.4 3.48 12.83
1/2/2022 10:45:00 AM 5.48 41.864 0.09 7.42 3.8 12.83
1/2/2022 11:00:00 AM 5.46 41.828 0.09 7.44 3.37 12.88
1/2/2022 11:15:00 AM 5.46 41.828 0.09 7.43 3.6 12.92
1/2/2022 11:30:00 AM 5.43 41.774 0.09 7.49 3.35 12.93
1/2/2022 11:45:00 AM 5.39 41.702 0.09 7.49 3.42 12.91
1/2/2022 12:00:00 PM 5.35 41.63 0.09 7.49 3.42 12.89
1/2/2022 12:15:00 PM 5.31 41.558 0.09 7.48 3.17 12.87
1/2/2022 12:30:00 PM 5.27 41.486 0.09 7.47 3.27 12.85
1/2/2022 12:45:00 PM 5.24 41.432 0.09 7.47 3.14 12.88
1/2/2022 1:00:00 PM 5.21 41.378 0.09 7.49 3.3 12.96
1/2/2022 1:15:00 PM 5.17 41.306 0.09 7.51 3.25 13
1/2/2022 1:30:00 PM 5.13 41.234 0.09 7.51 3.61 12.98
1/2/2022 1:45:00 PM 5.08 41.144 0.09 7.5 3.26 12.96
1/2/2022 2:00:00 PM 5.03 41.054 0.09 7.44 2.98 12.95
1/2/2022 2:15:00 PM 4.99 40.982 0.09 7.48 3.08 12.93
1/2/2022 2:30:00 PM 4.95 40.91 0.09 7.43 3.14 12.89
1/2/2022 2:45:00 PM 4.9 40.82 0.09 7.43 3.25 12.83
1/2/2022 3:00:00 PM 4.85 40.73 0.09 7.4 3.11 12.79
1/2/2022 3:15:00 PM 4.79 40.622 0.09 7.34 3.09 12.74
1/2/2022 3:30:00 PM 4.73 40.514 0.09 7.35 3.08 12.68
1/2/2022 3:45:00 PM 4.67 40.406 0.09 7.27 3.16 12.62
1/2/2022 4:00:00 PM 4.61 40.298 0.09 7.29 3.18 12.56
1/2/2022 4:15:00 PM 4.53 40.154 0.09 7.23 3.14 12.51
1/2/2022 4:30:00 PM 4.47 40.046 0.091 7.23 3.04 12.46
1/2/2022 4:45:00 PM 4.41 39.938 0.091 7.21 3.1 12.42
1/2/2022 5:00:00 PM 4.33 39.794 0.091 7.19 3.04 12.39
1/2/2022 5:15:00 PM 4.27 39.686 0.091 7.17 3.13 12.38
1/2/2022 5:30:00 PM 4.2 39.56 0.091 7.16 2.95 12.37
1/2/2022 5:45:00 PM 4.14 39.452 0.091 7.13 2.99 12.37
1/2/2022 6:00:00 PM 4.08 39.344 0.091 7.14 2.89 12.38
1/2/2022 6:15:00 PM 4.02 39.236 0.091 7.13 3.12 12.39
1/2/2022 6:30:00 PM 3.97 39.146 0.092 7.09 3.05 12.41
1/2/2022 6:45:00 PM 3.92 39.056 0.092 7.1 2.85 12.42
1/2/2022 7:00:00 PM 3.86 38.948 0.092 7.09 3.07 12.44
1/2/2022 7:15:00 PM 3.81 38.858 0.092 7.12 2.97 12.45
1/2/2022 7:30:00 PM 3.75 38.75 0.092 7.12 2.99 12.46
1/2/2022 7:45:00 PM 3.7 38.66 0.092 7.11 3.14 12.49
1/2/2022 8:00:00 PM 3.65 38.57 0.092 7.11 3.02 12.51
1/2/2022 8:15:00 PM 3.6 38.48 0.092 7.07 2.89 12.54
1/2/2022 8:30:00 PM 3.54 38.372 0.092 7.1 3.12 12.55
1/2/2022 8:45:00 PM 3.5 38.3 0.092 7.11 2.96 12.57
1/2/2022 9:00:00 PM 3.45 38.21 0.092 7.11 2.86 12.6
1/2/2022 9:15:00 PM 3.4 38.12 0.092 7.11 3 12.61
1/2/2022 9:30:00 PM 3.37 38.066 0.092 7.07 2.94 12.63
1/2/2022 9:45:00 PM 3.32 37.976 0.093 7.1 2.76 12.64
1/2/2022 10:00:00 PM 3.28 37.904 0.093 7.1 2.89 12.65
1/2/2022 10:15:00 PM 3.22 37.796 0.093 7.1 2.97 12.68
1/2/2022 10:30:00 PM 3.17 37.706 0.093 7.1 2.87 12.7
1/2/2022 10:45:00 PM 3.13 37.634 0.093 7.11 2.96 12.71
1/2/2022 11:00:00 PM 3.08 37.544 0.093 7.1 2.8 12.74
1/2/2022 11:15:00 PM 3.02 37.436 0.093 7.07 2.73 12.76
1/2/2022 11:30:00 PM 2.97 37.346 0.093 7.08 2.91 12.78
1/2/2022 11:45:00 PM 2.92 37.256 0.093 7.1 2.81 12.79
1/3/2022 12:00:00 AM 2.87 37.166 0.093 7.08 2.9 12.81
1/3/2022 12:15:00 AM 2.82 37.076 0.093 7.1 2.77 12.84
1/3/2022 12:30:00 AM 2.77 36.986 0.093 7.1 2.94 12.85
1/3/2022 12:45:00 AM 2.74 36.932 0.093 7.1 2.91 12.87
1/3/2022 1:00:00 AM 2.7 36.86 0.093 7.1 2.8 12.88
1/3/2022 1:15:00 AM 2.66 36.788 0.093 7.1 2.76 12.9
1/3/2022 1:30:00 AM 2.63 36.734 0.093 7.09 2.73 12.92
1/3/2022 1:45:00 AM 2.59 36.662 0.093 7.06 2.81 12.93
1/3/2022 2:00:00 AM 2.54 36.572 0.093 7.1 2.83 12.95
1/3/2022 2:15:00 AM 2.48 36.464 0.093 7.1 2.84 12.97
1/3/2022 2:30:00 AM 2.43 36.374 0.093 7.05 2.83 12.99
1/3/2022 2:45:00 AM 2.39 36.302 0.093 7.07 2.7 13
1/3/2022 3:00:00 AM 2.35 36.23 0.094 7.1 2.82 13.02
1/3/2022 3:15:00 AM 2.31 36.158 0.094 7.1 2.76 13.04
1/3/2022 3:30:00 AM 2.28 36.104 0.094 7.06 2.83 13.06
1/3/2022 3:45:00 AM 2.25 36.05 0.094 7.1 2.67 13.07
1/3/2022 4:00:00 AM 2.22 35.996 0.094 7.09 2.73 13.08
1/3/2022 4:15:00 AM 2.19 35.942 0.094 7.1 2.56 13.09
1/3/2022 4:30:00 AM 2.15 35.87 0.094 7.08 2.68 13.12
1/3/2022 4:45:00 AM 2.12 35.816 0.094 7.09 2.7 13.13
1/3/2022 5:00:00 AM 2.06 35.708 0.094 7.09 2.79 13.14
1/3/2022 5:15:00 AM 2.03 35.654 0.094 7.09 2.68 13.16
1/3/2022 5:30:00 AM 1.98 35.564 0.094 7.09 2.66 13.17
1/3/2022 5:45:00 AM 1.95 35.51 0.094 7.09 2.6 13.18
1/3/2022 6:00:00 AM 1.91 35.438 0.094 7.09 2.6 13.2
1/3/2022 6:15:00 AM 1.86 35.348 0.094 7.07 2.65 13.22
1/3/2022 6:30:00 AM 1.82 35.276 0.094 7.08 2.77 13.23
1/3/2022 6:45:00 AM 1.78 35.204 0.094 7.09 2.61 13.25
1/3/2022 7:00:00 AM 1.74 35.132 0.094 7.04 2.59 13.26
1/3/2022 7:15:00 AM 1.7 35.06 0.094 7.07 2.58 13.28
1/3/2022 7:30:00 AM 1.67 35.006 0.094 7.08 2.63 13.29
1/3/2022 7:45:00 AM 1.62 34.916 0.094 7.04 2.64 13.32
1/3/2022 8:00:00 AM 1.58 34.844 0.094 7.08 2.63 13.35
1/3/2022 8:15:00 AM 1.55 34.79 0.094 7.09 2.67 13.4
1/3/2022 8:30:00 AM 1.52 34.736 0.094 7.1 2.58 13.46
1/3/2022 8:45:00 AM 1.49 34.682 0.094 7.11 2.67 13.55
1/3/2022 9:00:00 AM 1.46 34.628 0.094 7.11 2.66 13.66
1/3/2022 9:15:00 AM 1.43 34.574 0.094 7.16 2.56 13.79
1/3/2022 9:30:00 AM 1.4 34.52 0.093 7.19 2.6 13.93
1/3/2022 9:45:00 AM 1.38 34.484 0.093 7.21 2.5 14.04
1/3/2022 10:00:00 AM 1.36 34.448 0.093 7.24 2.58 14.16
1/3/2022 10:15:00 AM 1.34 34.412 0.093 7.24 2.58 14.26
1/3/2022 10:30:00 AM 1.33 34.394 0.093 7.3 2.49 14.37
1/3/2022 10:45:00 AM 1.31 34.358 0.093 7.33 2.64 14.44
1/3/2022 11:00:00 AM 1.3 34.34 0.093 7.36 2.61 14.51
1/3/2022 11:15:00 AM 1.29 34.322 0.093 7.38 2.61 14.56
1/3/2022 11:30:00 AM 1.3 34.34 0.092 7.41 2.54 14.62
1/3/2022 11:45:00 AM 1.3 34.34 0.092 7.43 2.58 14.66
1/3/2022 12:00:00 PM 1.31 34.358 0.092 7.46 2.51 14.69
1/3/2022 12:15:00 PM 1.33 34.394 0.092 7.44 2.54 14.71
1/3/2022 12:30:00 PM 1.33 34.394 0.092 7.49 2.49 14.73
1/3/2022 12:45:00 PM 1.34 34.412 0.092 7.51 2.39 14.75
1/3/2022 1:00:00 PM 1.37 34.466 0.092 7.49 2.47 14.76
1/3/2022 1:15:00 PM 1.38 34.484 0.092 7.53 2.62 14.76
1/3/2022 1:30:00 PM 1.38 34.484 0.092 7.49 2.41 14.75
1/3/2022 1:45:00 PM 1.37 34.466 0.092 7.54 2.48 14.74
1/3/2022 2:00:00 PM 1.37 34.466 0.091 7.55 2.46 14.73
1/3/2022 2:15:00 PM 1.38 34.484 0.091 7.55 2.43 14.73
1/3/2022 2:30:00 PM 1.38 34.484 0.091 7.53 2.46 14.73
1/3/2022 2:45:00 PM 1.38 34.484 0.091 7.56 2.5 14.72
1/3/2022 3:00:00 PM 1.37 34.466 0.091 7.56 2.52 14.7
1/3/2022 3:15:00 PM 1.35 34.43 0.091 7.51 2.54 14.69
1/3/2022 3:30:00 PM 1.33 34.394 0.091 7.52 2.46 14.66
1/3/2022 3:45:00 PM 1.28 34.304 0.091 7.53 2.43 14.63
1/3/2022 4:00:00 PM 1.23 34.214 0.091 7.5 2.42 14.59
1/3/2022 4:15:00 PM 1.17 34.106 0.091 7.48 2.44 14.54
1/3/2022 4:30:00 PM 1.11 33.998 0.092 7.43 2.45 14.45
1/3/2022 4:45:00 PM 1.03 33.854 0.092 7.39 2.38 14.35
1/3/2022 5:00:00 PM 0.95 33.71 0.092 7.33 2.45 14.21
1/3/2022 5:15:00 PM 0.87 33.566 0.092 7.29 2.45 14.09
1/3/2022 5:30:00 PM 0.8 33.44 0.092 7.23 2.4 14
1/3/2022 5:45:00 PM 0.73 33.314 0.092 7.21 2.33 13.93
1/3/2022 6:00:00 PM 0.64 33.152 0.093 7.18 2.45 13.89
1/3/2022 6:15:00 PM 0.56 33.008 0.093 7.13 2.45 13.86
1/3/2022 6:30:00 PM 0.48 32.864 0.093 7.14 2.43 13.84
1/3/2022 6:45:00 PM 0.42 32.756 0.093 7.11 2.53 13.84
1/3/2022 7:00:00 PM 0.35 32.63 0.093 7.12 2.46 13.85
1/3/2022 7:15:00 PM 0.29 32.522 0.093 7.11 2.5 13.87
1/3/2022 7:30:00 PM 0.23 32.414 0.093 7.06 2.44 13.88
1/3/2022 7:45:00 PM 0.17 32.306 0.093 7.1 2.48 13.9
1/3/2022 8:00:00 PM 0.12 32.216 0.093 7.1 2.5 13.93
1/3/2022 8:15:00 PM 0.06 32.108 0.093 7.09 2.49 13.95
1/3/2022 8:30:00 PM 0.02 32.036 0.094 7.09 2.36 13.97
1/3/2022 8:45:00 PM -0.01 31.982 0.094 7.09 2.48 13.99
1/3/2022 9:00:00 PM -0.01 31.982 0.094 7.09 2.52 14
1/3/2022 9:15:00 PM -0.01 31.982 0.094 7.09 2.59 14.02
1/3/2022 9:30:00 PM 0 32 0.094 7.08 2.55 14.03
1/3/2022 9:45:00 PM 0 32 0.095 7.09 2.57 14.03
1/3/2022 10:00:00 PM 0 32 0.095 7.07 2.57 14.03
1/3/2022 10:15:00 PM 0.01 32.018 0.095 7.08 2.65 14.02
1/3/2022 10:30:00 PM 0.01 32.018 0.095 7.08 2.58 14.03
1/3/2022 10:45:00 PM 0.02 32.036 0.095 7.05 2.6 14.02
1/3/2022 11:00:00 PM 0.03 32.054 0.095 7.07 2.65 14.02
1/3/2022 11:15:00 PM 0.03 32.054 0.096 7.08 2.61 14.02
1/3/2022 11:30:00 PM 0.04 32.072 0.096 7.06 2.54 14.01
1/3/2022 11:45:00 PM 0.04 32.072 0.096 7.07 2.48 14.01
1/4/2022 12:00:00 AM 0.05 32.09 0.096 7.07 2.51 14.01
1/4/2022 12:15:00 AM 0.05 32.09 0.096 7.07 2.52 14.01
1/4/2022 12:30:00 AM 0.05 32.09 0.096 7.03 2.52 14
1/4/2022 12:45:00 AM 0.06 32.108 0.096 7.07 2.61 14
1/4/2022 1:00:00 AM 0.05 32.09 0.096 7.07 2.52 14.01
1/4/2022 1:15:00 AM 0.05 32.09 0.096 7.03 2.52 14.01
1/4/2022 1:30:00 AM 0.04 32.072 0.096 7.05 2.54 14.01
1/4/2022 1:45:00 AM 0.04 32.072 0.096 7.07 2.56 14.01
1/4/2022 2:00:00 AM 0.03 32.054 0.096 7.05 2.55 14.02
1/4/2022 2:15:00 AM 0.03 32.054 0.096 7.04 2.54 14.02
1/4/2022 2:30:00 AM 0.03 32.054 0.096 7.04 2.61 14.02
1/4/2022 2:45:00 AM 0.03 32.054 0.096 7.04 2.51 14.02
1/4/2022 3:00:00 AM 0.02 32.036 0.096 7.04 2.39 14.02
1/4/2022 3:15:00 AM 0.02 32.036 0.096 7.04 2.57 14.02
1/4/2022 3:30:00 AM 0.02 32.036 0.096 7.06 2.57 14.03
1/4/2022 3:45:00 AM 0.02 32.036 0.096 7.02 2.5 14.03
1/4/2022 4:00:00 AM 0.02 32.036 0.096 7.06 2.48 14.03
1/4/2022 4:15:00 AM 0.02 32.036 0.096 7.06 2.54 14.04
1/4/2022 4:30:00 AM 0.02 32.036 0.096 7.06 2.48 14.03
1/4/2022 4:45:00 AM 0.03 32.054 0.096 7.02 2.55 14.02
1/4/2022 5:00:00 AM 0.03 32.054 0.096 7.03 2.55 14.02
1/4/2022 5:15:00 AM 0.04 32.072 0.096 7.04 2.38 14.01
1/4/2022 5:30:00 AM 0.04 32.072 0.096 7.04 2.54 14.01
1/4/2022 5:45:00 AM 0.05 32.09 0.096 7.03 2.55 14
1/4/2022 6:00:00 AM 0.05 32.09 0.096 7.05 2.4 14
1/4/2022 6:15:00 AM 0.06 32.108 0.096 7.04 2.44 14
1/4/2022 6:30:00 AM 0.06 32.108 0.096 7.04 2.4 14
1/4/2022 6:45:00 AM 0.06 32.108 0.096 7.05 2.43 14
1/4/2022 7:00:00 AM 0.06 32.108 0.097 7.04 2.4 13.99
1/4/2022 7:15:00 AM 0.07 32.126 0.097 7.04 2.41 13.99
1/4/2022 7:30:00 AM 0.07 32.126 0.097 6.99 2.49 13.99
1/4/2022 7:45:00 AM 0.07 32.126 0.097 7.04 2.36 14
1/4/2022 8:00:00 AM 0.07 32.126 0.097 7.04 2.46 14.03
1/4/2022 8:15:00 AM 0.08 32.144 0.097 7.06 2.47 14.09
1/4/2022 8:30:00 AM 0.08 32.144 0.097 7.07 2.47 14.16
1/4/2022 8:45:00 AM 0.08 32.144 0.097 7.04 2.43 14.28
1/4/2022 9:00:00 AM 0.08 32.144 0.097 7.1 2.43 14.38
1/4/2022 9:15:00 AM 0.07 32.126 0.097 7.08 2.42 14.51
1/4/2022 9:30:00 AM